Provisional Data: Swatara Creek near Annville, PA


Please select a monitoring station.
Please select start date.
Please select start date.

Toggle Unit: C/F Toggle Unit: C/F
Sample Time Temperature (C) Temperature (F) Specific Conductivity (mS/cm) pH   Turbidity (NTU+) DO (mg/L)
12/23/2022 12:00:00 AM 2.01 35.618 0.14 6.38 177.1 12.92
12/23/2022 12:15:00 AM 2.1 35.78 0.145 6.36 157.7 12.86
12/23/2022 12:30:00 AM 2.18 35.924 0.149 6.35 146.1 12.78
12/23/2022 12:45:00 AM 2.39 36.302 0.15 6.33 134.8 12.7
12/23/2022 1:00:00 AM 2.47 36.446 0.156 6.37 159.4 12.67
12/23/2022 1:15:00 AM 2.53 36.554 0.157 6.37 171.3 12.61
12/23/2022 1:30:00 AM 2.58 36.644 0.157 6.38 162.1 12.58
12/23/2022 1:45:00 AM 2.62 36.716 0.158 6.38 160.3 12.57
12/23/2022 2:00:00 AM 2.66 36.788 0.162 6.39 152.9 12.56
12/23/2022 2:15:00 AM 2.7 36.86 0.164 6.4 150.7 12.54
12/23/2022 2:30:00 AM 2.76 36.968 0.17 6.42 140 12.54
12/23/2022 2:45:00 AM 2.81 37.058 0.174 6.44 143.9 12.54
12/23/2022 3:00:00 AM 2.85 37.13 0.177 6.43 132.1 12.53
12/23/2022 3:15:00 AM 2.91 37.238 0.182 6.45 123.7 12.55
12/23/2022 3:30:00 AM 2.96 37.328 0.188 6.47 124.3 12.54
12/23/2022 3:45:00 AM 3.01 37.418 0.185 6.46 117 12.53
12/23/2022 4:00:00 AM 3.06 37.508 0.186 6.45 108.5 12.51
12/23/2022 4:15:00 AM 3.1 37.58 0.187 6.46 90.96 12.49
12/23/2022 4:30:00 AM 3.14 37.652 0.187 6.46 105.1 12.46
12/23/2022 4:45:00 AM 3.18 37.724 0.191 6.47 89.54 12.47
12/23/2022 5:00:00 AM 3.21 37.778 0.191 6.48 86.22 12.44
12/23/2022 5:15:00 AM 3.24 37.832 0.191 6.47 77.61 12.42
12/23/2022 5:30:00 AM 3.26 37.868 0.193 6.47 82.19 12.43
12/23/2022 5:45:00 AM 3.28 37.904 0.195 6.49 102 12.43
12/23/2022 6:00:00 AM 3.3 37.94 0.198 6.5 95.35 12.41
12/23/2022 6:15:00 AM 3.31 37.958 0.201 6.5 94.38 12.4
12/23/2022 6:30:00 AM 3.33 37.994 0.204 6.51 103.1 12.4
12/23/2022 6:45:00 AM 3.35 38.03 0.207 6.52 110 12.38
12/23/2022 7:00:00 AM 3.36 38.048 0.212 6.49 131.5 12.38
12/23/2022 7:15:00 AM 3.38 38.084 0.215 6.5 158.3 12.37
12/23/2022 7:30:00 AM 3.39 38.102 0.217 6.46 118.5 12.35
12/23/2022 7:45:00 AM 3.42 38.156 0.219 6.46 146.7 12.32
12/23/2022 8:00:00 AM 3.44 38.192 0.219 6.49 162.3 12.3
12/23/2022 8:15:00 AM 3.46 38.228 0.218 6.48 152.3 12.28
12/23/2022 8:30:00 AM 3.49 38.282 0.215 6.45 139.7 12.25
12/23/2022 8:45:00 AM 3.52 38.336 0.212 6.44 164.8 12.22
12/23/2022 9:00:00 AM 3.54 38.372 0.209 6.44 174 12.18
12/23/2022 9:15:00 AM 3.57 38.426 0.205 6.38 167.5 12.14
12/23/2022 9:30:00 AM 3.6 38.48 0.202 6.38 178.8 12.11
12/23/2022 9:45:00 AM 3.63 38.534 0.199 6.39 179.2 12.08
12/23/2022 10:00:00 AM 3.66 38.588 0.196 6.4 143 12.04
12/23/2022 10:15:00 AM 3.69 38.642 0.193 6.4 155.4 12
12/23/2022 10:30:00 AM 3.71 38.678 0.19 6.4 174.8 11.97
12/23/2022 10:45:00 AM 3.73 38.714 0.187 6.41 176.8 11.95
12/23/2022 11:00:00 AM 3.74 38.732 0.185 6.41 116.8 11.91
12/23/2022 11:15:00 AM 3.76 38.768 0.182 6.39 166.9 11.89
12/23/2022 11:30:00 AM 3.78 38.804 0.18 6.42 210.6 11.88
12/23/2022 11:45:00 AM 3.81 38.858 0.178 6.41 151.2 11.85
12/23/2022 12:00:00 PM 3.84 38.912 0.177 6.42 152.3 11.82
12/23/2022 12:15:00 PM 3.85 38.93 0.176 6.41 157.9 11.81
12/23/2022 12:30:00 PM 3.88 38.984 0.177 6.4 158.4 11.77
12/23/2022 12:45:00 PM 3.9 39.02 0.177 6.38 180.8 11.75
12/23/2022 1:00:00 PM 3.9 39.02 0.177 6.35 134 11.75
12/23/2022 1:15:00 PM 3.9 39.02 0.177 6.36 111.1 11.7
12/23/2022 1:30:00 PM 3.89 39.002 0.176 6.39 165.3 11.57
12/23/2022 1:45:00 PM 3.87 38.966 0.175 6.4 146.5 11.57
12/23/2022 2:00:00 PM 3.86 38.948 0.174 6.38 121.8 11.61
12/23/2022 2:15:00 PM 3.86 38.948 0.173 6.37 117.9 11.56
12/23/2022 2:30:00 PM 3.85 38.93 0.171 6.36 116 11.68
12/23/2022 2:45:00 PM 3.85 38.93 0.17 6.36 174.4 11.46
12/23/2022 3:00:00 PM 3.86 38.948 0.168 6.34 184.1 11.58
12/23/2022 3:15:00 PM 3.86 38.948 0.166 6.35 163.5 11.57
12/23/2022 3:30:00 PM 3.87 38.966 0.165 6.34 179.6 11.6
12/23/2022 3:45:00 PM 3.87 38.966 0.163 6.33 191.2 11.54
12/23/2022 4:00:00 PM 3.87 38.966 0.162 6.32 181.8 11.44
12/23/2022 4:15:00 PM 3.86 38.948 0.16 6.32 152 11.27
12/23/2022 4:30:00 PM 3.86 38.948 0.159 6.32 214.8 11.32
12/23/2022 4:45:00 PM 3.84 38.912 0.158 6.32 193.1 11.38
12/23/2022 5:00:00 PM 3.83 38.894 0.156 6.3 187.8 11.62
12/23/2022 5:15:00 PM 3.81 38.858 0.155 6.3 217.8 11.39
12/23/2022 5:30:00 PM 3.8 38.84 0.153 6.29 222.5 11.57
12/23/2022 5:45:00 PM 3.78 38.804 0.151 6.3 220.1 11.55
12/23/2022 6:00:00 PM 3.76 38.768 0.15 6.3 186.6 11.44
12/23/2022 6:15:00 PM 3.73 38.714 0.148 6.29 203 11.42
12/23/2022 6:30:00 PM 3.71 38.678 0.147 6.23 196.1 11.54
12/23/2022 6:45:00 PM 3.69 38.642 0.145 6.27 170.8 11.47
12/23/2022 7:00:00 PM 3.66 38.588 0.144 6.28 147.1 11.46
12/23/2022 7:15:00 PM 3.63 38.534 0.143 6.29 184.4 11.52
12/23/2022 7:30:00 PM 3.59 38.462 0.142 6.28 190.5 11.58
12/23/2022 7:45:00 PM 3.56 38.408 0.141 6.28 199.1 11.68
12/23/2022 8:00:00 PM 3.53 38.354 0.14 6.27 198 11.54
12/23/2022 8:15:00 PM 3.5 38.3 0.14 6.28 183.9 11.67
12/23/2022 8:30:00 PM 3.47 38.246 0.139 6.27 184.1 11.65
12/23/2022 8:45:00 PM 3.44 38.192 0.139 6.3 182.6 11.71
12/23/2022 9:00:00 PM 3.4 38.12 0.139 6.32 172.7 11.7
12/23/2022 9:15:00 PM 3.36 38.048 0.139 6.32 161.2 11.73
12/23/2022 9:30:00 PM 3.32 37.976 0.139 6.3 156.7 11.8
12/23/2022 9:45:00 PM 3.27 37.886 0.139 6.29 164.1 11.79
12/23/2022 10:00:00 PM 3.23 37.814 0.139 6.29 139.6 11.81
12/23/2022 10:15:00 PM 3.18 37.724 0.139 6.29 132.1 11.85
12/23/2022 10:30:00 PM 3.13 37.634 0.139 6.3 139.7 11.85
12/23/2022 10:45:00 PM 3.08 37.544 0.139 6.29 131 11.9
12/23/2022 11:00:00 PM 3.03 37.454 0.139 6.3 113.5 11.86
12/23/2022 11:15:00 PM 2.98 37.364 0.139 6.29 127.5 11.94
12/23/2022 11:30:00 PM 2.93 37.274 0.139 6.27 114.3 11.94
12/23/2022 11:45:00 PM 2.87 37.166 0.139 6.27 121.6 11.99
12/24/2022 12:00:00 AM 2.81 37.058 0.139 6.25 130.4 12.02
12/24/2022 12:15:00 AM 2.75 36.95 0.14 6.25 110.8 12.03
12/24/2022 12:30:00 AM 2.7 36.86 0.14 6.25 111 12.04
12/24/2022 12:45:00 AM 2.64 36.752 0.14 6.25 111.8 12.07
12/24/2022 1:00:00 AM 2.58 36.644 0.14 6.26 118.6 12.08
12/24/2022 1:15:00 AM 2.53 36.554 0.14 6.26 108.7 12.1
12/24/2022 1:30:00 AM 2.47 36.446 0.14 6.24 104 12.1
12/24/2022 1:45:00 AM 2.42 36.356 0.139 6.23 102.1 12.17
12/24/2022 2:00:00 AM 2.37 36.266 0.139 6.23 100.8 12.22
12/24/2022 2:15:00 AM 2.3 36.14 0.139 6.25 114.1 12.26
12/24/2022 2:30:00 AM 2.2 35.96 0.14 6.25 102.4 12.27
12/24/2022 2:45:00 AM 2.15 35.87 0.139 6.22 100.3 12.33
12/24/2022 3:00:00 AM 2.1 35.78 0.139 6.25 99.4 12.36
12/24/2022 3:15:00 AM 2.05 35.69 0.139 6.24 116.2 12.39
12/24/2022 3:30:00 AM 1.99 35.582 0.14 6.23 93.35 12.41
12/24/2022 3:45:00 AM 1.92 35.456 0.14 6.24 106.1 12.43
12/24/2022 4:00:00 AM 1.85 35.33 0.14 6.22 94.39 12.47
12/24/2022 4:15:00 AM 1.79 35.222 0.14 6.24 100.8 12.48
12/24/2022 4:30:00 AM 1.73 35.114 0.14 6.21 107.4 12.53
12/24/2022 4:45:00 AM 1.67 35.006 0.139 6.23 100 12.57
12/24/2022 5:00:00 AM 1.6 34.88 0.14 6.22 98.73 12.61
12/24/2022 5:15:00 AM 1.54 34.772 0.139 6.23 102.3 12.45
12/24/2022 5:30:00 AM 1.49 34.682 0.139 6.23 97.75 12.48
12/24/2022 5:45:00 AM 1.42 34.556 0.139 6.22 94.08 12.4
12/24/2022 6:00:00 AM 1.36 34.448 0.139 6.23 108.2 12.54
12/24/2022 6:15:00 AM 1.3 34.34 0.139 6.23 91.33 12.74
12/24/2022 6:30:00 AM 1.23 34.214 0.139 6.21 95.51 12.8
12/24/2022 6:45:00 AM 1.18 34.124 0.139 6.23 76.35 12.81
12/24/2022 7:00:00 AM 1.12 34.016 0.14 6.22 89.41 12.85
12/24/2022 7:15:00 AM 1.06 33.908 0.14 6.2 97.47 12.89
12/24/2022 7:30:00 AM 1.01 33.818 0.14 6.22 84.52 12.93
12/24/2022 7:45:00 AM 0.96 33.728 0.14 6.17 86.58 12.94
12/24/2022 8:00:00 AM 0.9 33.62 0.141 6.19 89.31 12.97
12/24/2022 8:15:00 AM 0.86 33.548 0.141 6.18 88.98 12.99
12/24/2022 8:30:00 AM 0.81 33.458 0.141 6.19 88.85 13.04
12/24/2022 8:45:00 AM 0.77 33.386 0.141 6.18 84.94 13.07
12/24/2022 9:00:00 AM 0.73 33.314 0.142 6.16 92.4 13.1
12/24/2022 9:15:00 AM 0.69 33.242 0.142 6.17 74.85 13.11
12/24/2022 9:30:00 AM 0.66 33.188 0.142 6.19 76.43 13.14
12/24/2022 9:45:00 AM 0.62 33.116 0.142 6.2 81.28 13.17
12/24/2022 10:00:00 AM 0.6 33.08 0.142 6.2 101.5 13.21
12/24/2022 10:15:00 AM 0.58 33.044 0.142 6.21 72.77 13.22
12/24/2022 10:30:00 AM 0.56 33.008 0.142 6.2 118 13.26
12/24/2022 10:45:00 AM 0.53 32.954 0.143 6.2 71.81 13.28
12/24/2022 11:00:00 AM 0.5 32.9 0.143 6.19 71.19 13.31
12/24/2022 11:15:00 AM 0.47 32.846 0.143 6.18 69.66 13.32
12/24/2022 11:30:00 AM 0.44 32.792 0.143 6.22 95.04 13.35
12/24/2022 11:45:00 AM 0.42 32.756 0.143 6.21 68.58 13.37
12/24/2022 12:00:00 PM 0.41 32.738 0.143 6.22 66.15 13.39
12/24/2022 12:15:00 PM 0.41 32.738 0.143 6.21 75.23 13.42
12/24/2022 12:30:00 PM 0.39 32.702 0.143 6.23 62.44 13.42
12/24/2022 12:45:00 PM 0.38 32.684 0.143 6.24 67.52 13.46
12/24/2022 1:00:00 PM 0.37 32.666 0.143 6.09 81.55 13.47
12/24/2022 1:15:00 PM 0.36 32.648 0.143 6.13 60.8 13.5
12/24/2022 1:30:00 PM 0.35 32.63 0.143 6.11 59.25 13.51
12/24/2022 1:45:00 PM 0.34 32.612 0.143 6.1 57.83 13.52
12/24/2022 2:00:00 PM 0.33 32.594 0.144 6.07 61.45 13.57
12/24/2022 2:15:00 PM 0.31 32.558 0.144 6.03 58.93 13.57
12/24/2022 2:30:00 PM 0.3 32.54 0.145 6.11 67.92 13.58
12/24/2022 2:45:00 PM 0.28 32.504 0.145 6.52 244.3 13.6
12/24/2022 3:00:00 PM 0.27 32.486 0.145 6.54 230 13.62
12/24/2022 3:15:00 PM 0.26 32.468 0.146 6.63 221.7 13.62
12/24/2022 3:30:00 PM 0.24 32.432 0.146 6.65 204.3 13.65
12/24/2022 3:45:00 PM 0.22 32.396 0.146 6.75 187.6 13.67
12/24/2022 4:00:00 PM 0.2 32.36 0.146 6.77 178.9 13.67
12/24/2022 4:15:00 PM 0.18 32.324 0.146 6.78 175.1 13.69
12/24/2022 4:30:00 PM 0.16 32.288 0.147 6.83 185.6 13.7
12/24/2022 4:45:00 PM 0.14 32.252 0.147 6.87 175.3 13.72
12/24/2022 5:00:00 PM 0.13 32.234 0.147 6.92 171.7 13.73
12/24/2022 5:15:00 PM 0.1 32.18 0.148 6.83 139.8 13.75
12/24/2022 5:30:00 PM 0.08 32.144 0.148 6.9 0 13.76
12/24/2022 5:45:00 PM 0.05 32.09 0.148 6.82 0 13.76
12/24/2022 6:00:00 PM 0.03 32.054 0.148 6.9 0 13.77
12/24/2022 6:15:00 PM 0.01 32.018 0.149 6.92 0 13.8
12/24/2022 6:30:00 PM 0 32 0.149 6.91 0 13.8
12/24/2022 6:45:00 PM -0.02 31.964 0.149 6.87 0 13.81
12/24/2022 7:00:00 PM -0.04 31.928 0.15 6.84 0 13.83
12/24/2022 7:15:00 PM -0.07 31.874 0.15 6.85 0 13.82
12/24/2022 7:30:00 PM -0.08 31.856 0.15 6.96 0 13.85
12/24/2022 7:45:00 PM -0.1 31.82 0.151 6.93 82.34 13.86
12/24/2022 8:00:00 PM -0.12 31.784 0.151 7.35 83.11 13.86
12/24/2022 8:15:00 PM -0.13 31.766 0.152 7.49 81.31 13.85
12/24/2022 8:30:00 PM -0.14 31.748 0.152 7.5 79.89 13.87
12/24/2022 8:45:00 PM -0.15 31.73 0.152 7.55 76.5 13.87
12/24/2022 9:00:00 PM -0.16 31.712 0.152 7.51 76.56 13.9
12/24/2022 9:15:00 PM -0.17 31.694 0.153 7.29 77.62 13.89
12/24/2022 9:30:00 PM -0.18 31.676 0.153 7.16 80.34 13.89
12/24/2022 9:45:00 PM -0.2 31.64 0.153 7.1 83.8 13.91
12/24/2022 10:00:00 PM -0.21 31.622 0.154 8.35 90.92 13.9
12/24/2022 10:15:00 PM -0.22 31.604 0.154 7.25 90.76 13.91
12/24/2022 10:30:00 PM -0.22 31.604 0.154 7.02 92.8 13.91
12/24/2022 10:45:00 PM -0.23 31.586 0.154 6.93 89.43 13.93
12/24/2022 11:00:00 PM -0.23 31.586 0.155 6.84 92.52 13.95
12/24/2022 11:15:00 PM -0.22 31.604 0.155 6.78 96.56 13.93
12/24/2022 11:30:00 PM -0.22 31.604 0.155 6.75 94.06 13.96
12/24/2022 11:45:00 PM -0.21 31.622 0.155 6.73 94.22 13.96
12/25/2022 12:00:00 AM -0.21 31.622 0.155 6.59 98.3 13.97
12/25/2022 12:15:00 AM -0.21 31.622 0.156 6.66 103.6 13.96
12/25/2022 12:30:00 AM -0.21 31.622 0.156 6.63 100.4 13.94
12/25/2022 12:45:00 AM -0.21 31.622 0.156 6.76 99.39 13.93
12/25/2022 1:00:00 AM -0.2 31.64 0.156 6.69 103.7 13.92
12/25/2022 1:15:00 AM -0.2 31.64 0.156 6.7 98.77 13.93
12/25/2022 1:30:00 AM -0.2 31.64 0.157 6.54 111.2 13.89
12/25/2022 1:45:00 AM -0.2 31.64 0.158 6.51 114.3 13.92
12/25/2022 2:00:00 AM -0.2 31.64 0.157 6.54 103.2 13.93
12/25/2022 2:15:00 AM -0.2 31.64 0.157 6.51 108.8 13.95
12/25/2022 2:30:00 AM -0.2 31.64 0.157 6.49 124.2 13.93
12/25/2022 2:45:00 AM -0.2 31.64 0.158 6.38 142.9 13.93
12/25/2022 3:00:00 AM -0.21 31.622 0.158 6.32 143.3 13.94
12/25/2022 3:15:00 AM -0.2 31.64 0.157 6.17 143.3 13.95
12/25/2022 3:30:00 AM -0.2 31.64 0.158 6.22 167.5 13.93
12/25/2022 3:45:00 AM -0.2 31.64 0.157 6.27 174 13.97
12/25/2022 4:00:00 AM -0.2 31.64 0.158 6.21 169.8 13.95
12/25/2022 4:15:00 AM -0.2 31.64 0.158 6.23 149.4 13.95
12/25/2022 4:30:00 AM -0.2 31.64 0.158 6.2 156.5 13.94
12/25/2022 4:45:00 AM -0.2 31.64 0.158 6.23 169.8 13.95
12/25/2022 5:00:00 AM -0.2 31.64 0.158 6.29 147 13.94
12/25/2022 5:15:00 AM -0.2 31.64 0.158 6.26 158.1 13.96
12/25/2022 5:30:00 AM -0.2 31.64 0.158 6.06 176.3 13.96
12/25/2022 5:45:00 AM -0.2 31.64 0.158 6.27 182.9 13.94
12/25/2022 6:00:00 AM -0.21 31.622 0.158 6.32 145.5 13.96
12/25/2022 6:15:00 AM -0.2 31.64 0.158 6.31 132.2 13.96
12/25/2022 6:30:00 AM -0.2 31.64 0.158 6.28 127.1 13.96
12/25/2022 6:45:00 AM -0.2 31.64 0.158 6.32 123.5 13.95
12/25/2022 7:00:00 AM -0.2 31.64 0.158 6.27 124.5 13.97
12/25/2022 7:15:00 AM -0.2 31.64 0.156 6.25 121.4 13.95
12/25/2022 7:30:00 AM -0.21 31.622 0.161 6.36 133.8 13.95
12/25/2022 7:45:00 AM -0.21 31.622 0.161 6.32 122.6 13.96
12/25/2022 8:00:00 AM -0.2 31.64 0.161 6.26 139.8 13.94
12/25/2022 8:15:00 AM -0.2 31.64 0.161 6.3 158.3 13.92
12/25/2022 8:30:00 AM -0.2 31.64 0.161 6.25 171.5 13.93
12/25/2022 8:45:00 AM -0.2 31.64 0.162 6.33 175 13.96
12/25/2022 9:00:00 AM -0.2 31.64 0.161 6.33 161.1 13.94
12/25/2022 9:15:00 AM -0.2 31.64 0.162 6.34 134.8 13.94
12/25/2022 9:30:00 AM -0.2 31.64 0.162 6.34 145 13.94
12/25/2022 9:45:00 AM -0.2 31.64 0.162 6.24 136 13.95
12/25/2022 10:00:00 AM -0.2 31.64 0.162 6.21 136.6 13.94
12/25/2022 10:15:00 AM -0.19 31.658 0.162 6.28 134.7 13.93
12/25/2022 10:30:00 AM -0.19 31.658 0.162 6.36 131 13.93
12/25/2022 10:45:00 AM -0.19 31.658 0.162 6.35 130 13.94
12/25/2022 11:00:00 AM -0.2 31.64 0.162 6.38 119.4 13.93
12/25/2022 11:15:00 AM -0.19 31.658 0.165 6.33 116.9 13.93
12/25/2022 11:30:00 AM -0.19 31.658 0.164 6.24 110 13.93
12/25/2022 11:45:00 AM -0.18 31.676 0.166 6.35 106.7 13.93
12/25/2022 12:00:00 PM -0.17 31.694 0.16 6.38 102.6 13.91
12/25/2022 12:15:00 PM -0.11 31.802 0.159 6.23 103.7 13.86
12/25/2022 12:30:00 PM -0.06 31.892 0.165 6.35 110.5 13.91
12/25/2022 12:45:00 PM 0 32 0.167 6.38 118.3 13.93
12/25/2022 1:00:00 PM 0.03 32.054 0.167 6.29 944.1 13.92
12/25/2022 1:15:00 PM 0.06 32.108 0.159 6.44 121.3 13.91
12/25/2022 1:30:00 PM 0.1 32.18 0.16 6.24 117.8 13.92
12/25/2022 1:45:00 PM 0.13 32.234 0.159 6.25 131 13.93
12/25/2022 2:00:00 PM 0.17 32.306 0.162 6.35 112.4 13.99
12/25/2022 2:15:00 PM 0.22 32.396 0.165 6.47 108.8 13.94
12/25/2022 2:30:00 PM 0.23 32.414 0.166 6.41 115.1 13.96
12/25/2022 2:45:00 PM 0.24 32.432 0.159 6.39 114.2 13.98
12/25/2022 3:00:00 PM 0.24 32.432 0.16 6.5 115.5 13.99
12/25/2022 3:15:00 PM 0.25 32.45 0.16 6.53 108.6 13.94
12/25/2022 3:30:00 PM 0.25 32.45 0.161 6.48 108.3 13.95
12/25/2022 3:45:00 PM 0.25 32.45 0.16 6.64 110.1 13.93
12/25/2022 4:00:00 PM 0.25 32.45 0.159 6.62 104.1 13.96
12/25/2022 4:15:00 PM 0.44 32.792 0.159 6.64 106.5 13.9
12/25/2022 4:30:00 PM 0.26 32.468 0.159 6.58 106.1 13.96
12/25/2022 4:45:00 PM 0.26 32.468 0.16 6.53 101 13.96
12/25/2022 5:00:00 PM 0.26 32.468 0.161 6.47 100 13.99
12/25/2022 5:15:00 PM 0.27 32.486 0.16 6.57 113 13.96
12/25/2022 5:30:00 PM 0.27 32.486 0.163 6.5 110.3 13.95
12/25/2022 5:45:00 PM 0.27 32.486 0.161 6.55 116.5 13.97
12/25/2022 6:00:00 PM 0.27 32.486 0.161 6.46 114.7 13.97
12/25/2022 6:15:00 PM 0.26 32.468 0.162 6.29 109 13.91
12/25/2022 6:30:00 PM 0.26 32.468 0.161 6.22 106 13.96
12/25/2022 6:45:00 PM 0.26 32.468 0.162 6.14 107.1 13.98
12/25/2022 7:00:00 PM 0.26 32.468 0.167 6.63 110.6 13.97
12/25/2022 7:15:00 PM 0.26 32.468 0.167 6.48 110.9 13.93
12/25/2022 7:30:00 PM 0.25 32.45 0.167 6.74 114.5 13.93
12/25/2022 7:45:00 PM 0.23 32.414 0.168 6.65 111.2 13.89
12/25/2022 8:00:00 PM 0.22 32.396 0.169 6.69 113.9 13.93
12/25/2022 8:15:00 PM 0.21 32.378 0.166 6.75 110.7 13.9
12/25/2022 8:30:00 PM 0.2 32.36 0.165 6.73 116.9 13.95
12/25/2022 8:45:00 PM 0.2 32.36 0.166 6.63 112.2 13.93
12/25/2022 9:00:00 PM 0.19 32.342 0.166 6.71 109.2 13.94
12/25/2022 9:15:00 PM 0.27 32.486 0.167 6.69 112.7 13.9
12/25/2022 9:30:00 PM 0.18 32.324 0.167 6.56 103.4 13.97
12/25/2022 9:45:00 PM 0.18 32.324 0.169 6.83 101.8 13.97
12/25/2022 10:00:00 PM 0.16 32.288 0.166 6.75 99.08 13.94
12/25/2022 10:15:00 PM 0.17 32.306 0.168 6.68 98.24 13.96
12/25/2022 10:30:00 PM 0.16 32.288 0.17 6.55 102.8 13.97
12/25/2022 10:45:00 PM 0.16 32.288 0.17 6.71 102.4 13.95
12/25/2022 11:00:00 PM 0.16 32.288 0.177 6.99 107 13.96
12/25/2022 11:15:00 PM 0.15 32.27 0.18 6.95 115.7 13.93
12/25/2022 11:30:00 PM 0.15 32.27 0.178 6.91 108.8 13.95
12/25/2022 11:45:00 PM 0.15 32.27 0.179 6.8 106.6 13.96
12/26/2022 12:00:00 AM 0.13 32.234 0.178 6.77 106 13.98
12/26/2022 12:15:00 AM 0.13 32.234 0.178 6.67 95.75 13.96
12/26/2022 12:30:00 AM 0.11 32.198 0.175 6.76 97.24 13.94
12/26/2022 12:45:00 AM 0.1 32.18 0.174 6.76 171.8 13.89
12/26/2022 1:00:00 AM 0.09 32.162 0.174 6.74 93.43 13.94
12/26/2022 1:15:00 AM 0.09 32.162 0.174 6.87 117.3 13.96
12/26/2022 1:30:00 AM 0.09 32.162 0.175 6.72 92.44 13.94
12/26/2022 1:45:00 AM 0.09 32.162 0.175 6.87 88.39 13.95
12/26/2022 2:00:00 AM 0.08 32.144 0.178 6.78 88.05 13.93
12/26/2022 2:15:00 AM 0.08 32.144 0.174 6.68 84.25 13.94
12/26/2022 2:30:00 AM 0.07 32.126 0.174 6.44 83.16 13.96
12/26/2022 2:45:00 AM 0.06 32.108 0.173 6.67 83.3 13.95
12/26/2022 3:00:00 AM 0.06 32.108 0.173 6.42 79.58 13.93
12/26/2022 3:15:00 AM 0.04 32.072 0.173 6.67 74.58 13.92
12/26/2022 3:30:00 AM 0.04 32.072 0.173 7.02 78.27 13.95
12/26/2022 3:45:00 AM 0.03 32.054 0.173 6.58 73.52 13.97
12/26/2022 4:00:00 AM 0.02 32.036 0.176 7.05 72.35 13.94
12/26/2022 4:15:00 AM 0.01 32.018 0.174 7.17 74.05 13.92
12/26/2022 4:30:00 AM 0 32 0.172 7.2 70.79 13.93
12/26/2022 4:45:00 AM 0 32 0.174 7.2 85.2 13.96
12/26/2022 5:00:00 AM -0.01 31.982 0.175 7.19 82.56 13.98
12/26/2022 5:15:00 AM -0.02 31.964 0.173 7.21 73.78 13.97
12/26/2022 5:30:00 AM -0.03 31.946 0.158 7.25 72.08 13.91
12/26/2022 5:45:00 AM -0.04 31.928 0.173 7.2 73.56 13.9
12/26/2022 6:00:00 AM -0.05 31.91 0.175 7.18 79.52 13.88
12/26/2022 6:15:00 AM -0.05 31.91 0.176 7.24 77.57 13.95
12/26/2022 6:30:00 AM -0.06 31.892 0.176 7.36 79.75 13.87
12/26/2022 6:45:00 AM -0.07 31.874 0.175 7.22 80.59 13.89
12/26/2022 7:00:00 AM -0.08 31.856 0.175 7.33 81.45 13.98
12/26/2022 7:15:00 AM -0.05 31.91 0.177 7.26 79.87 13.94
12/26/2022 7:30:00 AM -0.1 31.82 0.162 7.32 80.12 13.98
12/26/2022 7:45:00 AM -0.1 31.82 0.159 7.36 72.62 13.89
12/26/2022 8:00:00 AM -0.09 31.838 0.158 7.21 75.57 13.94
12/26/2022 8:15:00 AM -0.09 31.838 0.156 7.24 77.25 13.84
12/26/2022 8:30:00 AM -0.08 31.856 0.156 7.34 79.04 13.97
12/26/2022 8:45:00 AM -0.07 31.874 0.157 7.28 75.5 14.01
12/26/2022 9:00:00 AM -0.06 31.892 0.16 7.29 71.2 13.88
12/26/2022 9:15:00 AM -0.05 31.91 0.164 7.39 67.58 13.94
12/26/2022 9:30:00 AM -0.03 31.946 0.163 7.35 64.89 13.95
12/26/2022 9:45:00 AM -0.01 31.982 0.166 7.3 71.25 14.02
12/26/2022 10:00:00 AM 0 32 0.165 7.35 69.6 14.02
12/26/2022 10:15:00 AM 0.03 32.054 0.162 7.29 70.83 14.03
12/26/2022 10:30:00 AM 0.06 32.108 0.164 7.25 70.38 14.04
12/26/2022 10:45:00 AM 0.08 32.144 0.16 7.18 73.77 14.05
12/26/2022 11:00:00 AM 0.12 32.216 0.16 7.23 76.39 14.05
12/26/2022 11:15:00 AM 0.26 32.468 0.162 7.34 70.09 14
12/26/2022 11:30:00 AM 0.2 32.36 0.165 7.36 68.47 13.89
12/26/2022 11:45:00 AM 0.24 32.432 0.161 7.35 73.14 14.03
12/26/2022 12:00:00 PM 0.28 32.504 0.161 7.42 71.6 14.05
12/26/2022 12:15:00 PM 0.32 32.576 0.161 7.39 69.89 14.07
12/26/2022 12:30:00 PM 0.37 32.666 0.161 7.4 126.5 14.08
12/26/2022 12:45:00 PM 0.41 32.738 0.156 7.38 68.87 14.06
12/26/2022 1:00:00 PM 0.44 32.792 0.161 7.43 67.93 13.97
12/26/2022 1:15:00 PM 0.48 32.864 0.162 7.41 66.91 13.81
12/26/2022 1:30:00 PM 0.51 32.918 0.159 7.21 82.6 14
12/26/2022 1:45:00 PM 0.53 32.954 0.157 7.28 70.13 14.05
12/26/2022 2:00:00 PM 0.55 32.99 0.157 7.31 82.63 14.07
12/26/2022 2:15:00 PM 0.56 33.008 0.156 7.44 75.76 14.01
12/26/2022 2:30:00 PM 0.57 33.026 0.155 7.52 85.52 14.05
12/26/2022 2:45:00 PM 0.58 33.044 0.154 7.55 81.93 14.1
12/26/2022 3:00:00 PM 0.58 33.044 0.153 7.55 82.97 13.99
12/26/2022 3:15:00 PM 0.58 33.044 0.159 7.54 92 14.07
12/26/2022 3:30:00 PM 0.58 33.044 0.157 7.56 82.17 13.95
12/26/2022 3:45:00 PM 0.63 33.134 0.17 7.6 71.93 14.03
12/26/2022 4:00:00 PM 0.79 33.422 0.16 7.58 80.86 14.01
12/26/2022 4:15:00 PM 0.81 33.458 0.159 7.4 86.44 13.97
12/26/2022 4:30:00 PM 0.79 33.422 0.158 7.58 84.22 14
12/26/2022 4:45:00 PM 0.79 33.422 0.168 7.59 85.48 13.9
12/26/2022 5:00:00 PM 0.79 33.422 0.166 7.64 93.25 13.86
12/26/2022 5:15:00 PM 0.78 33.404 0.166 7.56 122.3 13.95
12/26/2022 5:30:00 PM 0.77 33.386 0.167 7.5 99.87 13.99
12/26/2022 5:45:00 PM 0.77 33.386 0.17 7.68 109.4 13.96
12/26/2022 6:00:00 PM 0.77 33.386 0.165 7.64 102.1 14.01
12/26/2022 6:15:00 PM 0.77 33.386 0.167 7.62 93.59 14
12/26/2022 6:30:00 PM 0.77 33.386 0.168 7.4 91.15 13.97
12/26/2022 6:45:00 PM 0.77 33.386 0.169 7.63 90.68 13.93
12/26/2022 7:00:00 PM 0.77 33.386 0.168 7.61 102.4 13.98
12/26/2022 7:15:00 PM 0.78 33.404 0.168 7.6 175.2 13.96
12/26/2022 7:30:00 PM 0.78 33.404 0.169 7.59 90.89 13.92
12/26/2022 7:45:00 PM 0.77 33.386 0.169 7.34 87.03 13.94
12/26/2022 8:00:00 PM 0.78 33.404 0.169 7.24 84.02 13.91
12/26/2022 8:15:00 PM 0.77 33.386 0.17 7.59 85.43 13.95
12/26/2022 8:30:00 PM 0.77 33.386 0.171 7.63 90.55 13.93
12/26/2022 8:45:00 PM 0.77 33.386 0.171 7.62 95.03 13.93
12/26/2022 9:00:00 PM 0.76 33.368 0.172 7.66 100.2 13.87
12/26/2022 9:15:00 PM 0.76 33.368 0.175 7.69 99.87 13.91
12/26/2022 9:30:00 PM 0.75 33.35 0.174 7.51 102.8 13.84
12/26/2022 9:45:00 PM 0.77 33.386 0.173 7.62 104.8 13.89
12/26/2022 10:00:00 PM 0.75 33.35 0.174 7.66 107.2 13.85
12/26/2022 10:15:00 PM 0.74 33.332 0.174 7.64 99.49 13.87
12/26/2022 10:30:00 PM 0.77 33.386 0.173 7.66 97.48 13.85
12/26/2022 10:45:00 PM 0.77 33.386 0.173 7.59 50.44 13.87
12/26/2022 11:00:00 PM 0.76 33.368 0.173 7.47 52.67 13.84
12/26/2022 11:15:00 PM 0.75 33.35 0.173 7.62 47.92 13.84
12/26/2022 11:30:00 PM 0.74 33.332 0.173 7.63 49.36 13.84
12/26/2022 11:45:00 PM 0.74 33.332 0.172 7.66 50.68 13.81
12/27/2022 12:00:00 AM 0.75 33.35 0.172 7.64 47.29 13.81
12/27/2022 12:15:00 AM 0.75 33.35 0.172 7.69 45.55 13.81
12/27/2022 12:30:00 AM 0.75 33.35 0.172 7.64 46.04 13.8
12/27/2022 12:45:00 AM 0.76 33.368 0.172 7.68 54.12 13.82
12/27/2022 1:00:00 AM 0.76 33.368 0.171 7.63 55.2 13.8
12/27/2022 1:15:00 AM 0.76 33.368 0.171 7.69 59.06 13.79
12/27/2022 1:30:00 AM 0.76 33.368 0.169 7.69 52.77 13.85
12/27/2022 1:45:00 AM 0.76 33.368 0.168 7.69 54.27 13.81
12/27/2022 2:00:00 AM 0.77 33.386 0.166 7.65 50.31 13.84
12/27/2022 2:15:00 AM 0.76 33.368 0.168 7.68 48.4 13.82
12/27/2022 2:30:00 AM 0.77 33.386 0.167 7.78 46.73 13.68
12/27/2022 2:45:00 AM 0.77 33.386 0.163 7.42 44.31 13.79
12/27/2022 3:00:00 AM 0.77 33.386 0.169 7.78 45.16 13.8
12/27/2022 3:15:00 AM 0.77 33.386 0.172 7.79 47.81 13.75
12/27/2022 3:30:00 AM 0.76 33.368 0.167 7.73 45.09 13.84
12/27/2022 3:45:00 AM 0.76 33.368 0.168 7.8 45.01 13.82
12/27/2022 4:00:00 AM 0.76 33.368 0.169 7.76 45.52 13.78
12/27/2022 4:15:00 AM 0.76 33.368 0.171 7.79 48.98 13.77
12/27/2022 4:30:00 AM 0.75 33.35 0.169 7.75 50.84 13.79
12/27/2022 4:45:00 AM 0.75 33.35 0.168 7.75 47.86 13.74
12/27/2022 5:00:00 AM 0.75 33.35 0.171 7.81 53.61 13.76
12/27/2022 5:15:00 AM 0.75 33.35 0.171 7.8 52.93 13.7
12/27/2022 5:30:00 AM 0.75 33.35 0.172 7.72 52.26 13.71
12/27/2022 5:45:00 AM 0.75 33.35 0.171 7.73 48.88 13.75
12/27/2022 6:00:00 AM 0.75 33.35 0.172 7.77 47.98 13.74
12/27/2022 6:15:00 AM 0.76 33.368 0.172 7.74 49.47 13.77
12/27/2022 6:30:00 AM 0.76 33.368 0.172 7.72 52.51 13.71
12/27/2022 6:45:00 AM 0.76 33.368 0.172 7.65 54.92 13.58
12/27/2022 7:00:00 AM 0.77 33.386 0.172 7.55 57.24 13.68
12/27/2022 7:15:00 AM 0.77 33.386 0.172 7.61 56.61 13.64
12/27/2022 7:30:00 AM 0.77 33.386 0.173 7.64 61.38 13.7
12/27/2022 7:45:00 AM 0.78 33.404 0.173 7.55 55.57 13.68
12/27/2022 8:00:00 AM 0.79 33.422 0.173 7.67 57.15 13.73
12/27/2022 8:15:00 AM 0.79 33.422 0.173 7.61 57.26 13.72
12/27/2022 8:30:00 AM 0.8 33.44 0.172 7.6 55.04 13.71
12/27/2022 8:45:00 AM 0.81 33.458 0.166 7.58 54.54 13.74
12/27/2022 9:00:00 AM 0.82 33.476 0.164 7.59 50.09 13.75
12/27/2022 9:15:00 AM 0.84 33.512 0.168 7.6 51.83 13.71
12/27/2022 9:30:00 AM 0.86 33.548 0.168 7.64 56.46 13.73
12/27/2022 9:45:00 AM 0.87 33.566 0.169 7.68 55.3 13.77
12/27/2022 10:00:00 AM 0.9 33.62 0.176 7.71 54.18 13.76
12/27/2022 10:15:00 AM 0.92 33.656 0.175 7.66 55.27 13.76
12/27/2022 10:30:00 AM 0.95 33.71 0.174 7.72 53.13 13.74
12/27/2022 10:45:00 AM 0.97 33.746 0.173 7.65 54.28 13.69
12/27/2022 11:00:00 AM 1 33.8 0.164 7.72 55.06 13.77
12/27/2022 11:15:00 AM 1.04 33.872 0.158 7.67 53.02 13.81
12/27/2022 11:30:00 AM 1.07 33.926 0.163 7.68 53.82 13.76
12/27/2022 11:45:00 AM 1.12 34.016 0.16 7.68 54.96 13.79
12/27/2022 12:00:00 PM 1.16 34.088 0.168 7.6 52.56 13.78
12/27/2022 12:15:00 PM 1.2 34.16 0.17 7.5 55.84 13.79
12/27/2022 12:30:00 PM 1.23 34.214 0.17 7.58 53.64 13.69
12/27/2022 12:45:00 PM 1.27 34.286 0.167 7.64 56.35 13.68
12/27/2022 1:00:00 PM 1.31 34.358 0.167 7.6 61.49 13.74
12/27/2022 1:15:00 PM 1.34 34.412 0.169 7.58 57.48 13.62
12/27/2022 1:30:00 PM 1.37 34.466 0.166 7.58 56.13 13.68
12/27/2022 1:45:00 PM 1.41 34.538 0.157 7.58 55.21 13.62
12/27/2022 2:00:00 PM 1.45 34.61 0.158 7.6 53.56 13.59
12/27/2022 2:15:00 PM 1.48 34.664 0.164 7.53 52.41 13.58
12/27/2022 2:30:00 PM 1.51 34.718 0.162 7.35 56.55 13.49
12/27/2022 2:45:00 PM 1.54 34.772 0.162 7.58 51.7 13.65
12/27/2022 3:00:00 PM 1.56 34.808 0.162 7.62 57.6 13.58
12/27/2022 3:15:00 PM 1.58 34.844 0.161 7.66 61.56 13.49
12/27/2022 3:30:00 PM 1.6 34.88 0.162 7.64 62.95 13.65
12/27/2022 3:45:00 PM 1.61 34.898 0.161 7.71 67.71 13.73
12/27/2022 4:00:00 PM 1.63 34.934 0.161 7.72 66.01 13.74
12/27/2022 4:15:00 PM 1.65 34.97 0.167 7.74 71.49 13.69
12/27/2022 4:30:00 PM 1.67 35.006 0.172 7.74 70.37 13.7
12/27/2022 4:45:00 PM 1.68 35.024 0.172 7.75 68.72 13.71
12/27/2022 5:00:00 PM 1.7 35.06 0.18 7.75 65.04 13.64
12/27/2022 5:15:00 PM 1.71 35.078 0.19 7.75 63.38 13.65
12/27/2022 5:30:00 PM 1.72 35.096 0.2 7.72 60.78 13.49
12/27/2022 5:45:00 PM 1.74 35.132 0.184 7.53 66.56 13.62
12/27/2022 6:00:00 PM 1.74 35.132 0.174 7.62 57.98 13.61
12/27/2022 6:15:00 PM 1.75 35.15 0.174 7.66 59.51 13.64
12/27/2022 6:30:00 PM 1.75 35.15 0.17 7.73 60.35 13.6
12/27/2022 6:45:00 PM 1.77 35.186 0.171 7.71 60.85 13.6
12/27/2022 7:00:00 PM 1.77 35.186 0.174 7.68 56.05 13.58
12/27/2022 7:15:00 PM 1.79 35.222 0.175 7.74 57.5 13.61
12/27/2022 7:30:00 PM 1.79 35.222 0.174 7.7 59.79 13.45
12/27/2022 7:45:00 PM 1.81 35.258 0.175 7.73 61.31 13.41
12/27/2022 8:00:00 PM 1.82 35.276 0.168 7.69 63.93 13.6
12/27/2022 8:15:00 PM 1.83 35.294 0.175 7.71 57.33 13.53
12/27/2022 8:30:00 PM 1.83 35.294 0.173 7.66 59.34 13.49
12/27/2022 8:45:00 PM 1.85 35.33 0.177 7.7 59.43 13.57
12/27/2022 9:00:00 PM 1.85 35.33 0.175 7.65 63.16 13.46
12/27/2022 9:15:00 PM 1.86 35.348 0.175 7.53 56.38 13.53
12/27/2022 9:30:00 PM 1.87 35.366 0.174 7.5 54.7 13.4
12/27/2022 9:45:00 PM 1.87 35.366 0.171 7.64 56.34 13.39
12/27/2022 10:00:00 PM 1.88 35.384 0.178 7.67 55.29 13.46
12/27/2022 10:15:00 PM 1.9 35.42 0.175 7.66 52.18 13.43
12/27/2022 10:30:00 PM 1.9 35.42 0.174 7.61 53.57 13.46
12/27/2022 10:45:00 PM 1.91 35.438 0.166 7.63 55.11 13.49
12/27/2022 11:00:00 PM 1.93 35.474 0.168 7.61 55.54 13.48
12/27/2022 11:15:00 PM 1.94 35.492 0.171 7.63 54.34 13.41
12/27/2022 11:30:00 PM 1.94 35.492 0.172 7.56 50.05 13.42
12/27/2022 11:45:00 PM 1.95 35.51 0.172 7.38 50.75 13.45
12/28/2022 12:00:00 AM 1.96 35.528 0.172 7.58 48.95 13.47
12/28/2022 12:15:00 AM 1.98 35.564 0.171 7.59 51.87 13.44
12/28/2022 12:30:00 AM 1.97 35.546 0.171 7.57 51.63 13.43
12/28/2022 12:45:00 AM 1.98 35.564 0.172 7.64 52.03 13.44
12/28/2022 1:00:00 AM 1.99 35.582 0.172 7.64 50.66 13.36
12/28/2022 1:15:00 AM 2 35.6 0.171 7.71 48.53 13.4
12/28/2022 1:30:00 AM 2.01 35.618 0.173 7.69 52.68 13.39
12/28/2022 1:45:00 AM 2.02 35.636 0.198 7.73 53.81 13.39
12/28/2022 2:00:00 AM 2.02 35.636 0.192 7.7 56.26 13.37
12/28/2022 2:15:00 AM 2.03 35.654 0.193 7.68 57.42 13.35
12/28/2022 2:30:00 AM 2.03 35.654 0.189 7.71 59.61 13.3
12/28/2022 2:45:00 AM 2.04 35.672 0.198 7.74 63.51 13.34
12/28/2022 3:00:00 AM 2.04 35.672 0.187 7.76 63.74 13.35
12/28/2022 3:15:00 AM 2.03 35.654 0.188 7.74 59.45 13.34
12/28/2022 3:30:00 AM 2.02 35.636 0.186 7.74 60.89 13.35
12/28/2022 3:45:00 AM 2.02 35.636 0.165 7.72 62.92 13.32
12/28/2022 4:00:00 AM 2.01 35.618 0.168 7.75 64.55 13.3
12/28/2022 4:15:00 AM 2 35.6 0.166 7.64 65.38 13.3
12/28/2022 4:30:00 AM 1.99 35.582 0.176 7.73 62.79 13.33
12/28/2022 4:45:00 AM 1.99 35.582 0.162 7.69 66.15 13.3
12/28/2022 5:00:00 AM 1.98 35.564 0.174 7.7 67.45 13.28
12/28/2022 5:15:00 AM 1.97 35.546 0.168 7.7 65.87 13.29
12/28/2022 5:30:00 AM 1.96 35.528 0.171 7.76 68.59 13.29
12/28/2022 5:45:00 AM 1.95 35.51 0.166 7.72 65.78 13.23
12/28/2022 6:00:00 AM 1.94 35.492 0.168 7.75 69.74 13.15
12/28/2022 6:15:00 AM 1.93 35.474 0.172 7.76 67.6 13.27
12/28/2022 6:30:00 AM 1.92 35.456 0.171 7.75 55.37 13.23
12/28/2022 6:45:00 AM 1.91 35.438 0.17 7.72 57.94 13.24
12/28/2022 7:00:00 AM 1.89 35.402 0.17 7.72 57.65 13.26
12/28/2022 7:15:00 AM 1.88 35.384 0.167 7.66 56.18 13.25
12/28/2022 7:30:00 AM 1.87 35.366 0.159 7.56 55.11 13.26
12/28/2022 7:45:00 AM 1.86 35.348 0.176 7.63 55.53 13.24
12/28/2022 8:00:00 AM 1.84 35.312 0.176 7.65 59.92 13.26
12/28/2022 8:15:00 AM 1.84 35.312 0.173 7.68 56.9 13.22
12/28/2022 8:30:00 AM 1.83 35.294 0.174 7.67 61.06 13.25
12/28/2022 8:45:00 AM 1.82 35.276 0.173 7.59 56.58 13.27
12/28/2022 9:00:00 AM 1.83 35.294 0.172 7.62 57.18 13.26
12/28/2022 9:15:00 AM 1.83 35.294 0.171 7.68 58.57 13.25
12/28/2022 9:30:00 AM 1.85 35.33 0.173 7.68 61.9 13.29
12/28/2022 9:45:00 AM 1.87 35.366 0.171 7.66 62.08 13.25
12/28/2022 10:00:00 AM 1.89 35.402 0.171 7.67 57.93 13.31
12/28/2022 10:15:00 AM 1.93 35.474 0.17 7.67 59.17 13.31
12/28/2022 10:30:00 AM 1.94 35.492 0.17 7.67 57.67 13.3
12/28/2022 10:45:00 AM 1.98 35.564 0.169 7.65 54.41 13.32
12/28/2022 11:00:00 AM 2.02 35.636 0.167 7.62 54.85 13.33
12/28/2022 11:15:00 AM 2.07 35.726 0.165 7.6 53.86 13.32
12/28/2022 11:30:00 AM 2.12 35.816 0.165 7.64 55.62 13.35
12/28/2022 11:45:00 AM 2.17 35.906 0.166 7.59 51.41 13.38
12/28/2022 12:00:00 PM 2.22 35.996 0.169 7.62 49.33 13.36
12/28/2022 12:15:00 PM 2.26 36.068 0.17 7.63 46.67 13.36
12/28/2022 12:30:00 PM 2.32 36.176 0.17 7.59 50.55 13.39
12/28/2022 12:45:00 PM 2.37 36.266 0.169 7.62 52.21 13.4
12/28/2022 1:00:00 PM 2.42 36.356 0.17 7.63 53.52 13.39
12/28/2022 1:15:00 PM 2.47 36.446 0.173 7.58 51.51 13.39
12/28/2022 1:30:00 PM 2.51 36.518 0.172 7.64 53.44 13.41
12/28/2022 1:45:00 PM 2.56 36.608 0.171 7.64 53.47 13.41
12/28/2022 2:00:00 PM 2.6 36.68 0.17 7.62 50.7 13.41
12/28/2022 2:15:00 PM 2.64 36.752 0.172 7.6 51.28 13.41
12/28/2022 2:30:00 PM 2.67 36.806 0.172 7.59 51.88 13.43
12/28/2022 2:45:00 PM 2.69 36.842 0.171 7.4 44.59 13.4
12/28/2022 3:00:00 PM 2.7 36.86 0.171 7.41 46.05 13.36
12/28/2022 3:15:00 PM 2.71 36.878 0.168 7.49 47.11 13.37
12/28/2022 3:30:00 PM 2.72 36.896 0.167 7.5 38.54 13.36
12/28/2022 3:45:00 PM 2.73 36.914 0.167 7.36 47.03 13.38
12/28/2022 4:00:00 PM 2.73 36.914 0.166 7.47 45.21 13.38
12/28/2022 4:15:00 PM 2.73 36.914 0.166 7.45 47.43 13.34
12/28/2022 4:30:00 PM 2.72 36.896 0.16 7.45 40.54 13.37
12/28/2022 4:45:00 PM 2.72 36.896 0.159 7.58 40.02 13.36
12/28/2022 5:00:00 PM 2.71 36.878 0.155 7.61 39.91 13.36
12/28/2022 5:15:00 PM 2.71 36.878 0.175 7.6 35.86 13.33
12/28/2022 5:30:00 PM 2.7 36.86 0.179 7.57 38.17 13.34
12/28/2022 5:45:00 PM 2.7 36.86 0.178 7.6 40.31 13.3
12/28/2022 6:00:00 PM 2.7 36.86 0.175 7.59 40.48 13.28
12/28/2022 6:15:00 PM 2.7 36.86 0.177 7.6 40.6 13.28
12/28/2022 6:30:00 PM 2.69 36.842 0.183 7.64 42.02 13.28
12/28/2022 6:45:00 PM 2.69 36.842 0.149 7.41 36.8 13.28
12/28/2022 7:00:00 PM 2.68 36.824 0.168 7.61 43.25 13.26
12/28/2022 7:15:00 PM 2.68 36.824 0.177 7.65 41.99 13.23
12/28/2022 7:30:00 PM 2.68 36.824 0.176 7.69 45.39 13.2
12/28/2022 7:45:00 PM 2.67 36.806 0.173 7.68 39.29 13.21
12/28/2022 8:00:00 PM 2.66 36.788 0.18 7.63 39.45 13.18
12/28/2022 8:15:00 PM 2.66 36.788 0.158 7.72 51.57 13.18
12/28/2022 8:30:00 PM 2.64 36.752 0.165 7.72 44.2 13.17
12/28/2022 8:45:00 PM 2.64 36.752 0.168 7.45 43.78 13.18
12/28/2022 9:00:00 PM 2.63 36.734 0.159 7.58 41.93 13.17
12/28/2022 9:15:00 PM 2.62 36.716 0.169 7.67 38.4 13.06
12/28/2022 9:30:00 PM 2.61 36.698 0.165 7.63 36.33 13.17
12/28/2022 9:45:00 PM 2.6 36.68 0.174 7.63 32.74 13.16
12/28/2022 10:00:00 PM 2.59 36.662 0.17 7.63 33.51 13.14
12/28/2022 10:15:00 PM 2.58 36.644 0.174 7.62 42.03 13.14
12/28/2022 10:30:00 PM 2.56 36.608 0.173 7.66 39.31 13.15
12/28/2022 10:45:00 PM 2.55 36.59 0.177 7.64 37.4 13.13
12/28/2022 11:00:00 PM 2.53 36.554 0.159 7.62 38.05 13.13
12/28/2022 11:15:00 PM 2.52 36.536 0.163 7.62 36.38 13.12
12/28/2022 11:30:00 PM 2.5 36.5 0.16 7.61 50.12 13.14
12/28/2022 11:45:00 PM 2.48 36.464 0.161 7.62 49.33 13.12
12/29/2022 12:00:00 AM 2.46 36.428 0.165 7.56 51.63 13.1
12/29/2022 12:15:00 AM 2.45 36.41 0.172 7.6 52.69 13.12
12/29/2022 12:30:00 AM 2.43 36.374 0.159 7.63 63.16 13.13
12/29/2022 12:45:00 AM 2.41 36.338 0.161 7.64 61.64 13.15
12/29/2022 1:00:00 AM 2.39 36.302 0.182 7.72 60.31 13.13
12/29/2022 1:15:00 AM 2.37 36.266 0.179 7.7 61.71 13.14
12/29/2022 1:30:00 AM 2.35 36.23 0.178 7.51 60.8 13.14
12/29/2022 1:45:00 AM 2.34 36.212 0.184 7.55 60.81 13.13
12/29/2022 2:00:00 AM 2.32 36.176 0.182 7.59 61.07 13.14
12/29/2022 2:15:00 AM 2.29 36.122 0.173 7.62 65.71 13.14
12/29/2022 2:30:00 AM 2.27 36.086 0.181 7.6 62.61 13.15
12/29/2022 2:45:00 AM 2.25 36.05 0.176 7.58 60.33 13.15
12/29/2022 3:00:00 AM 2.23 36.014 0.175 7.57 63.81 13.14
12/29/2022 3:15:00 AM 2.21 35.978 0.174 7.51 66.66 13.13
12/29/2022 3:30:00 AM 2.18 35.924 0.176 7.46 65.86 13.15
12/29/2022 3:45:00 AM 2.15 35.87 0.175 7.36 63.28 13.15
12/29/2022 4:00:00 AM 2.13 35.834 0.176 7.33 64.15 13.14
12/29/2022 4:15:00 AM 2.1 35.78 0.179 7.29 62.42 13.16
12/29/2022 4:30:00 AM 2.08 35.744 0.176 7.27 65.46 13.16
12/29/2022 4:45:00 AM 2.05 35.69 0.177 7.21 61.43 13.17
12/29/2022 5:00:00 AM 2.02 35.636 0.178 7.48 64.07 13.15
12/29/2022 5:15:00 AM 2 35.6 0.166 7.56 63.3 13.16
12/29/2022 5:30:00 AM 1.97 35.546 0.177 7.46 59.46 13.17
12/29/2022 5:45:00 AM 1.95 35.51 0.177 7.57 58.68 13.18
12/29/2022 6:00:00 AM 1.92 35.456 0.184 7.53 54.35 13.19
12/29/2022 6:15:00 AM 1.89 35.402 0.182 7.53 57.44 13.19
12/29/2022 6:30:00 AM 1.87 35.366 0.169 7.63 58.57 13.18
12/29/2022 6:45:00 AM 1.85 35.33 0.164 7.61 55.14 13.17
12/29/2022 7:00:00 AM 1.81 35.258 0.16 7.73 56.01 13.19
12/29/2022 7:15:00 AM 1.79 35.222 0.162 7.6 54.77 13.2
12/29/2022 7:30:00 AM 1.76 35.168 0.18 7.67 53.92 13.22
12/29/2022 7:45:00 AM 1.74 35.132 0.175 7.64 51.2 13.25
12/29/2022 8:00:00 AM 1.71 35.078 0.175 7.64 50.14 13.22
12/29/2022 8:15:00 AM 1.7 35.06 0.175 7.55 47.29 13.24
12/29/2022 8:30:00 AM 1.7 35.06 0.176 7.33 46.62 13.26
12/29/2022 8:45:00 AM 1.68 35.024 0.176 7.19 47.65 13.27
12/29/2022 9:00:00 AM 1.68 35.024 0.176 7.54 51.05 13.26
12/29/2022 9:15:00 AM 1.68 35.024 0.176 7.58 50.75 13.31
12/29/2022 9:30:00 AM 1.69 35.042 0.176 7.5 47.71 13.31
12/29/2022 9:45:00 AM 1.7 35.06 0.176 7.57 48.89 13.32
12/29/2022 10:00:00 AM 1.73 35.114 0.176 7.46 50.19 13.34
12/29/2022 10:15:00 AM 1.76 35.168 0.176 7.45 48.85 13.35
12/29/2022 10:30:00 AM 1.79 35.222 0.177 7.57 49.41 13.36
12/29/2022 10:45:00 AM 1.84 35.312 0.177 7.51 51.1 13.39
12/29/2022 11:00:00 AM 1.87 35.366 0.176 8.05 54.39 13.4
12/29/2022 11:15:00 AM 1.92 35.456 0.176 7.71 53.82 13.41
12/29/2022 11:30:00 AM 1.97 35.546 0.175 7.63 49.37 13.43
12/29/2022 11:45:00 AM 2.02 35.636 0.176 7.53 51.75 13.44
12/29/2022 12:00:00 PM 2.07 35.726 0.176 7.54 53.09 13.42
12/29/2022 12:15:00 PM 2.13 35.834 0.176 7.55 52.48 13.45
12/29/2022 12:30:00 PM 2.18 35.924 0.176 7.49 53.46 13.48
12/29/2022 12:45:00 PM 2.25 36.05 0.176 7.49 53.02 13.48
12/29/2022 1:00:00 PM 2.3 36.14 0.176 7.62 52.35 13.47
12/29/2022 1:15:00 PM 2.35 36.23 0.176 7.7 54.71 13.48
12/29/2022 1:30:00 PM 2.4 36.32 0.176 7.72 54.94 13.5
12/29/2022 1:45:00 PM 2.46 36.428 0.176 7.79 55.56 13.5
12/29/2022 2:00:00 PM 2.51 36.518 0.176 7.61 56.85 13.5
12/29/2022 2:15:00 PM 2.55 36.59 0.168 7.44 53.85 13.5
12/29/2022 2:30:00 PM 2.58 36.644 0.167 7.65 50.1 13.52
12/29/2022 2:45:00 PM 2.61 36.698 0.166 7.35 50.72 13.51
12/29/2022 3:00:00 PM 2.63 36.734 0.166 7.17 49.57 13.49
12/29/2022 3:15:00 PM 2.64 36.752 0.168 7.27 50.64 13.52
12/29/2022 3:30:00 PM 2.64 36.752 0.164 7.63 51.74 13.49
12/29/2022 3:45:00 PM 2.65 36.77 0.161 7.57 41.67 13.51
12/29/2022 4:00:00 PM 2.65 36.77 0.157 7.39 40.78 13.49
12/29/2022 4:15:00 PM 2.65 36.77 0.158 7.15 42.4 13.48
12/29/2022 4:30:00 PM 2.65 36.77 0.158 7.27 42.32 13.47
12/29/2022 4:45:00 PM 2.64 36.752 0.158 6.98 42.01 13.46
12/29/2022 5:00:00 PM 2.64 36.752 0.163 7.24 40.11 13.44
12/29/2022 5:15:00 PM 2.64 36.752 0.163 7.56 46.59 13.42
12/29/2022 5:30:00 PM 2.64 36.752 0.163 7.03 50.45 13.35
12/29/2022 5:45:00 PM 2.64 36.752 0.177 6.84 52.54 13.4
12/29/2022 6:00:00 PM 2.63 36.734 0.181 7.22 43.43 13.39
12/29/2022 6:15:00 PM 2.63 36.734 0.181 7.27 43.11 13.35
12/29/2022 6:30:00 PM 2.63 36.734 0.181 7.13 40.34 13.35
12/29/2022 6:45:00 PM 2.64 36.752 0.181 7.72 39.37 13.34
12/29/2022 7:00:00 PM 2.63 36.734 0.174 7.7 44.8 13.31
12/29/2022 7:15:00 PM 2.63 36.734 0.176 7.79 45.02 13.3
12/29/2022 7:30:00 PM 2.63 36.734 0.157 7.5 46.32 13.28
12/29/2022 7:45:00 PM 2.63 36.734 0.181 7.84 45.24 13.27
12/29/2022 8:00:00 PM 2.62 36.716 0.18 7.56 41.76 13.23
12/29/2022 8:15:00 PM 2.62 36.716 0.167 7.72 44.97 13.25
12/29/2022 8:30:00 PM 2.62 36.716 0.178 7.43 45.92 13.14
12/29/2022 8:45:00 PM 2.61 36.698 0.174 7.69 45.51 13.23
12/29/2022 9:00:00 PM 2.61 36.698 0.17 7.5 44.84 13.19
12/29/2022 9:15:00 PM 2.62 36.716 0.18 7.54 45.49 13.18
12/29/2022 9:30:00 PM 2.62 36.716 0.17 7.57 43.55 13.2
12/29/2022 9:45:00 PM 2.62 36.716 0.173 7.67 45.52 13.21
12/29/2022 10:00:00 PM 2.63 36.734 0.175 7.64 45.99 13.16
12/29/2022 10:15:00 PM 2.64 36.752 0.17 7.85 48.71 13.17
12/29/2022 10:30:00 PM 2.65 36.77 0.175 7.75 45.44 13.15
12/29/2022 10:45:00 PM 2.65 36.77 0.173 7.73 47.53 12.97
12/29/2022 11:00:00 PM 2.66 36.788 0.175 7.63 44.83 13.15
12/29/2022 11:15:00 PM 2.66 36.788 0.176 7.75 44.04 13.15
12/29/2022 11:30:00 PM 2.66 36.788 0.176 7.63 45.83 13.14
12/29/2022 11:45:00 PM 2.66 36.788 0.176 7.52 45.81 13.05
12/30/2022 12:00:00 AM 2.67 36.806 0.175 7.73 48.17 13.09
12/30/2022 12:15:00 AM 2.67 36.806 0.175 7.66 50.02 13.02
12/30/2022 12:30:00 AM 2.67 36.806 0.158 7.71 52.88 12.99
12/30/2022 12:45:00 AM 2.66 36.788 0.153 7.76 40.45 13.06
12/30/2022 1:00:00 AM 2.66 36.788 0.166 7.83 42.48 13.07
12/30/2022 1:15:00 AM 2.65 36.77 0.167 7.8 43.3 13
12/30/2022 1:30:00 AM 2.65 36.77 0.166 7.77 44.95 13.11
12/30/2022 1:45:00 AM 2.65 36.77 0.164 7.53 46.2 13.09
12/30/2022 2:00:00 AM 2.65 36.77 0.169 7.86 44.89 13.05
12/30/2022 2:15:00 AM 2.66 36.788 0.169 7.84 47.29 13.09
12/30/2022 2:30:00 AM 2.66 36.788 0.177 7.9 45.64 13.06
12/30/2022 2:45:00 AM 2.66 36.788 0.18 7.87 49.81 13.07
12/30/2022 3:00:00 AM 2.66 36.788 0.179 7.85 46.32 13.08
12/30/2022 3:15:00 AM 2.66 36.788 0.172 7.51 42.85 13.09
12/30/2022 3:30:00 AM 2.66 36.788 0.177 7.75 45.18 13.08
12/30/2022 3:45:00 AM 2.66 36.788 0.179 7.77 46.18 13.04
12/30/2022 4:00:00 AM 2.66 36.788 0.184 7.8 46.59 13.07
12/30/2022 4:15:00 AM 2.67 36.806 0.169 7.9 41.47 13.06
12/30/2022 4:30:00 AM 2.67 36.806 0.164 7.88 42.32 13.06
12/30/2022 4:45:00 AM 2.68 36.824 0.172 7.75 40.76 13.06
12/30/2022 5:00:00 AM 2.68 36.824 0.183 7.63 34.71 12.94
12/30/2022 5:15:00 AM 2.69 36.842 0.185 7.9 43.94 13.01
12/30/2022 5:30:00 AM 2.69 36.842 0.182 7.63 41.02 12.94
12/30/2022 5:45:00 AM 2.69 36.842 0.167 7.65 38.68 12.99
12/30/2022 6:00:00 AM 2.7 36.86 0.183 7.74 40.18 12.89
12/30/2022 6:15:00 AM 2.7 36.86 0.173 7.6 41.05 12.86
12/30/2022 6:30:00 AM 2.7 36.86 0.187 7.66 41.29 12.9
12/30/2022 6:45:00 AM 2.7 36.86 0.185 7.64 38.49 12.71
12/30/2022 7:00:00 AM 2.71 36.878 0.184 7.76 41.84 12.88
12/30/2022 7:15:00 AM 2.71 36.878 0.186 7.77 40.48 13.02
12/30/2022 7:30:00 AM 2.71 36.878 0.187 7.57 40.92 13.02
12/30/2022 7:45:00 AM 2.71 36.878 0.186 7.66 42.76 12.99
12/30/2022 8:00:00 AM 2.72 36.896 0.186 7.54 43.91 12.8
12/30/2022 8:15:00 AM 2.73 36.914 0.187 7.59 41.6 12.89
12/30/2022 8:30:00 AM 2.74 36.932 0.186 7.56 40.88 12.9
12/30/2022 8:45:00 AM 2.75 36.95 0.186 7.55 44.62 12.81
12/30/2022 9:00:00 AM 2.77 36.986 0.186 7.56 41.7 12.9
12/30/2022 9:15:00 AM 2.79 37.022 0.184 7.72 36.02 12.85
12/30/2022 9:30:00 AM 2.81 37.058 0.184 7.64 34.61 12.87
12/30/2022 9:45:00 AM 2.84 37.112 0.185 7.6 35.73 12.91
12/30/2022 10:00:00 AM 2.86 37.148 0.184 7.73 44.9 12.83
12/30/2022 10:15:00 AM 2.89 37.202 0.185 7.74 42.4 12.91
12/30/2022 10:30:00 AM 2.92 37.256 0.185 7.77 40.3 12.9
12/30/2022 10:45:00 AM 2.96 37.328 0.185 7.85 45.54 12.97
12/30/2022 11:00:00 AM 3 37.4 0.184 7.7 45.79 12.99
12/30/2022 11:15:00 AM 3.06 37.508 0.184 7.73 43.68 12.89
12/30/2022 11:30:00 AM 3.11 37.598 0.184 7.75 43.21 12.96
12/30/2022 11:45:00 AM 3.16 37.688 0.184 7.86 45.47 12.98
12/30/2022 12:00:00 PM 3.2 37.76 0.184 7.93 54.97 13.04
12/30/2022 12:15:00 PM 3.26 37.868 0.184 7.88 50.43 13.04
12/30/2022 12:30:00 PM 3.32 37.976 0.184 7.9 47.53 13.06
12/30/2022 12:45:00 PM 3.37 38.066 0.185 7.92 42.69 13.02
12/30/2022 1:00:00 PM 3.41 38.138 0.184 7.98 39.76 13.07
12/30/2022 1:15:00 PM 3.46 38.228 0.184 7.86 34.1 13.05
12/30/2022 1:30:00 PM 3.53 38.354 0.185 7.95 41.39 13.07
12/30/2022 1:45:00 PM 3.59 38.462 0.185 7.8 36.08 13.07
12/30/2022 2:00:00 PM 3.68 38.624 0.184 7.99 41.3 13.01
12/30/2022 2:15:00 PM 3.72 38.696 0.184 8 37.88 13.07
12/30/2022 2:30:00 PM 3.78 38.804 0.183 8 47.91 12.99
12/30/2022 2:45:00 PM 3.79 38.822 0.183 7.96 50.06 13.04
12/30/2022 3:00:00 PM 3.86 38.948 0.184 7.99 46.81 13.04
12/30/2022 3:15:00 PM 3.89 39.002 0.184 7.97 46.04 13.03
12/30/2022 3:30:00 PM 3.92 39.056 0.184 8.02 49.09 12.91
12/30/2022 3:45:00 PM 3.94 39.092 0.184 8.03 48.21 12.91
12/30/2022 4:00:00 PM 3.95 39.11 0.184 8.07 47.75 12.87
12/30/2022 4:15:00 PM 3.97 39.146 0.184 8.07 43.36 12.91
12/30/2022 4:30:00 PM 3.98 39.164 0.184 8.08 42.29 12.91
12/30/2022 4:45:00 PM 3.98 39.164 0.183 7.99 42.26 12.9
12/30/2022 5:00:00 PM 3.98 39.164 0.184 8.05 46.46 12.84
12/30/2022 5:15:00 PM 3.99 39.182 0.184 7.98 44.25 12.84
12/30/2022 5:30:00 PM 3.98 39.164 0.181 7.99 43.71 12.92
12/30/2022 5:45:00 PM 3.97 39.146 0.178 8.01 46.22 12.82
12/30/2022 6:00:00 PM 3.96 39.128 0.168 7.99 46.71 12.82
12/30/2022 6:15:00 PM 3.95 39.11 0.166 7.95 47.45 12.86
12/30/2022 6:30:00 PM 3.95 39.11 0.163 7.93 47.24 12.88
12/30/2022 6:45:00 PM 3.94 39.092 0.161 7.94 49.21 12.79
12/30/2022 7:00:00 PM 3.94 39.092 0.158 7.9 48.16 12.81
12/30/2022 7:15:00 PM 3.93 39.074 0.16 7.75 48.78 12.78
12/30/2022 7:30:00 PM 3.93 39.074 0.161 7.89 51.4 12.8
12/30/2022 7:45:00 PM 3.92 39.056 0.161 7.89 51.86 12.74
12/30/2022 8:00:00 PM 3.92 39.056 0.182 7.91 41.23 12.66
12/30/2022 8:15:00 PM 3.91 39.038 0.183 7.87 36.71 12.76
12/30/2022 8:30:00 PM 3.91 39.038 0.182 7.86 43.23 12.78
12/30/2022 8:45:00 PM 3.91 39.038 0.183 7.91 43.68 12.74
12/30/2022 9:00:00 PM 3.9 39.02 0.182 7.83 50.42 12.73
12/30/2022 9:15:00 PM 3.89 39.002 0.182 7.88 42.73 12.72
12/30/2022 9:30:00 PM 3.89 39.002 0.183 7.85 42.86 12.7
12/30/2022 9:45:00 PM 3.89 39.002 0.182 7.8 47.08 12.7
12/30/2022 10:00:00 PM 3.89 39.002 0.162 7.79 41.09 12.69
12/30/2022 10:15:00 PM 3.87 38.966 0.172 7.86 42.42 12.72
12/30/2022 10:30:00 PM 3.86 38.948 0.175 7.86 45.74 12.7
12/30/2022 10:45:00 PM 3.85 38.93 0.176 7.83 46.49 12.71
12/30/2022 11:00:00 PM 3.84 38.912 0.177 7.82 49.96 12.69
12/30/2022 11:15:00 PM 3.84 38.912 0.165 7.83 50.04 12.67
12/30/2022 11:30:00 PM 3.83 38.894 0.166 7.78 44.43 12.68
12/30/2022 11:45:00 PM 3.82 38.876 0.164 7.69 46.54 12.69
12/31/2022 12:00:00 AM 3.81 38.858 0.167 7.75 34.7 12.65
12/31/2022 12:15:00 AM 3.8 38.84 0.179 7.69 40.49 12.66
12/31/2022 12:30:00 AM 3.79 38.822 0.176 7.7 49.52 12.63
12/31/2022 12:45:00 AM 3.79 38.822 0.169 7.75 45.41 12.64
12/31/2022 1:00:00 AM 3.78 38.804 0.169 7.72 53.97 12.63
12/31/2022 1:15:00 AM 3.77 38.786 0.164 7.73 49.04 12.53
12/31/2022 1:30:00 AM 3.76 38.768 0.173 7.69 56.98 12.62
12/31/2022 1:45:00 AM 3.75 38.75 0.171 7.73 58.56 12.62
12/31/2022 2:00:00 AM 3.75 38.75 0.181 7.75 56.06 12.55
12/31/2022 2:15:00 AM 3.74 38.732 0.183 7.83 56.45 12.59
12/31/2022 2:30:00 AM 3.74 38.732 0.183 7.81 58.34 12.57
12/31/2022 2:45:00 AM 3.74 38.732 0.172 7.81 56.99 12.56
12/31/2022 3:00:00 AM 3.73 38.714 0.181 7.85 54.46 12.55
12/31/2022 3:15:00 AM 3.73 38.714 0.184 7.82 48.22 12.58
12/31/2022 3:30:00 AM 3.73 38.714 0.168 7.75 56.58 12.53
12/31/2022 3:45:00 AM 3.73 38.714 0.165 7.87 54.4 12.57
12/31/2022 4:00:00 AM 3.73 38.714 0.175 7.74 53.65 12.52
12/31/2022 4:15:00 AM 3.74 38.732 0.175 7.8 54.14 12.52
12/31/2022 4:30:00 AM 3.74 38.732 0.168 7.83 49.84 12.49
12/31/2022 4:45:00 AM 3.74 38.732 0.164 7.84 57.21 12.5
12/31/2022 5:00:00 AM 3.75 38.75 0.167 7.76 59.41 12.46
12/31/2022 5:15:00 AM 3.75 38.75 0.175 7.81 57.16 12.53
12/31/2022 5:30:00 AM 3.76 38.768 0.17 7.85 59.33 12.52
12/31/2022 5:45:00 AM 3.76 38.768 0.177 7.8 59.93 12.51
12/31/2022 6:00:00 AM 3.76 38.768 0.172 7.94 60.89 12.48
12/31/2022 6:15:00 AM 3.77 38.786 0.169 7.89 62.14 12.51
12/31/2022 6:30:00 AM 3.77 38.786 0.17 7.86 59.46 12.45
12/31/2022 6:45:00 AM 3.77 38.786 0.172 7.84 53.87 12.47
12/31/2022 7:00:00 AM 3.78 38.804 0.167 7.74 51.16 12.47
12/31/2022 7:15:00 AM 3.79 38.822 0.172 7.82 51.42 12.5
12/31/2022 7:30:00 AM 3.79 38.822 0.181 7.83 48.7 12.49
12/31/2022 7:45:00 AM 3.8 38.84 0.182 7.8 53.79 12.47
12/31/2022 8:00:00 AM 3.81 38.858 0.183 7.87 57.01 12.46
12/31/2022 8:15:00 AM 3.82 38.876 0.182 7.75 57.31 12.31
12/31/2022 8:30:00 AM 3.82 38.876 0.182 7.78 56.81 12.3
12/31/2022 8:45:00 AM 3.83 38.894 0.183 7.76 59.22 12.33
12/31/2022 9:00:00 AM 3.85 38.93 0.183 7.77 58.41 12.46
12/31/2022 9:15:00 AM 3.86 38.948 0.183 7.74 60.77 12.44
12/31/2022 9:30:00 AM 3.88 38.984 0.183 7.67 53.7 12.45
12/31/2022 9:45:00 AM 3.89 39.002 0.182 7.74 55.56 12.46
12/31/2022 10:00:00 AM 3.91 39.038 0.173 7.69 53.16 12.44
12/31/2022 10:15:00 AM 3.93 39.074 0.173 7.33 56.18 12.44
12/31/2022 10:30:00 AM 3.95 39.11 0.173 7.56 64.44 12.43
12/31/2022 10:45:00 AM 3.97 39.146 0.173 7.62 57.22 12.43
12/31/2022 11:00:00 AM 3.99 39.182 0.173 7.57 57.15 12.46
12/31/2022 11:15:00 AM 4.02 39.236 0.173 7.51 57.7 12.45
12/31/2022 11:30:00 AM 4.04 39.272 0.174 6.61 53.47 12.4
12/31/2022 11:45:00 AM 4.06 39.308 0.174 7.67 51.42 12.47
12/31/2022 12:00:00 PM 4.08 39.344 0.174 7.56 62.81 12.46
12/31/2022 12:15:00 PM 4.11 39.398 0.175 7.06 58.46 12.48
12/31/2022 12:30:00 PM 4.13 39.434 0.175 7.13 56.07 12.47
12/31/2022 12:45:00 PM 4.15 39.47 0.175 7.19 56.07 12.47
12/31/2022 1:00:00 PM 4.17 39.506 0.176 7.3 45.52 12.47
12/31/2022 1:15:00 PM 4.19 39.542 0.174 7.38 39.46 12.43
12/31/2022 1:30:00 PM 4.21 39.578 0.177 7.26 44.42 12.48
12/31/2022 1:45:00 PM 4.23 39.614 0.176 7.52 44.12 12.47
12/31/2022 2:00:00 PM 4.25 39.65 0.176 7.44 45.1 12.48
12/31/2022 2:15:00 PM 4.27 39.686 0.176 7.84 51.47 12.44
12/31/2022 2:30:00 PM 4.29 39.722 0.177 7.72 54.2 12.31
12/31/2022 2:45:00 PM 4.31 39.758 0.177 7.7 54.74 12.36
12/31/2022 3:00:00 PM 4.33 39.794 0.177 7.87 55.44 12.41
12/31/2022 3:15:00 PM 4.35 39.83 0.176 7.98 50.13 12.4
12/31/2022 3:30:00 PM 4.37 39.866 0.178 7.91 48.06 12.41
12/31/2022 3:45:00 PM 4.39 39.902 0.177 8 53.72 12.37
12/31/2022 4:00:00 PM 4.41 39.938 0.177 7.99 49.65 12.34
12/31/2022 4:15:00 PM 4.43 39.974 0.177 7.82 50.8 12.34
12/31/2022 4:30:00 PM 4.45 40.01 0.175 7.96 37.56 12.35
12/31/2022 4:45:00 PM 4.47 40.046 0.174 7.99 45.91 12.35
12/31/2022 5:00:00 PM 4.49 40.082 0.169 8.05 42.38 12.33
12/31/2022 5:15:00 PM 4.51 40.118 0.176 8 50.94 12.34
12/31/2022 5:30:00 PM 4.52 40.136 0.184 8.04 51 12.33
12/31/2022 5:45:00 PM 4.54 40.172 0.171 8.02 53.55 12.29
12/31/2022 6:00:00 PM 4.56 40.208 0.179 8 52.44 12.28
12/31/2022 6:15:00 PM 4.57 40.226 0.18 7.99 50.72 12.23
12/31/2022 6:30:00 PM 4.59 40.262 0.171 7.99 52.31 12.22
12/31/2022 6:45:00 PM 4.6 40.28 0.168 8.04 52.72 12.18
12/31/2022 7:00:00 PM 4.61 40.298 0.164 8.04 48.07 12.13
12/31/2022 7:15:00 PM 4.61 40.298 0.182 8.02 49.09 12.17
12/31/2022 7:30:00 PM 4.62 40.316 0.177 8.01 55.78 12.19
12/31/2022 7:45:00 PM 4.62 40.316 0.171 8.03 52.8 12.17
12/31/2022 8:00:00 PM 4.62 40.316 0.156 7.94 55.31 12.17
12/31/2022 8:15:00 PM 4.6 40.28 0.172 8.04 77.71 12.13
12/31/2022 8:30:00 PM 4.58 40.244 0.174 8.06 63.12 12.16
12/31/2022 8:45:00 PM 4.54 40.172 0.18 8 74.77 12.16
12/31/2022 9:00:00 PM 4.48 40.064 0.177 7.94 81.01 12.17
12/31/2022 9:15:00 PM 4.42 39.956 0.179 8.02 75.95 12.17
12/31/2022 9:30:00 PM 4.28 39.704 0.176 8.03 77.98 12.18
12/31/2022 9:45:00 PM 4.25 39.65 0.175 7.97 82.13 12.19
12/31/2022 10:00:00 PM 4.14 39.452 0.174 7.98 74.34 12.22
12/31/2022 10:15:00 PM 4.09 39.362 0.173 8.03 76.92 12.25
12/31/2022 10:30:00 PM 4.11 39.398 0.174 7.99 79.45 12.24
12/31/2022 10:45:00 PM 4.07 39.326 0.173 8.03 84.32 12.24
12/31/2022 11:00:00 PM 4.09 39.362 0.173 8.03 89.87 12.26
12/31/2022 11:15:00 PM 4.12 39.416 0.174 8.04 98.48 12.26
12/31/2022 11:30:00 PM 4.11 39.398 0.173 8.07 103.9 12.23
12/31/2022 11:45:00 PM 4.17 39.506 0.171 8.05 112.9 12.22
1/1/2023 12:00:00 AM 4.17 39.506 0.168 8.01 106.3 12.24
1/1/2023 12:15:00 AM 4.19 39.542 0.175 8.06 109.9 12.23
1/1/2023 12:30:00 AM 4.25 39.65 0.176 8.06 90.48 12.19
1/1/2023 12:45:00 AM 4.32 39.776 0.177 8.06 116 12.2
1/1/2023 1:00:00 AM 4.29 39.722 0.177 5.75 116.2 12.21
1/1/2023 1:15:00 AM 4.3 39.74 0.177 6.14 106.8 12.18
1/1/2023 1:30:00 AM 4.35 39.83 0.179 6.32 100.7 12.16
1/1/2023 1:45:00 AM 4.37 39.866 0.18 6.48 120.7 12.17
1/1/2023 2:00:00 AM 4.36 39.848 0.18 7.89 125.9 12.19
1/1/2023 2:15:00 AM 4.38 39.884 0.181 8.1 129.5 12.17
1/1/2023 2:30:00 AM 4.43 39.974 0.183 8.12 138.4 12.14
1/1/2023 2:45:00 AM 4.38 39.884 0.183 8.17 142.5 12.14
1/1/2023 3:00:00 AM 4.42 39.956 0.183 8.2 141.4 12.12
1/1/2023 3:15:00 AM 4.38 39.884 0.184 8.19 146.9 12.12
1/1/2023 3:30:00 AM 4.42 39.956 0.185 8.16 142.5 12.1
1/1/2023 3:45:00 AM 4.4 39.92 0.185 8.2 142.8 12.13
1/1/2023 4:00:00 AM 4.39 39.902 0.186 8.23 151.7 12.13
1/1/2023 4:15:00 AM 4.4 39.92 0.186 8.14 146.4 12.11
1/1/2023 4:30:00 AM 4.37 39.866 0.186 8.19 141.2 12.13
1/1/2023 4:45:00 AM 4.39 39.902 0.187 8.21 173.3 12.1
1/1/2023 5:00:00 AM 4.4 39.92 0.187 8.21 202.7 12.11
1/1/2023 5:15:00 AM 4.37 39.866 0.187 8.21 210.7 12.12
1/1/2023 5:30:00 AM 4.4 39.92 0 19.09 0 12.12
1/1/2023 5:45:00 AM 4.41 39.938 0 16.78 0 0
1/1/2023 6:00:00 AM 4.41 39.938 0 16.78 0 0
1/1/2023 6:15:00 AM 4.4 39.92 0.188 8.29 0 12.09
1/1/2023 6:30:00 AM 4.4 39.92 0.188 19.72 0 12.08
1/1/2023 6:45:00 AM 4.4 39.92 0.188 19.72 0 12.08
1/1/2023 7:00:00 AM 4.38 39.884 0 17.78 0 0
1/1/2023 7:15:00 AM 4.38 39.884 0 17.78 0 0
1/1/2023 7:30:00 AM 4.38 39.884 0 17.78 0 0
1/1/2023 7:45:00 AM 4.38 39.884 0 18.07 0 0
1/1/2023 8:00:00 AM 4.38 39.884 0 18.07 0 0
1/1/2023 8:15:00 AM 4.36 39.848 0 19.49 0 12.08
1/1/2023 8:30:00 AM 4.36 39.848 0.19 8.23 229.7 12.07
1/1/2023 8:45:00 AM 4.37 39.866 0.191 8.27 166.8 12.07
1/1/2023 9:00:00 AM 4.39 39.902 0.192 8.3 150.4 12.1
1/1/2023 9:15:00 AM 4.4 39.92 0.193 8.29 196.2 12.1
1/1/2023 9:30:00 AM 4.38 39.884 0.193 8.22 196.7 12.09
1/1/2023 9:45:00 AM 4.42 39.956 0.195 8.23 209.2 12.11
1/1/2023 10:00:00 AM 4.45 40.01 0.196 8.16 172.5 12.11
1/1/2023 10:15:00 AM 4.48 40.064 0.197 8.12 160.2 12.12
1/1/2023 10:30:00 AM 4.5 40.1 0.198 8.21 162.7 12.16
1/1/2023 10:45:00 AM 4.56 40.208 0.2 8.24 131.7 12.15
1/1/2023 11:00:00 AM 4.61 40.298 0.201 8.2 144.2 12.18
1/1/2023 11:15:00 AM 4.65 40.37 0.202 8.2 146.5 12.18
1/1/2023 11:30:00 AM 4.69 40.442 0.202 8.23 167.3 12.21
1/1/2023 11:45:00 AM 4.74 40.532 0.203 8.18 143.4 12.2
1/1/2023 12:00:00 PM 4.8 40.64 0.204 8.24 144.2 12.2
1/1/2023 12:15:00 PM 4.85 40.73 0.204 8.25 158.9 12.22
1/1/2023 12:30:00 PM 4.91 40.838 0.203 8.27 166.5 12.23
1/1/2023 12:45:00 PM 4.97 40.946 0.203 8.2 152.1 12.26
1/1/2023 1:00:00 PM 5 41 0.203 8.01 154.3 12.27
1/1/2023 1:15:00 PM 5.04 41.072 0.202 8.18 152.5 12.27
1/1/2023 1:30:00 PM 5.07 41.126 0.202 8.18 151.9 12.28
1/1/2023 1:45:00 PM 5.12 41.216 0.201 8.17 153.3 12.26
1/1/2023 2:00:00 PM 5.15 41.27 0.2 8.24 144.1 12.27
1/1/2023 2:15:00 PM 5.19 41.342 0.199 8.26 124.8 12.27
1/1/2023 2:30:00 PM 5.21 41.378 0.199 8.27 138.6 12.27
1/1/2023 2:45:00 PM 5.24 41.432 0.198 8.23 126.9 12.24
1/1/2023 3:00:00 PM 5.27 41.486 0.197 8.28 148.7 12.26
1/1/2023 3:15:00 PM 5.27 41.486 0.197 8.25 140.4 12.26
1/1/2023 3:30:00 PM 5.27 41.486 0.196 8.19 130 12.24
1/1/2023 3:45:00 PM 5.28 41.504 0.195 8.25 147.5 12.24
1/1/2023 4:00:00 PM 5.3 41.54 0.194 8.19 165.5 12.23
1/1/2023 4:15:00 PM 5.31 41.558 0.194 8.17 181 12.22
1/1/2023 4:30:00 PM 5.31 41.558 0.193 8.17 203.4 12.2
1/1/2023 4:45:00 PM 5.32 41.576 0.193 8.17 200.2 12.2
1/1/2023 5:00:00 PM 5.31 41.558 0.192 8.2 183 12.17
1/1/2023 5:15:00 PM 5.31 41.558 0.192 8.18 185.2 12.18
1/1/2023 5:30:00 PM 5.31 41.558 0.192 8.18 182.9 12.14
1/1/2023 5:45:00 PM 5.29 41.522 0.191 8.2 182.8 12.15
1/1/2023 6:00:00 PM 5.28 41.504 0.191 8.22 160.2 12.15
1/1/2023 6:15:00 PM 5.27 41.486 0.191 8.15 161.8 12.1
1/1/2023 6:30:00 PM 5.26 41.468 0.19 8.13 175.5 12.04
1/1/2023 6:45:00 PM 5.26 41.468 0.191 8.16 181.6 12.06
1/1/2023 7:00:00 PM 5.25 41.45 0.19 8.17 178.9 12.06
1/1/2023 7:15:00 PM 5.25 41.45 0.19 8.14 164.8 12.02
1/1/2023 7:30:00 PM 5.23 41.414 0.19 8.14 167 12.07
1/1/2023 7:45:00 PM 5.22 41.396 0.189 8.12 164 12.1
1/1/2023 8:00:00 PM 5.21 41.378 0.187 8.12 159.9 12.05
1/1/2023 8:15:00 PM 5.21 41.378 0.184 8.13 162.7 12.07
1/1/2023 8:30:00 PM 5.2 41.36 0.186 8.12 167.1 12.02
1/1/2023 8:45:00 PM 5.19 41.342 0.189 8.08 173.2 12.08
1/1/2023 9:00:00 PM 5.18 41.324 0.188 8.14 167.2 12.05
1/1/2023 9:15:00 PM 5.17 41.306 0.188 8.13 172.6 12.04
1/1/2023 9:30:00 PM 5.16 41.288 0.179 8.08 172.8 12.01
1/1/2023 9:45:00 PM 5.15 41.27 0.188 8.09 162 12.05
1/1/2023 10:00:00 PM 5.14 41.252 0.188 8.09 178.1 12.03
1/1/2023 10:15:00 PM 5.14 41.252 0.188 8.17 165.6 11.99
1/1/2023 10:30:00 PM 5.12 41.216 0.188 8.1 170 12.03
1/1/2023 10:45:00 PM 5.13 41.234 0.188 8.12 170.3 11.9
1/1/2023 11:00:00 PM 5.12 41.216 0.188 7.62 162.3 12.03
1/1/2023 11:15:00 PM 5.12 41.216 0.188 8.08 161.6 12.01
1/1/2023 11:30:00 PM 5.11 41.198 0.188 8.08 164.3 12.02
1/1/2023 11:45:00 PM 5.11 41.198 0.181 8.04 163.4 12
1/2/2023 12:00:00 AM 5.11 41.198 0.182 8.09 156.6 12.01
1/2/2023 12:15:00 AM 5.11 41.198 0.189 8.05 149.2 11.99
1/2/2023 12:30:00 AM 5.11 41.198 0.188 8.07 150.5 12
1/2/2023 12:45:00 AM 5.11 41.198 0.188 8.08 0 12.01
1/2/2023 1:00:00 AM 5.11 41.198 0.188 7.98 109.4 11.97
1/2/2023 1:15:00 AM 5.1 41.18 0.188 8.04 95.9 11.98
1/2/2023 1:30:00 AM 5.09 41.162 0.187 8.02 97.67 11.98
1/2/2023 1:45:00 AM 5.09 41.162 0.188 8.02 94.63 11.97
1/2/2023 2:00:00 AM 5.1 41.18 0.188 8.02 93.22 11.97
1/2/2023 2:15:00 AM 5.08 41.144 0.186 8.02 91.88 11.96
1/2/2023 2:30:00 AM 5.07 41.126 0.187 8.01 89 11.97
1/2/2023 2:45:00 AM 5.07 41.126 0.186 7.99 92.78 11.95
1/2/2023 3:00:00 AM 5.07 41.126 0.187 7.96 96.99 11.94
1/2/2023 3:15:00 AM 5.06 41.108 0.187 8.01 97.44 11.92
1/2/2023 3:30:00 AM 5.06 41.108 0.187 7.99 90.63 11.94
1/2/2023 3:45:00 AM 5.05 41.09 0.188 7.97 95.22 11.94
1/2/2023 4:00:00 AM 5.04 41.072 0.187 7.78 92.41 11.93
1/2/2023 4:15:00 AM 5.03 41.054 0.187 7.91 90.26 11.92
1/2/2023 4:30:00 AM 5.03 41.054 0.187 7.97 92.26 11.91
1/2/2023 4:45:00 AM 5.02 41.036 0.187 7.92 98.48 11.92
1/2/2023 5:00:00 AM 5.02 41.036 0.187 7.9 103.9 11.92
1/2/2023 5:15:00 AM 5.03 41.054 0.188 7.88 106.8 11.91
1/2/2023 5:30:00 AM 5.03 41.054 0.188 7.99 125.9 11.87
1/2/2023 5:45:00 AM 5.02 41.036 0.189 8 127.2 11.87
1/2/2023 6:00:00 AM 5.02 41.036 0.188 7.92 121.7 11.83
1/2/2023 6:15:00 AM 5 41 0.188 7.94 115.4 11.86
1/2/2023 6:30:00 AM 5 41 0.188 7.91 121.5 11.87
1/2/2023 6:45:00 AM 4.99 40.982 0.188 7.97 125.5 11.87
1/2/2023 7:00:00 AM 4.97 40.946 0.188 7.91 125.7 11.87
1/2/2023 7:15:00 AM 4.96 40.928 0.19 7.89 124.3 11.76
1/2/2023 7:30:00 AM 4.95 40.91 0.19 7.96 127.4 11.87
1/2/2023 7:45:00 AM 4.96 40.928 0.181 7.97 122.9 11.9
1/2/2023 8:00:00 AM 4.97 40.946 0.189 4.16 135.9 11.89
1/2/2023 8:15:00 AM 4.98 40.964 0.189 6.33 135.4 11.9
1/2/2023 8:30:00 AM 4.97 40.946 0.19 6.47 126.1 11.92
1/2/2023 8:45:00 AM 4.99 40.982 0.19 6.53 129.5 11.91
1/2/2023 9:00:00 AM 4.97 40.946 0.189 6.56 126.2 11.92
1/2/2023 9:15:00 AM 4.99 40.982 0.19 6.61 127.1 11.93
1/2/2023 9:30:00 AM 5.01 41.018 0.19 6.64 121.9 11.93
1/2/2023 9:45:00 AM 5.01 41.018 0.19 6.68 127.3 11.94
1/2/2023 10:00:00 AM 5.06 41.108 0.19 6.69 125.2 11.95
1/2/2023 10:15:00 AM 5.07 41.126 0.19 6.71 124.1 11.95
1/2/2023 10:30:00 AM 5.08 41.144 0.19 6.73 128 11.99
1/2/2023 10:45:00 AM 5.13 41.234 0.19 6.74 130.4 11.96
1/2/2023 11:00:00 AM 5.16 41.288 0.19 6.77 121.3 12.03
1/2/2023 11:15:00 AM 5.18 41.324 0.191 6.78 126.2 12.03
1/2/2023 11:30:00 AM 5.19 41.342 0.191 6.79 123.7 12.07
1/2/2023 11:45:00 AM 5.2 41.36 0.191 6.83 129.1 12.08
1/2/2023 12:00:00 PM 5.23 41.414 0.191 6.85 121.4 12.09
1/2/2023 12:15:00 PM 5.25 41.45 0.191 6.85 118.8 12.13
1/2/2023 12:30:00 PM 5.27 41.486 0.191 6.87 120.1 12.15
1/2/2023 12:45:00 PM 5.28 41.504 0.19 6.9 118.5 12.17
1/2/2023 1:00:00 PM 5.31 41.558 0.19 6.92 121.5 12.13
1/2/2023 1:15:00 PM 5.33 41.594 0.19 6.95 121.5 12.17
1/2/2023 1:30:00 PM 5.36 41.648 0.19 6.96 125.8 12.19
1/2/2023 1:45:00 PM 5.38 41.684 0.19 6.99 126.5 12.21
1/2/2023 2:00:00 PM 5.39 41.702 0.19 6.99 125.7 12.2
1/2/2023 2:15:00 PM 5.41 41.738 0.19 7 126.4 12.2
1/2/2023 2:30:00 PM 5.42 41.756 0.19 7.03 121.7 12.2
1/2/2023 2:45:00 PM 5.43 41.774 0.19 7.03 127.8 12.22
1/2/2023 3:00:00 PM 5.44 41.792 0.19 7.03 126 12.2
1/2/2023 3:15:00 PM 5.46 41.828 0.19 7.02 127.7 12.21
1/2/2023 3:30:00 PM 5.48 41.864 0.189 7.04 130 12.21
1/2/2023 3:45:00 PM 5.49 41.882 0.189 7.05 141.6 12.21
1/2/2023 4:00:00 PM 5.5 41.9 0.187 7.06 134.9 12.19
1/2/2023 4:15:00 PM 5.51 41.918 0.19 7.07 125.6 12.17
1/2/2023 4:30:00 PM 5.52 41.936 0.19 7.08 132.7 12.17
1/2/2023 4:45:00 PM 5.54 41.972 0.172 7.09 131.8 12.15
1/2/2023 5:00:00 PM 5.55 41.99 0.185 7.1 135 12.13
1/2/2023 5:15:00 PM 5.56 42.008 0.185 7.09 140.7 12.12
1/2/2023 5:30:00 PM 5.57 42.026 0.188 7.11 140.5 12.09
1/2/2023 5:45:00 PM 5.59 42.062 0.188 7.12 136.2 12.06
1/2/2023 6:00:00 PM 5.61 42.098 0.188 7.13 134.8 12.01
1/2/2023 6:15:00 PM 5.61 42.098 0.188 7.14 79.04 12.02
1/2/2023 6:30:00 PM 5.62 42.116 0.188 7.14 0 12
1/2/2023 6:45:00 PM 5.62 42.116 0.188 7.13 0 12
1/2/2023 7:00:00 PM 5.63 42.134 0.187 7.21 0 11.98
1/2/2023 7:15:00 PM 5.63 42.134 0.182 7.37 0 11.96
1/2/2023 7:30:00 PM 5.64 42.152 0.178 9.16 0 11.95
1/2/2023 7:45:00 PM 5.65 42.17 0.183 8.69 0 11.91
1/2/2023 8:00:00 PM 5.65 42.17 0.182 8.73 0 11.93
1/2/2023 8:15:00 PM 5.65 42.17 0.185 8.64 0 11.38
1/2/2023 8:30:00 PM 5.65 42.17 0.185 7.73 0 7.14
1/2/2023 8:45:00 PM 5.66 42.188 0.187 8.82 0 6.26
1/2/2023 9:00:00 PM 5.67 42.206 0.182 8.72 0 6.74
1/2/2023 9:15:00 PM 5.67 42.206 0.181 8.51 -611.5 7.54
1/2/2023 9:30:00 PM 5.67 42.206 0.171 8.73 -26.43 8.84
1/2/2023 9:45:00 PM 5.67 42.206 0.187 8.56 0 9.08
1/2/2023 10:00:00 PM 5.68 42.224 0.187 8.76 0 8.48
1/2/2023 10:15:00 PM 5.69 42.242 0.187 8.45 -26.43 9.42
1/2/2023 10:30:00 PM 5.69 42.242 0.187 8.73 -26.43 11.35
1/2/2023 10:45:00 PM 5.69 42.242 0.187 8.41 -262.9 11.91
1/2/2023 11:00:00 PM 5.7 42.26 0.187 8.6 -221.1 11.92
1/2/2023 11:15:00 PM 5.72 42.296 0.187 8.57 -1571 11.59
1/2/2023 11:30:00 PM 5.72 42.296 0.187 8.54 -2836 11.5
1/2/2023 11:45:00 PM 5.72 42.296 0.187 8.55 -929.3 11.49
1/3/2023 12:00:00 AM 5.74 42.332 0.187 8.56 -506.5 11.52
1/3/2023 12:15:00 AM 5.73 42.314 0.187 8.55 -1539 11.56
1/3/2023 12:30:00 AM 5.75 42.35 0.187 8.56 -2579 11.56
1/3/2023 12:45:00 AM 5.75 42.35 0.188 8.55 -590.5 11.39
1/3/2023 1:00:00 AM 5.76 42.368 0.188 8.59 139.3 11.48
1/3/2023 1:15:00 AM 5.77 42.386 0.188 8.61 -121.2 11.59
1/3/2023 1:30:00 AM 5.77 42.386 0.188 8.55 -1280 11.55
1/3/2023 1:45:00 AM 5.78 42.404 0.188 8.59 -3039 11.62
1/3/2023 2:00:00 AM 5.79 42.422 0.188 8.62 -2553 11.65
1/3/2023 2:15:00 AM 5.79 42.422 0.188 8.56 -1997 11.62
1/3/2023 2:30:00 AM 5.79 42.422 0.188 8.6 -3042 11.65
1/3/2023 2:45:00 AM 5.81 42.458 0.188 8.6 -3289 11.7
1/3/2023 3:00:00 AM 5.81 42.458 0.189 8.61 -2722 11.63
1/3/2023 3:15:00 AM 5.82 42.476 0.189 8.62 -1839 11.71
1/3/2023 3:30:00 AM 5.83 42.494 0.189 8.6 -2029 11.74
1/3/2023 3:45:00 AM 5.82 42.476 0.189 8.69 -299.5 11.65
1/3/2023 4:00:00 AM 5.84 42.512 0.189 8.53 -59.86 11.61
1/3/2023 4:15:00 AM 5.83 42.494 0.189 8.56 -112.9 11.67
1/3/2023 4:30:00 AM 5.85 42.53 0.189 8.53 126.6 11.5
1/3/2023 4:45:00 AM 5.84 42.512 0.189 8.5 0 11.59
1/3/2023 5:00:00 AM 5.84 42.512 0.189 8.45 -372.4 11.55
1/3/2023 5:15:00 AM 5.86 42.548 0.189 8.55 -106.4 11.66
1/3/2023 5:30:00 AM 5.85 42.53 0.189 8.51 -745.4 11.7
1/3/2023 5:45:00 AM 5.85 42.53 0.189 8.44 145.6 11.56
1/3/2023 6:00:00 AM 5.86 42.548 0.189 8.52 -23.08 11.63
1/3/2023 6:15:00 AM 5.87 42.566 0.189 8.51 147.1 11.64
1/3/2023 6:30:00 AM 5.87 42.566 0.187 8.51 148.5 11.64
1/3/2023 6:45:00 AM 5.87 42.566 0.188 8.56 141 11.67
1/3/2023 7:00:00 AM 5.87 42.566 0.188 8.6 -422 11.58
1/3/2023 7:15:00 AM 5.87 42.566 0.186 8.52 -117.9 11.62
1/3/2023 7:30:00 AM 5.87 42.566 0.186 8.58 0 11.57
1/3/2023 7:45:00 AM 5.87 42.566 0.188 8.51 -6.63 11.62
1/3/2023 8:00:00 AM 5.88 42.584 0.188 8.48 132.2 11.57
1/3/2023 8:15:00 AM 5.89 42.602 0.189 8.55 -51.16 11.6
1/3/2023 8:30:00 AM 5.9 42.62 0.187 8.6 0 11.54
1/3/2023 8:45:00 AM 5.91 42.638 0.186 8.54 -667.6 11.63
1/3/2023 9:00:00 AM 5.93 42.674 0.188 8.56 -2724 11.6
1/3/2023 9:15:00 AM 5.93 42.674 0.187 8.59 -119.6 11.66
1/3/2023 9:30:00 AM 5.9 42.62 0.186 8.54 128.1 11.65
1/3/2023 9:45:00 AM 5.85 42.53 0.182 8.62 -1398 11.61
1/3/2023 10:00:00 AM 5.79 42.422 0.18 8.54 126.9 11.59
1/3/2023 10:15:00 AM 5.55 41.99 0.166 8.55 -317.4 11.6
1/3/2023 10:30:00 AM 5.4 41.72 0.158 8.53 -101.9 11.65
1/3/2023 10:45:00 AM 5.28 41.504 0.154 8.52 98.66 11.68
1/3/2023 11:00:00 AM 5.22 41.396 0.153 8.57 107.8 11.69
1/3/2023 11:15:00 AM 5.14 41.252 0.148 8.53 103.8 11.62
1/3/2023 11:30:00 AM 5.15 41.27 0.143 8.56 121.1 11.57
1/3/2023 11:45:00 AM 5.14 41.252 0.141 8.6 119.1 11.64
1/3/2023 12:00:00 PM 5.2 41.36 0.142 8.59 113.8 11.7
1/3/2023 12:15:00 PM 5.19 41.342 0.142 8.48 113.8 11.74
1/3/2023 12:30:00 PM 5.29 41.522 0.151 8.54 118.3 11.68
1/3/2023 12:45:00 PM 5.26 41.468 0.146 8.47 122.8 11.61
1/3/2023 1:00:00 PM 5.36 41.648 0.151 8.41 121.6 11.65
1/3/2023 1:15:00 PM 5.44 41.792 0.157 8.46 122.7 11.66
1/3/2023 1:30:00 PM 5.49 41.882 0.156 8.46 129.4 11.66
1/3/2023 1:45:00 PM 5.57 42.026 0.162 8.49 -110.5 11.68
1/3/2023 2:00:00 PM 5.62 42.116 0.162 8.46 131.2 11.68
1/3/2023 2:15:00 PM 5.67 42.206 0.169 8.48 127.1 11.67
1/3/2023 2:30:00 PM 5.74 42.332 0.168 8.49 137.7 11.63
1/3/2023 2:45:00 PM 5.77 42.386 0.17 8.49 136.3 11.64
1/3/2023 3:00:00 PM 5.8 42.44 0.171 8.46 -110.8 11.62
1/3/2023 3:15:00 PM 5.87 42.566 0.175 8.43 105.1 11.62
1/3/2023 3:30:00 PM 5.9 42.62 0.175 8.53 -140.2 11.6
1/3/2023 3:45:00 PM 5.95 42.71 0.176 8.53 -468.8 11.59
1/3/2023 4:00:00 PM 5.96 42.728 0.178 8.58 142.5 11.59
1/3/2023 4:15:00 PM 6 42.8 0.178 8.59 -707.3 11.58
1/3/2023 4:30:00 PM 6.02 42.836 0.179 8.57 15.21 11.55
1/3/2023 4:45:00 PM 6.04 42.872 0.18 8.59 -238.6 11.58
1/3/2023 5:00:00 PM 6.07 42.926 0.18 8.57 -97.3 11.56
1/3/2023 5:15:00 PM 6.1 42.98 0.181 8.47 7.68 11.56
1/3/2023 5:30:00 PM 6.12 43.016 0.181 8.49 -199 11.53
1/3/2023 5:45:00 PM 6.13 43.034 0.182 8.48 -1101 11.56
1/3/2023 6:00:00 PM 6.15 43.07 0.182 8.51 -1784 11.54
1/3/2023 6:15:00 PM 6.17 43.106 0.183 8.47 -811 11.51
1/3/2023 6:30:00 PM 6.19 43.142 0.184 8.27 -244.2 11.51
1/3/2023 6:45:00 PM 6.21 43.178 0.184 8.25 -262.2 11.49
1/3/2023 7:00:00 PM 6.23 43.214 0.183 8.26 -8.63 11.52
1/3/2023 7:15:00 PM 6.24 43.232 0.183 8.2 0 11.51
1/3/2023 7:30:00 PM 6.27 43.286 0.183 8.27 21.63 11.47
1/3/2023 7:45:00 PM 6.29 43.322 0.184 8.16 0 11.48
1/3/2023 8:00:00 PM 6.29 43.322 0.183 8.3 136.5 11.49
1/3/2023 8:15:00 PM 6.31 43.358 0.184 8.2 0 11.47
1/3/2023 8:30:00 PM 6.34 43.412 0.185 8.24 0 11.47
1/3/2023 8:45:00 PM 6.33 43.394 0.185 8.21 0 11.43
1/3/2023 9:00:00 PM 6.34 43.412 0.187 8.29 0 11.47
1/3/2023 9:15:00 PM 6.35 43.43 0.189 8.25 0 11.46
1/3/2023 9:30:00 PM 6.35 43.43 0.191 8.21 0 11.41
1/3/2023 9:45:00 PM 6.36 43.448 0.194 8.22 0 11.41
1/3/2023 10:00:00 PM 6.36 43.448 0.196 8.24 0 11.37
1/3/2023 10:15:00 PM 6.37 43.466 0.198 8.25 0 11.29
1/3/2023 10:30:00 PM 6.37 43.466 0.2 8.21 0 11.31
1/3/2023 10:45:00 PM 6.39 43.502 0.202 8.24 0 11.27
1/3/2023 11:00:00 PM 6.39 43.502 0.202 8.27 0 11.26
1/3/2023 11:15:00 PM 6.39 43.502 0.202 8.26 0 11.26
1/3/2023 11:30:00 PM 6.39 43.502 0.201 8.24 0 11.3
1/3/2023 11:45:00 PM 6.39 43.502 0.2 8.2 0 11.27
1/4/2023 12:00:00 AM 6.39 43.502 0.199 8.22 0 11.2
1/4/2023 12:15:00 AM 6.39 43.502 0.198 8.17 0 11.22
1/4/2023 12:30:00 AM 6.39 43.502 0.197 8.18 0 11.2
1/4/2023 12:45:00 AM 6.39 43.502 0.196 8.22 0 11.21
1/4/2023 1:00:00 AM 6.39 43.502 0.195 8.2 0 11.19
1/4/2023 1:15:00 AM 6.4 43.52 0.195 8.22 0 11.17
1/4/2023 1:30:00 AM 6.4 43.52 0.193 8.31 0 11.16
1/4/2023 1:45:00 AM 6.4 43.52 0.193 8.34 0 11.18
1/4/2023 2:00:00 AM 6.39 43.502 0.191 8.19 0 11.16
1/4/2023 2:15:00 AM 6.39 43.502 0.19 8.21 0 11.15
1/4/2023 2:30:00 AM 6.39 43.502 0.189 8.37 0 11.16
1/4/2023 2:45:00 AM 6.39 43.502 0.188 8.26 0 11.1
1/4/2023 3:00:00 AM 6.38 43.484 0.187 8.31 0 11.12
1/4/2023 3:15:00 AM 6.38 43.484 0.186 8.26 0 11.11
1/4/2023 3:30:00 AM 6.37 43.466 0.185 8.13 0 11.07
1/4/2023 3:45:00 AM 6.37 43.466 0.184 8.17 0 11
1/4/2023 4:00:00 AM 6.37 43.466 0.184 8.15 0 11
1/4/2023 4:15:00 AM 6.36 43.448 0.183 8.19 0 11.1
1/4/2023 4:30:00 AM 6.35 43.43 0.182 8.19 0 11.06
1/4/2023 4:45:00 AM 6.35 43.43 0.181 8.22 0 11.06
1/4/2023 5:00:00 AM 6.35 43.43 0.181 8.15 0 11.05
1/4/2023 5:15:00 AM 6.34 43.412 0.18 8.14 0 11.02
1/4/2023 5:30:00 AM 6.34 43.412 0.18 8.16 0 11.06
1/4/2023 5:45:00 AM 6.34 43.412 0.179 8.2 0 11.02
1/4/2023 6:00:00 AM 6.34 43.412 0.179 8.17 0 11.05
1/4/2023 6:15:00 AM 6.34 43.412 0.179 8.1 0 11.06
1/4/2023 6:30:00 AM 6.33 43.394 0.178 8 0 11.05
1/4/2023 6:45:00 AM 6.33 43.394 0.178 8.15 0 10.97
1/4/2023 7:00:00 AM 6.33 43.394 0.176 8.09 0 11.03
1/4/2023 7:15:00 AM 6.33 43.394 0.178 8.12 0 11.06
1/4/2023 7:30:00 AM 6.33 43.394 0.177 8.13 0 11.02
1/4/2023 7:45:00 AM 6.33 43.394 0.177 8.08 0 11.05
1/4/2023 8:00:00 AM 6.34 43.412 0.177 8.06 0 11.04
1/4/2023 8:15:00 AM 6.34 43.412 0.176 8.07 0 11.05
1/4/2023 8:30:00 AM 6.35 43.43 0.176 8.15 0 10.97
1/4/2023 8:45:00 AM 6.35 43.43 0.176 8.17 0 10.94
1/4/2023 9:00:00 AM 6.36 43.448 0.175 8.18 0 11.07
1/4/2023 9:15:00 AM 6.37 43.466 0.175 8.18 0 11.08
1/4/2023 9:30:00 AM 6.39 43.502 0.175 8.16 0 11.04
1/4/2023 9:45:00 AM 6.41 43.538 0.175 8.16 0 11.01
1/4/2023 10:00:00 AM 6.43 43.574 0.175 8.17 0 11.01
1/4/2023 10:15:00 AM 6.46 43.628 0.175 8.12 0 10.96
1/4/2023 10:30:00 AM 6.49 43.682 0.174 8.12 0 11.08
1/4/2023 10:45:00 AM 6.51 43.718 0.175 8.1 0 11.1
1/4/2023 11:00:00 AM 6.53 43.754 0.175 8.13 0 11.05
1/4/2023 11:15:00 AM 6.55 43.79 0.174 8.16 0 11.09
1/4/2023 11:30:00 AM 6.59 43.862 0.174 8.33 0 11.01
1/4/2023 11:45:00 AM 6.62 43.916 0.175 8.26 0 11.05
1/4/2023 12:00:00 PM 6.65 43.97 0.175 8.24 0 11.13
1/4/2023 12:15:00 PM 6.68 44.024 0.175 8.26 0 11.1
1/4/2023 12:30:00 PM 6.72 44.096 0.175 8.24 0 11.12
1/4/2023 12:45:00 PM 6.75 44.15 0.175 8.25 0 11.12
1/4/2023 1:00:00 PM 6.78 44.204 0.175 8.26 0 11.1
1/4/2023 1:15:00 PM 6.82 44.276 0.175 8.05 0 11.13
1/4/2023 1:30:00 PM 6.85 44.33 0.175 8.25 -26.43 11.11
1/4/2023 1:45:00 PM 6.87 44.366 0.175 8.18 0 11.18
1/4/2023 2:00:00 PM 6.9 44.42 0.175 8.14 0 11.22
1/4/2023 2:15:00 PM 6.93 44.474 0.175 8.25 0 11.18
1/4/2023 2:30:00 PM 6.95 44.51 0.175 8.16 0 11.21
1/4/2023 2:45:00 PM 6.97 44.546 0.175 8.17 0 11.19
1/4/2023 3:00:00 PM 7 44.6 0.175 8.17 0 11.21
1/4/2023 3:15:00 PM 7.02 44.636 0.175 8.15 0 11.2
1/4/2023 3:30:00 PM 7.05 44.69 0.175 8.17 0 11.18
1/4/2023 3:45:00 PM 7.05 44.69 0.175 8.14 0 11.22
1/4/2023 4:00:00 PM 7.07 44.726 0.175 8.11 0 11.19
1/4/2023 4:15:00 PM 7.09 44.762 0.175 8.16 0 11.19
1/4/2023 4:30:00 PM 7.11 44.798 0.175 8.15 0 11.22
1/4/2023 4:45:00 PM 7.12 44.816 0.175 8.2 0 11.16
1/4/2023 5:00:00 PM 7.15 44.87 0.175 8.18 0 11.16
1/4/2023 5:15:00 PM 7.15 44.87 0.175 8.21 0 11.15
1/4/2023 5:30:00 PM 7.16 44.888 0.175 8.17 0 11.2
1/4/2023 5:45:00 PM 7.18 44.924 0.175 8.12 0 11.1
1/4/2023 6:00:00 PM 7.19 44.942 0.175 8.11 0 11.13
1/4/2023 6:15:00 PM 7.2 44.96 0.175 8.41 0 11.14
1/4/2023 6:30:00 PM 7.21 44.978 0.175 8.22 0 11.2
1/4/2023 6:45:00 PM 7.23 45.014 0.175 8.35 0 11.21
1/4/2023 7:00:00 PM 7.24 45.032 0.175 8.28 0 11.2
1/4/2023 7:15:00 PM 7.26 45.068 0.175 8.3 0 11.18
1/4/2023 7:30:00 PM 7.26 45.068 0.175 8.3 0 11.12
1/4/2023 7:45:00 PM 7.28 45.104 0.175 8.28 0 11.15
1/4/2023 8:00:00 PM 7.28 45.104 0.176 8.24 0 11.14
1/4/2023 8:15:00 PM 7.29 45.122 0.176 8.31 0 11.15
1/4/2023 8:30:00 PM 7.3 45.14 0.176 8.3 0 11.16
1/4/2023 8:45:00 PM 7.31 45.158 0.176 8.31 0 11.17
1/4/2023 9:00:00 PM 7.31 45.158 0.176 8.33 0 11.19
1/4/2023 9:15:00 PM 7.23 45.014 0.176 8.32 0 11.19
1/4/2023 9:30:00 PM 7.24 45.032 0.176 8.33 0 11.17
1/4/2023 9:45:00 PM 7.25 45.05 0.176 8.33 0 11.14
1/4/2023 10:00:00 PM 7.26 45.068 0.176 8.31 0 11.14
1/4/2023 10:15:00 PM 7.27 45.086 0.176 8.34 -26.43 11.13
1/4/2023 10:30:00 PM 7.28 45.104 0.176 8.29 0 11.1
1/4/2023 10:45:00 PM 7.29 45.122 0.176 8.32 0 11.17
1/4/2023 11:00:00 PM 7.29 45.122 0.176 8.29 0 11.18
1/4/2023 11:15:00 PM 7.31 45.158 0.177 8.3 0 11.17
1/4/2023 11:30:00 PM 7.31 45.158 0.177 8.37 0 11.16
1/4/2023 11:45:00 PM 7.31 45.158 0.177 8.37 0 11.15
1/5/2023 12:00:00 AM 7.32 45.176 0.177 8.32 0 11.15
1/5/2023 12:15:00 AM 7.33 45.194 0.177 8.32 0 11.09
1/5/2023 12:30:00 AM 7.33 45.194 0.177 8.34 0 11.11
1/5/2023 12:45:00 AM 7.34 45.212 0.178 8.39 0 11.08
1/5/2023 1:00:00 AM 7.33 45.194 0.178 8.37 0 11.07
1/5/2023 1:15:00 AM 7.34 45.212 0.178 8.47 -26.43 10.94
1/5/2023 1:30:00 AM 7.34 45.212 0.178 8.39 0 11.05
1/5/2023 1:45:00 AM 7.34 45.212 0.178 8.39 0 11.07
1/5/2023 2:00:00 AM 7.33 45.194 0.178 8.33 0 11.1
1/5/2023 2:15:00 AM 7.34 45.212 0.178 8.39 0 11.09
1/5/2023 2:30:00 AM 7.34 45.212 0.178 8.43 0 11.05
1/5/2023 2:45:00 AM 7.34 45.212 0.178 8.33 0 11.05
1/5/2023 3:00:00 AM 7.34 45.212 0.178 8.41 0 11.09
1/5/2023 3:15:00 AM 7.34 45.212 0.179 8.41 -26.43 11.06
1/5/2023 3:30:00 AM 7.33 45.194 0.179 8.46 0 11.05
1/5/2023 3:45:00 AM 7.33 45.194 0.179 8.41 0 11.03
1/5/2023 4:00:00 AM 7.32 45.176 0.179 8.39 0 11.07
1/5/2023 4:15:00 AM 7.32 45.176 0.179 8.43 0 11.06
1/5/2023 4:30:00 AM 7.31 45.158 0.179 8.43 0 11.04
1/5/2023 4:45:00 AM 7.3 45.14 0.179 8.46 0 11.02
1/5/2023 5:00:00 AM 7.29 45.122 0.179 8.62 0 11.05
1/5/2023 5:15:00 AM 7.28 45.104 0.179 8.25 0 11.02
1/5/2023 5:30:00 AM 7.27 45.086 0.18 8.52 0 11.03
1/5/2023 5:45:00 AM 7.26 45.068 0.18 8.53 0 11.03
1/5/2023 6:00:00 AM 7.24 45.032 0.18 8.52 0 11.03
1/5/2023 6:15:00 AM 7.23 45.014 0.18 8.4 0 11.04
1/5/2023 6:30:00 AM 7.22 44.996 0.18 8.51 0 11.04
1/5/2023 6:45:00 AM 7.21 44.978 0.18 8.54 -26.43 11.02
1/5/2023 7:00:00 AM 7.19 44.942 0.18 8.52 0 11.05
1/5/2023 7:15:00 AM 7.18 44.924 0.18 8.53 0 11.04
1/5/2023 7:30:00 AM 7.16 44.888 0.18 8.49 0 11.01
1/5/2023 7:45:00 AM 7.15 44.87 0.18 8.38 0 11.06
1/5/2023 8:00:00 AM 7.13 44.834 0.18 8.43 0 11.05
1/5/2023 8:15:00 AM 7.12 44.816 0.18 8.44 0 11.05
1/5/2023 8:30:00 AM 7.11 44.798 0.18 8.33 0 11.06
1/5/2023 8:45:00 AM 7.1 44.78 0.18 8.47 0 11.07
1/5/2023 9:00:00 AM 7.1 44.78 0.18 8.41 0 11.07
1/5/2023 9:15:00 AM 7.09 44.762 0.18 8.53 0 11.08
1/5/2023 9:30:00 AM 7.1 44.78 0.18 8.6 -26.43 11.08
1/5/2023 9:45:00 AM 7.12 44.816 0.18 8.63 0 11.1
1/5/2023 10:00:00 AM 7.14 44.852 0.18 8.56 0 11.11
1/5/2023 10:15:00 AM 7.16 44.888 0.18 8.58 0 11.14
1/5/2023 10:30:00 AM 7.2 44.96 0.18 8.58 0 11.13
1/5/2023 10:45:00 AM 7.21 44.978 0.18 8.4 0 11.15
1/5/2023 11:00:00 AM 7.23 45.014 0.18 8.58 0 11.16
1/5/2023 11:15:00 AM 7.27 45.086 0.18 8.5 0 11.19
1/5/2023 11:30:00 AM 7.34 45.212 0.18 8.48 0 11.19
1/5/2023 11:45:00 AM 7.38 45.284 0.18 8.49 0 11.21
1/5/2023 12:00:00 PM 7.44 45.392 0.18 8.5 0 11.24
1/5/2023 12:15:00 PM 7.47 45.446 0.181 8.4 0 11.25
1/5/2023 12:30:00 PM 7.58 45.644 0.181 8.52 0 11.26
1/5/2023 12:45:00 PM 7.6 45.68 0.181 8.46 0 11.28
1/5/2023 1:00:00 PM 7.71 45.878 0.181 8.49 -26.43 11.29
1/5/2023 1:15:00 PM 7.77 45.986 0.181 8.43 0 11.31
1/5/2023 1:30:00 PM 7.81 46.058 0.181 8.44 0 11.32
1/5/2023 1:45:00 PM 7.85 46.13 0.181 8.42 0 11.33
1/5/2023 2:00:00 PM 7.86 46.148 0.181 8.45 0 11.34
1/5/2023 2:15:00 PM 7.87 46.166 0.181 8.45 0 11.33
1/5/2023 2:30:00 PM 7.88 46.184 0.181 7.62 0 11.34
1/5/2023 2:45:00 PM 7.88 46.184 0.182 8.41 0 11.35
1/5/2023 3:00:00 PM 7.89 46.202 0.182 8.44 0 11.35
1/5/2023 3:15:00 PM 7.91 46.238 0.182 8.4 0 11.36
1/5/2023 3:30:00 PM 7.92 46.256 0.182 8.4 0 11.35
1/5/2023 3:45:00 PM 7.93 46.274 0.182 8.45 0 11.35
1/5/2023 4:00:00 PM 7.91 46.238 0.182 8.53 0 11.34
1/5/2023 4:15:00 PM 7.9 46.22 0.182 8.53 0 11.32
1/5/2023 4:30:00 PM 7.88 46.184 0.182 8.51 0 11.32
1/5/2023 4:45:00 PM 7.87 46.166 0.182 8.58 0 11.31
1/5/2023 5:00:00 PM 7.86 46.148 0.182 8.57 0 11.3
1/5/2023 5:15:00 PM 7.87 46.166 0.182 8.58 0 11.28
1/5/2023 5:30:00 PM 7.87 46.166 0.182 8.6 0 11.27
1/5/2023 5:45:00 PM 7.91 46.238 0.182 8.55 0 11.26
1/5/2023 6:00:00 PM 7.91 46.238 0.182 8.67 0 11.23
1/5/2023 6:15:00 PM 7.94 46.292 0.182 8.63 0 11.24
1/5/2023 6:30:00 PM 7.96 46.328 0.182 8.65 0 11.23
1/5/2023 6:45:00 PM 7.98 46.364 0.182 8.68 0 11.21
1/5/2023 7:00:00 PM 7.98 46.364 0.183 8.72 0 11.2
1/5/2023 7:15:00 PM 7.99 46.382 0.183 8.72 0 11.19
1/5/2023 7:30:00 PM 7.99 46.382 0.183 8.73 0 11.2
1/5/2023 7:45:00 PM 7.99 46.382 0.183 8.72 0 11.17
1/5/2023 8:00:00 PM 7.98 46.364 0.183 8.77 0 11.17
1/5/2023 8:15:00 PM 7.99 46.382 0.183 8.73 0 11.15
1/5/2023 8:30:00 PM 7.97 46.346 0.182 8.74 0 11.15
1/5/2023 8:45:00 PM 7.96 46.328 0.182 8.82 0 11.16
1/5/2023 9:00:00 PM 7.96 46.328 0.183 8.77 0 11.15
1/5/2023 9:15:00 PM 7.96 46.328 0.182 8.8 0 11.13
1/5/2023 9:30:00 PM 7.96 46.328 0.182 8.85 0 11.14
1/5/2023 9:45:00 PM 7.96 46.328 0.182 8.91 0 11.13
1/5/2023 10:00:00 PM 7.95 46.31 0.182 8.9 0 11.12
1/5/2023 10:15:00 PM 7.95 46.31 0.182 8.93 0 11.13
1/5/2023 10:30:00 PM 7.94 46.292 0.182 8.96 0 11.12
1/5/2023 10:45:00 PM 7.93 46.274 0.183 8.95 0 11.1
1/5/2023 11:00:00 PM 7.92 46.256 0.182 9.01 0 11.09
1/5/2023 11:15:00 PM 7.91 46.238 0.183 8.98 0 11.1
1/5/2023 11:30:00 PM 7.89 46.202 0.183 9 0 11.1
1/5/2023 11:45:00 PM 7.88 46.184 0.182 9.03 0 11.09
1/6/2023 12:00:00 AM 7.87 46.166 0.182 9.02 0 11.08
1/6/2023 12:15:00 AM 7.85 46.13 0.182 9 0 11.09
1/6/2023 12:30:00 AM 7.83 46.094 0.182 9 0 11.09
1/6/2023 12:45:00 AM 7.8 46.04 0.182 9.04 0 11.08
1/6/2023 1:00:00 AM 7.78 46.004 0.182 9.01 0 11.07
1/6/2023 1:15:00 AM 7.76 45.968 0.182 9.02 0 11.08
1/6/2023 1:30:00 AM 7.73 45.914 0.182 8.94 0 11.08
1/6/2023 1:45:00 AM 7.71 45.878 0.182 9.03 0 11.08
1/6/2023 2:00:00 AM 7.69 45.842 0.182 8.93 0 11.06
1/6/2023 2:15:00 AM 7.65 45.77 0.182 8.98 0 11.06
1/6/2023 2:30:00 AM 7.64 45.752 0.183 8.98 0 11.06
1/6/2023 2:45:00 AM 7.62 45.716 0.183 9.01 0 11.06
1/6/2023 3:00:00 AM 7.6 45.68 0.183 9.06 0 11.03
1/6/2023 3:15:00 AM 7.58 45.644 0.183 9 0 11.05
1/6/2023 3:30:00 AM 7.55 45.59 0.183 8.48 0 11.03
1/6/2023 3:45:00 AM 7.55 45.59 0.183 9 0 11.03
1/6/2023 4:00:00 AM 7.52 45.536 0.183 8.98 0 11.03
1/6/2023 4:15:00 AM 7.5 45.5 0.183 8.88 0 11.03
1/6/2023 4:30:00 AM 7.49 45.482 0.183 8.93 0 11.04
1/6/2023 4:45:00 AM 7.47 45.446 0.183 8.92 0 11.03
1/6/2023 5:00:00 AM 7.46 45.428 0.183 8.99 0 11.03
1/6/2023 5:15:00 AM 7.43 45.374 0.184 8.95 0 11.02
1/6/2023 5:30:00 AM 7.43 45.374 0.184 9.03 0 11.02
1/6/2023 5:45:00 AM 7.41 45.338 0.184 9 0 11.01
1/6/2023 6:00:00 AM 7.39 45.302 0.184 8.98 0 11.02
1/6/2023 6:15:00 AM 7.39 45.302 0.184 8.99 0 11.01
1/6/2023 6:30:00 AM 7.37 45.266 0.184 9 0 11.02
1/6/2023 6:45:00 AM 7.35 45.23 0.184 9.01 0 11.03
1/6/2023 7:00:00 AM 7.33 45.194 0.184 8.98 0 11.03
1/6/2023 7:15:00 AM 7.32 45.176 0.184 8.93 0 11.03
1/6/2023 7:30:00 AM 7.3 45.14 0.184 8.94 0 11.03
1/6/2023 7:45:00 AM 7.29 45.122 0.184 8.93 0 11.02
1/6/2023 8:00:00 AM 7.27 45.086 0.184 8.9 0 11.04
1/6/2023 8:15:00 AM 7.25 45.05 0.184 8.92 0 11.05
1/6/2023 8:30:00 AM 7.24 45.032 0.184 8.78 0 11.05
1/6/2023 8:45:00 AM 7.23 45.014 0.184 8.94 0 11.05
1/6/2023 9:00:00 AM 7.23 45.014 0.184 8.97 0 11.05
1/6/2023 9:15:00 AM 7.23 45.014 0.184 8.92 0 11.04
1/6/2023 9:30:00 AM 7.2 44.96 0.184 8.89 0 11.09
1/6/2023 9:45:00 AM 7.19 44.942 0.184 8.89 0 11.09
1/6/2023 10:00:00 AM 7.22 44.996 0.184 8.91 0 11.09
1/6/2023 10:15:00 AM 7.22 44.996 0.184 8.91 0 11.13
1/6/2023 10:30:00 AM 7.25 45.05 0.184 8.91 0 11.17
1/6/2023 10:45:00 AM 7.25 45.05 0.184 8.89 0 11.17
1/6/2023 11:00:00 AM 7.26 45.068 0.184 8.89 0 11.19
1/6/2023 11:15:00 AM 7.3 45.14 0.184 8.87 0 11.19
1/6/2023 11:30:00 AM 7.3 45.14 0.184 8.88 0 11.21
1/6/2023 11:45:00 AM 7.3 45.14 0.184 8.87 0 11.27
1/6/2023 12:00:00 PM 7.3 45.14 0.184 8.87 0 11.27
1/6/2023 12:15:00 PM 7.29 45.122 0.184 8.86 0 11.31
1/6/2023 12:30:00 PM 7.34 45.212 0.184 8.82 0 11.35
1/6/2023 12:45:00 PM 7.36 45.248 0.185 8.81 0 11.35
1/6/2023 1:00:00 PM 7.34 45.212 0.185 8.87 0 11.36
1/6/2023 1:15:00 PM 7.36 45.248 0.185 8.8 0 11.37
1/6/2023 1:30:00 PM 7.35 45.23 0.185 8.85 0 11.38
1/6/2023 1:45:00 PM 7.33 45.194 0.185 8.61 0 11.37
1/6/2023 2:00:00 PM 7.32 45.176 0.185 8.87 0 11.41
1/6/2023 2:15:00 PM 7.3 45.14 0.185 8.78 0 11.41
1/6/2023 2:30:00 PM 7.29 45.122 0.185 8.74 0 11.42
1/6/2023 2:45:00 PM 7.28 45.104 0.186 8.77 0 11.43
1/6/2023 3:00:00 PM 7.27 45.086 0.186 8.82 0 11.44
1/6/2023 3:15:00 PM 7.26 45.068 0.186 8.81 0 11.43
1/6/2023 3:30:00 PM 7.24 45.032 0.186 8.71 0 11.45
1/6/2023 3:45:00 PM 7.23 45.014 0.186 8.8 0 11.44
1/6/2023 4:00:00 PM 7.22 44.996 0.186 8.81 0 11.45
1/6/2023 4:15:00 PM 7.21 44.978 0.186 8.85 0 11.46
1/6/2023 4:30:00 PM 7.19 44.942 0.186 8.52 0 11.45
1/6/2023 4:45:00 PM 7.18 44.924 0.186 8.83 0 11.45
1/6/2023 5:00:00 PM 7.16 44.888 0.186 8.82 0 11.45
1/6/2023 5:15:00 PM 7.15 44.87 0.186 8.8 0 11.45
1/6/2023 5:30:00 PM 7.13 44.834 0.187 8.81 0 11.45
1/6/2023 5:45:00 PM 7.11 44.798 0.186 8.8 0 11.46
1/6/2023 6:00:00 PM 7.1 44.78 0.187 8.83 0 11.43
1/6/2023 6:15:00 PM 7.09 44.762 0.187 8.81 0 11.43
1/6/2023 6:30:00 PM 7.07 44.726 0.187 8.83 0 11.42
1/6/2023 6:45:00 PM 7.05 44.69 0.187 8.86 0 11.43
1/6/2023 7:00:00 PM 7.02 44.636 0.186 8.84 0 11.43
1/6/2023 7:15:00 PM 7 44.6 0.186 8.83 0 11.44
1/6/2023 7:30:00 PM 6.97 44.546 0.186 8.82 0 11.43
1/6/2023 7:45:00 PM 6.95 44.51 0.186 8.83 0 11.42
1/6/2023 8:00:00 PM 6.92 44.456 0.186 8.82 0 11.44
1/6/2023 8:15:00 PM 6.9 44.42 0.186 8.84 0 11.44
1/6/2023 8:30:00 PM 6.88 44.384 0.187 8.83 0 11.44
1/6/2023 8:45:00 PM 6.86 44.348 0.187 8.86 0 11.46
1/6/2023 9:00:00 PM 6.83 44.294 0.187 8.85 0 11.45
1/6/2023 9:15:00 PM 6.82 44.276 0.187 8.86 0 11.47
1/6/2023 9:30:00 PM 6.8 44.24 0.187 8.85 0 11.47
1/6/2023 9:45:00 PM 6.78 44.204 0.187 8.82 0 11.48
1/6/2023 10:00:00 PM 6.75 44.15 0.187 8.84 0 11.49
1/6/2023 10:15:00 PM 6.73 44.114 0.187 8.88 0 11.47
1/6/2023 10:30:00 PM 6.72 44.096 0.187 8.96 0 11.49
1/6/2023 10:45:00 PM 6.69 44.042 0.188 8.93 0 11.5
1/6/2023 11:00:00 PM 6.66 43.988 0.188 8.97 0 11.49
1/6/2023 11:15:00 PM 6.65 43.97 0.188 8.97 0 11.5
1/6/2023 11:30:00 PM 6.62 43.916 0.188 8.98 0 11.5
1/6/2023 11:45:00 PM 6.6 43.88 0.188 8.96 0 11.51
1/7/2023 12:00:00 AM 6.57 43.826 0.188 8.98 0 11.52
1/7/2023 12:15:00 AM 6.55 43.79 0.189 8.99 0 11.51
1/7/2023 12:30:00 AM 6.54 43.772 0.189 9.01 0 11.51
1/7/2023 12:45:00 AM 6.52 43.736 0.189 9.01 0 11.52
1/7/2023 1:00:00 AM 6.5 43.7 0.189 9 0 11.5
1/7/2023 1:15:00 AM 6.46 43.628 0.189 8.99 0 11.51
1/7/2023 1:30:00 AM 6.45 43.61 0.188 9.06 0 11.52
1/7/2023 1:45:00 AM 6.42 43.556 0.188 9.02 0 11.5
1/7/2023 2:00:00 AM 6.41 43.538 0.188 9.05 0 11.52
1/7/2023 2:15:00 AM 6.38 43.484 0.189 9.02 0 11.52
1/7/2023 2:30:00 AM 6.35 43.43 0.189 9.07 0 11.52
1/7/2023 2:45:00 AM 6.34 43.412 0.189 9.07 0 11.52
1/7/2023 3:00:00 AM 6.32 43.376 0.189 9.05 0 11.5
1/7/2023 3:15:00 AM 6.29 43.322 0.189 9.05 0 11.51
1/7/2023 3:30:00 AM 6.28 43.304 0.189 9.04 0 11.52
1/7/2023 3:45:00 AM 6.25 43.25 0.189 9.04 0 11.51
1/7/2023 4:00:00 AM 6.23 43.214 0.189 9.04 0 11.5
1/7/2023 4:15:00 AM 6.21 43.178 0.189 9.05 0 11.51
1/7/2023 4:30:00 AM 6.18 43.124 0.189 9.13 0 11.5
1/7/2023 4:45:00 AM 6.16 43.088 0.189 9.06 0 11.5
1/7/2023 5:00:00 AM 6.13 43.034 0.189 9.1 0 11.52
1/7/2023 5:15:00 AM 6.11 42.998 0.189 9.09 0 11.52
1/7/2023 5:30:00 AM 6.08 42.944 0.189 9.06 0 11.53
1/7/2023 5:45:00 AM 6.06 42.908 0.189 9.07 0 11.52
1/7/2023 6:00:00 AM 6.04 42.872 0.189 9.11 0 11.53
1/7/2023 6:15:00 AM 6.03 42.854 0.189 9.11 0 11.52
1/7/2023 6:30:00 AM 6.01 42.818 0.189 9.13 0 11.53
1/7/2023 6:45:00 AM 5.98 42.764 0.189 9.09 0 11.55
1/7/2023 7:00:00 AM 5.96 42.728 0.189 9.12 0 11.56
1/7/2023 7:15:00 AM 5.94 42.692 0.189 9.05 0 11.56
1/7/2023 7:30:00 AM 5.93 42.674 0.189 9.08 0 11.55
1/7/2023 7:45:00 AM 5.91 42.638 0.189 9.12 0 11.57
1/7/2023 8:00:00 AM 5.89 42.602 0.189 9.08 0 11.57
1/7/2023 8:15:00 AM 5.88 42.584 0.189 9.08 0 11.58
1/7/2023 8:30:00 AM 5.86 42.548 0.189 9.07 0 11.59
1/7/2023 8:45:00 AM 5.86 42.548 0.188 9.06 0 11.6
1/7/2023 9:00:00 AM 5.85 42.53 0.188 9.09 0 11.62
1/7/2023 9:15:00 AM 5.85 42.53 0.188 9.12 0 11.61
1/7/2023 9:30:00 AM 5.85 42.53 0.188 9.17 0 11.6
1/7/2023 9:45:00 AM 5.86 42.548 0.188 9.12 0 11.65
1/7/2023 10:00:00 AM 5.87 42.566 0.188 9.09 0 11.68
1/7/2023 10:15:00 AM 5.87 42.566 0.188 9.1 0 11.73
1/7/2023 10:30:00 AM 5.89 42.602 0.188 9.08 0 11.75
1/7/2023 10:45:00 AM 5.9 42.62 0.188 9.08 0 11.78
1/7/2023 11:00:00 AM 5.92 42.656 0.188 9.04 0 11.78
1/7/2023 11:15:00 AM 5.94 42.692 0.188 9.07 0 11.83
1/7/2023 11:30:00 AM 5.95 42.71 0.188 9.06 0 11.84
1/7/2023 11:45:00 AM 5.97 42.746 0.187 9.05 0 11.88
1/7/2023 12:00:00 PM 5.98 42.764 0.187 9.06 0 11.89
1/7/2023 12:15:00 PM 5.99 42.782 0.187 9.07 0 11.92
1/7/2023 12:30:00 PM 6.06 42.908 0.187 9.01 0 11.95
1/7/2023 12:45:00 PM 6.1 42.98 0.187 9.08 0 11.96
1/7/2023 1:00:00 PM 6.09 42.962 0.187 9.03 0 11.97
1/7/2023 1:15:00 PM 6.13 43.034 0.187 9.03 0 12
1/7/2023 1:30:00 PM 6.18 43.124 0.187 9 0 12.02
1/7/2023 1:45:00 PM 6.22 43.196 0.187 9.03 0 12.03
1/7/2023 2:00:00 PM 6.25 43.25 0.187 8.92 0 12.05
1/7/2023 2:15:00 PM 6.24 43.232 0.187 8.99 0 12.05
1/7/2023 2:30:00 PM 6.21 43.178 0.187 9 0 12.03
1/7/2023 2:45:00 PM 6.18 43.124 0.187 9 0 12.06
1/7/2023 3:00:00 PM 6.17 43.106 0.187 9.01 0 12.06
1/7/2023 3:15:00 PM 6.17 43.106 0.187 8.96 0 12.07
1/7/2023 3:30:00 PM 6.15 43.07 0.187 9 0 12.07
1/7/2023 3:45:00 PM 6.14 43.052 0.187 9.01 0 12.06
1/7/2023 4:00:00 PM 6.14 43.052 0.187 8.91 0 12.07
1/7/2023 4:15:00 PM 6.14 43.052 0.187 8.99 0 12.06
1/7/2023 4:30:00 PM 6.14 43.052 0.187 8.95 0 12.04
1/7/2023 4:45:00 PM 6.12 43.016 0.187 8.99 0 12.04
1/7/2023 5:00:00 PM 6.12 43.016 0.187 8.92 0 12.04
1/7/2023 5:15:00 PM 6.11 42.998 0.187 8.95 0 12.01
1/7/2023 5:30:00 PM 6.11 42.998 0.187 8.98 0 12
1/7/2023 5:45:00 PM 6.11 42.998 0.187 8.97 0 12
1/7/2023 6:00:00 PM 6.09 42.962 0.187 8.95 0 11.99
1/7/2023 6:15:00 PM 6.09 42.962 0.187 8.97 0 11.96
1/7/2023 6:30:00 PM 6.07 42.926 0.187 8.93 0 11.96
1/7/2023 6:45:00 PM 6.06 42.908 0.187 9 0 11.97
1/7/2023 7:00:00 PM 6.05 42.89 0.187 8.9 0 11.95
1/7/2023 7:15:00 PM 6.04 42.872 0.187 8.86 0 11.96
1/7/2023 7:30:00 PM 6.02 42.836 0.187 8.95 0 11.92
1/7/2023 7:45:00 PM 6 42.8 0.187 8.89 0 11.93
1/7/2023 8:00:00 PM 5.98 42.764 0.187 8.87 0 11.95
1/7/2023 8:15:00 PM 5.96 42.728 0.186 8.86 0 11.94
1/7/2023 8:30:00 PM 5.93 42.674 0.187 8.87 0 11.94
1/7/2023 8:45:00 PM 5.91 42.638 0.187 8.87 0 11.92
1/7/2023 9:00:00 PM 5.88 42.584 0.187 8.88 0 11.93
1/7/2023 9:15:00 PM 5.85 42.53 0.187 8.9 0 11.88
1/7/2023 9:30:00 PM 5.82 42.476 0.188 8.86 0 11.89
1/7/2023 9:45:00 PM 5.79 42.422 0.188 8.8 0 11.93
1/7/2023 10:00:00 PM 5.76 42.368 0.188 8.86 0 11.92
1/7/2023 10:15:00 PM 5.74 42.332 0.188 8.84 0 11.93
1/7/2023 10:30:00 PM 5.71 42.278 0.188 8.9 0 11.9
1/7/2023 10:45:00 PM 5.68 42.224 0.188 8.84 0 11.93
1/7/2023 11:00:00 PM 5.66 42.188 0.188 8.84 0 11.97
1/7/2023 11:15:00 PM 5.64 42.152 0.188 8.86 0 11.93
1/7/2023 11:30:00 PM 5.62 42.116 0.188 8.81 0 11.91
1/7/2023 11:45:00 PM 5.6 42.08 0.189 8.8 0 11.96
1/8/2023 12:00:00 AM 5.6 42.08 0.189 8.8 0 11.92
1/8/2023 12:15:00 AM 5.59 42.062 0.189 8.81 0 11.93
1/8/2023 12:30:00 AM 5.57 42.026 0.189 8.82 0 11.94
1/8/2023 12:45:00 AM 5.55 41.99 0.189 8.81 0 11.93
1/8/2023 1:00:00 AM 5.53 41.954 0.189 8.88 -79.39 11.91
1/8/2023 1:15:00 AM 5.5 41.9 0.189 8.75 0 11.91
1/8/2023 1:30:00 AM 5.48 41.864 0.189 8.79 0 11.77
1/8/2023 1:45:00 AM 5.46 41.828 0.189 8.78 0 11.72
1/8/2023 2:00:00 AM 5.44 41.792 0.189 8.8 0 11.94
1/8/2023 2:15:00 AM 5.43 41.774 0.189 8.87 -1569 11.76
1/8/2023 2:30:00 AM 5.41 41.738 0.189 8.76 0 11.83
1/8/2023 2:45:00 AM 5.39 41.702 0.189 8.12 0 11.89
1/8/2023 3:00:00 AM 5.38 41.684 0.189 8.79 0 11.9
1/8/2023 3:15:00 AM 5.37 41.666 0.189 8.64 0 11.88
1/8/2023 3:30:00 AM 5.36 41.648 0.189 8.68 0 11.86
1/8/2023 3:45:00 AM 5.34 41.612 0.189 8.81 0 11.85
1/8/2023 4:00:00 AM 5.33 41.594 0.189 8.76 0 11.91
1/8/2023 4:15:00 AM 5.31 41.558 0.189 8.69 0 11.92
1/8/2023 4:30:00 AM 5.3 41.54 0.189 8.71 0 11.91
1/8/2023 4:45:00 AM 5.27 41.486 0.189 8.75 0 11.9
1/8/2023 5:00:00 AM 5.26 41.468 0.189 8.78 -1316 11.93
1/8/2023 5:15:00 AM 5.23 41.414 0.189 8.7 0 11.94
1/8/2023 5:30:00 AM 5.2 41.36 0.189 8.83 -2486 11.94
1/8/2023 5:45:00 AM 5.18 41.324 0.189 8.8 0 11.96
1/8/2023 6:00:00 AM 5.15 41.27 0.189 8.71 0 11.95
1/8/2023 6:15:00 AM 5.12 41.216 0.189 8.71 0 11.94
1/8/2023 6:30:00 AM 5.09 41.162 0.189 8.75 -294.9 11.95
1/8/2023 6:45:00 AM 5.07 41.126 0.189 8.78 -389.5 11.89
1/8/2023 7:00:00 AM 5.04 41.072 0.189 8.79 0 11.91
1/8/2023 7:15:00 AM 5.02 41.036 0.189 8.72 0 11.93
1/8/2023 7:30:00 AM 5 41 0.189 8.79 0 11.94
1/8/2023 7:45:00 AM 4.98 40.964 0.189 8.81 1156 11.96
1/8/2023 8:00:00 AM 4.95 40.91 0.189 8.77 0 11.98
1/8/2023 8:15:00 AM 4.92 40.856 0.189 8.82 0 11.99
1/8/2023 8:30:00 AM 4.91 40.838 0.189 8.79 0 12.01
1/8/2023 8:45:00 AM 4.9 40.82 0.189 8.75 1201 11.96
1/8/2023 9:00:00 AM 4.88 40.784 0.188 8.75 198.1 11.86
1/8/2023 9:15:00 AM 4.87 40.766 0.188 8.73 0 12.02
1/8/2023 9:30:00 AM 4.87 40.766 0.188 8.66 0 12.06
1/8/2023 9:45:00 AM 4.9 40.82 0.188 8.68 0 12.08
1/8/2023 10:00:00 AM 4.91 40.838 0.188 8.7 0 12.1
1/8/2023 10:15:00 AM 4.98 40.964 0.188 8.74 0 12.1
1/8/2023 10:30:00 AM 4.96 40.928 0.188 8.62 0 12.07
1/8/2023 10:45:00 AM 4.97 40.946 0.188 8.72 1692 12.12
1/8/2023 11:00:00 AM 4.97 40.946 0.188 8.71 0 12.19
1/8/2023 11:15:00 AM 5.01 41.018 0.188 8.76 0 12.16
1/8/2023 11:30:00 AM 5.02 41.036 0.188 8.64 0 12.12
1/8/2023 11:45:00 AM 5.07 41.126 0.188 8.81 1898 12.03
1/8/2023 12:00:00 PM 5.09 41.162 0.188 8.74 0 12.05
1/8/2023 12:15:00 PM 5.13 41.234 0.188 8.74 0 12.35
1/8/2023 12:30:00 PM 5.17 41.306 0.188 8.7 0 12.38
1/8/2023 12:45:00 PM 5.2 41.36 0.188 8.73 0 12.41
1/8/2023 1:00:00 PM 5.23 41.414 0.188 8.78 0 12.32
1/8/2023 1:15:00 PM 5.26 41.468 0.187 8.74 0 12.12
1/8/2023 1:30:00 PM 5.28 41.504 0.187 8.75 -1736 12.17
1/8/2023 1:45:00 PM 5.3 41.54 0.187 8.74 0 12.41
1/8/2023 2:00:00 PM 5.32 41.576 0.187 8.72 0 12.33
1/8/2023 2:15:00 PM 5.32 41.576 0.187 8.72 0 12.21
1/8/2023 2:30:00 PM 5.34 41.612 0.187 8.71 0 12.24
1/8/2023 2:45:00 PM 5.35 41.63 0.187 8.72 0 12.39
1/8/2023 3:00:00 PM 5.35 41.63 0.187 8.67 0 12.33
1/8/2023 3:15:00 PM 5.35 41.63 0.187 8.72 0 12.32
1/8/2023 3:30:00 PM 5.36 41.648 0.187 8.75 -1351 12.42
1/8/2023 3:45:00 PM 5.36 41.648 0.186 8.68 0 12.44
1/8/2023 4:00:00 PM 5.37 41.666 0.186 8.74 -1930 12.44
1/8/2023 4:15:00 PM 5.35 41.63 0.186 8.71 0 12.39
1/8/2023 4:30:00 PM 5.34 41.612 0.186 8.64 0 12.43
1/8/2023 4:45:00 PM 5.33 41.594 0.186 8.75 -2295 12.46
1/8/2023 5:00:00 PM 5.32 41.576 0.186 8.66 0 12.39
1/8/2023 5:15:00 PM 5.3 41.54 0.186 8.7 0 12.43
1/8/2023 5:30:00 PM 5.28 41.504 0.186 8.73 -1277 12.43
1/8/2023 5:45:00 PM 5.26 41.468 0.186 8.6 0 12.28
1/8/2023 6:00:00 PM 5.24 41.432 0.185 8.62 0 12.32
1/8/2023 6:15:00 PM 5.22 41.396 0.185 8.69 0 12.2
1/8/2023 6:30:00 PM 5.2 41.36 0.185 8.65 0 12.11
1/8/2023 6:45:00 PM 5.17 41.306 0.185 8.66 0 11.85
1/8/2023 7:00:00 PM 5.15 41.27 0.186 8.64 0 12.05
1/8/2023 7:15:00 PM 5.14 41.252 0.186 8.41 0 11.91
1/8/2023 7:30:00 PM 5.13 41.234 0.186 8.59 0 11.86
1/8/2023 7:45:00 PM 5.12 41.216 0.186 8.61 0 12.1
1/8/2023 8:00:00 PM 5.1 41.18 0.186 8.56 0 12.14
1/8/2023 8:15:00 PM 5.09 41.162 0.186 8.65 -2265 12.21
1/8/2023 8:30:00 PM 5.07 41.126 0.186 8.64 0 11.96
1/8/2023 8:45:00 PM 5.06 41.108 0.186 8.66 0 12.14
1/8/2023 9:00:00 PM 5.05 41.09 0.185 8.99 -1787 12.06
1/8/2023 9:15:00 PM 5.03 41.054 0.185 8.93 0 11.98
1/8/2023 9:30:00 PM 5.02 41.036 0.185 8.92 0 11.93
1/8/2023 9:45:00 PM 5.01 41.018 0.185 8.95 -2049 11.88
1/8/2023 10:00:00 PM 5 41 0.185 8.87 0 12
1/8/2023 10:15:00 PM 4.99 40.982 0.185 8.87 0 12.03
1/8/2023 10:30:00 PM 4.98 40.964 0.185 8.86 0 12.1
1/8/2023 10:45:00 PM 4.97 40.946 0.185 8.81 0 12.1
1/8/2023 11:00:00 PM 4.96 40.928 0.185 8.83 0 12.16
1/8/2023 11:15:00 PM 4.94 40.892 0.185 8.77 -1208 12.16
1/8/2023 11:30:00 PM 4.93 40.874 0.185 8.76 0 12.1
1/8/2023 11:45:00 PM 4.92 40.856 0.185 8.68 0 12.1
1/9/2023 12:00:00 AM 4.91 40.838 0.185 8.7 0 12.02
1/9/2023 12:15:00 AM 4.93 40.874 0.185 8.79 0 12.01
1/9/2023 12:30:00 AM 4.92 40.856 0.184 8.67 0 12.04
1/9/2023 12:45:00 AM 4.91 40.838 0.185 8.52 0 12.03
1/9/2023 1:00:00 AM 4.9 40.82 0.184 8.54 0 12.05
1/9/2023 1:15:00 AM 4.88 40.784 0.185 8.59 0 12.06
1/9/2023 1:30:00 AM 4.86 40.748 0.185 8.59 0 12.01
1/9/2023 1:45:00 AM 4.83 40.694 0.185 8.66 0 11.98
1/9/2023 2:00:00 AM 4.82 40.676 0.185 9.35 0 11.97
1/9/2023 2:15:00 AM 4.81 40.658 0.185 9.29 0 11.9
1/9/2023 2:30:00 AM 4.81 40.658 0.185 9.31 -1930 11.92
1/9/2023 2:45:00 AM 4.8 40.64 0.185 9.31 0 11.97
1/9/2023 3:00:00 AM 4.76 40.568 0.185 9.22 -2395 11.74
1/9/2023 3:15:00 AM 4.7 40.46 0.185 9.34 0 12.01
1/9/2023 3:30:00 AM 4.66 40.388 0.185 9.31 1527 11.99
1/9/2023 3:45:00 AM 4.67 40.406 0.185 9.3 0 11.92
1/9/2023 4:00:00 AM 4.65 40.37 0.185 9.14 -1201 11.9
1/9/2023 4:15:00 AM 4.64 40.352 0.185 9.16 0 11.87
1/9/2023 4:30:00 AM 4.62 40.316 0.185 9.27 -23.11 11.9
1/9/2023 4:45:00 AM 4.61 40.298 0.185 9.2 0 11.69
1/9/2023 5:00:00 AM 4.6 40.28 0.185 9.21 584.5 11.71
1/9/2023 5:15:00 AM 4.59 40.262 0.185 9.24 0 11.71
1/9/2023 5:30:00 AM 4.58 40.244 0.185 9.24 292.6 11.73
1/9/2023 5:45:00 AM 4.55 40.19 0.185 9.25 0 11.79
1/9/2023 6:00:00 AM 4.54 40.172 0.185 9.21 2591 11.8
1/9/2023 6:15:00 AM 4.52 40.136 0.185 8.14 0 11.45
1/9/2023 6:30:00 AM 4.51 40.118 0.185 9.04 2042 11.65
1/9/2023 6:45:00 AM 4.49 40.082 0.185 9.15 0 11.94
1/9/2023 7:00:00 AM 4.48 40.064 0.185 9.09 2302 11.94
1/9/2023 7:15:00 AM 4.44 39.992 0.185 9.23 0 11.91
1/9/2023 7:30:00 AM 4.41 39.938 0.185 9.17 0 11.95
1/9/2023 7:45:00 AM 4.38 39.884 0.185 9.1 2050 11.97
1/9/2023 8:00:00 AM 4.36 39.848 0.185 9.12 2438 12.05
1/9/2023 8:15:00 AM 4.33 39.794 0.185 8.59 2722 12.13
1/9/2023 8:30:00 AM 4.31 39.758 0.185 9.06 2581 12.17
1/9/2023 8:45:00 AM 4.29 39.722 0.186 9.03 1774 12.19
1/9/2023 9:00:00 AM 4.28 39.704 0.186 9.08 2122 12.17
1/9/2023 9:15:00 AM 4.27 39.686 0.186 9.04 0 12.23
1/9/2023 9:30:00 AM 4.27 39.686 0.186 9.02 1715 12.23
1/9/2023 9:45:00 AM 4.28 39.704 0.186 8.98 2190 12.23
1/9/2023 10:00:00 AM 4.27 39.686 0.186 8.99 217.2 12.24
1/9/2023 10:15:00 AM 4.3 39.74 0.186 8.83 1922 12.25
1/9/2023 10:30:00 AM 4.34 39.812 0.185 8.84 0 12.31
1/9/2023 10:45:00 AM 4.34 39.812 0.186 8.82 1853 12.34
1/9/2023 11:00:00 AM 4.37 39.866 0.185 8.8 2099 12.39
1/9/2023 11:15:00 AM 4.46 40.028 0.185 8.88 627.4 12.43
1/9/2023 11:30:00 AM 4.56 40.208 0.185 8.84 1447 12.45
1/9/2023 11:45:00 AM 4.57 40.226 0.185 8.79 0 12.44
1/9/2023 12:00:00 PM 4.63 40.334 0.185 8.65 1247 12.42
1/9/2023 12:15:00 PM 4.7 40.46 0.185 8.82 2066 12.46
1/9/2023 12:30:00 PM 4.71 40.478 0.186 8.74 0 12.56
1/9/2023 12:45:00 PM 4.73 40.514 0.186 8.8 1033 12.58
1/9/2023 1:00:00 PM 4.75 40.55 0.186 8.81 0 12.6
1/9/2023 1:15:00 PM 4.77 40.586 0.186 8.76 0 12.62
1/9/2023 1:30:00 PM 4.76 40.568 0.186 8.72 0 12.63
1/9/2023 1:45:00 PM 4.78 40.604 0.186 8.83 2021 12.63
1/9/2023 2:00:00 PM 4.81 40.658 0.186 8.82 0 12.66
1/9/2023 2:15:00 PM 4.84 40.712 0.186 8.84 0 12.65
1/9/2023 2:30:00 PM 4.85 40.73 0.186 8.87 -794.7 12.68
1/9/2023 2:45:00 PM 4.85 40.73 0.186 8.86 99.43 12.69
1/9/2023 3:00:00 PM 4.85 40.73 0.186 8.87 -1941 12.64
1/9/2023 3:15:00 PM 4.85 40.73 0.186 8.88 -1329 12.65
1/9/2023 3:30:00 PM 4.84 40.712 0.186 8.87 0 12.64
1/9/2023 3:45:00 PM 4.83 40.694 0.186 8.84 418.2 12.54
1/9/2023 4:00:00 PM 4.83 40.694 0.186 8.85 1854 12.59
1/9/2023 4:15:00 PM 4.82 40.676 0.186 8.77 0 12.6
1/9/2023 4:30:00 PM 4.8 40.64 0.187 8.82 0 12.59
1/9/2023 4:45:00 PM 4.77 40.586 0.187 8.78 0 12.6
1/9/2023 5:00:00 PM 4.75 40.55 0.187 8.8 2051 12.6
1/9/2023 5:15:00 PM 4.72 40.496 0.187 8.81 0 12.56
1/9/2023 5:30:00 PM 4.7 40.46 0.187 8.85 2061 12.55
1/9/2023 5:45:00 PM 4.67 40.406 0.187 8.83 0 12.54
1/9/2023 6:00:00 PM 4.65 40.37 0.187 8.87 0 12.51
1/9/2023 6:15:00 PM 4.63 40.334 0.187 8.84 909.2 12.49
1/9/2023 6:30:00 PM 4.62 40.316 0.187 8.77 0 12.45
1/9/2023 6:45:00 PM 4.6 40.28 0.187 8.8 2083 12.44
1/9/2023 7:00:00 PM 4.59 40.262 0.188 8.79 0 12.41
1/9/2023 7:15:00 PM 4.57 40.226 0.188 8.74 1723 12.42
1/9/2023 7:30:00 PM 4.56 40.208 0.188 8.75 0 12.41
1/9/2023 7:45:00 PM 4.54 40.172 0.188 8.85 0 12.38
1/9/2023 8:00:00 PM 4.52 40.136 0.188 8.75 2170 12.36
1/9/2023 8:15:00 PM 4.51 40.118 0.188 8.77 2158 12.35
1/9/2023 8:30:00 PM 4.49 40.082 0.188 8.81 2259 12.31
1/9/2023 8:45:00 PM 4.47 40.046 0.188 8.84 431.8 12.37
1/9/2023 9:00:00 PM 4.45 40.01 0.188 8.82 2015 12.4
1/9/2023 9:15:00 PM 4.43 39.974 0.188 8.81 694.1 12.4
1/9/2023 9:30:00 PM 4.41 39.938 0.189 8.85 0 12.41
1/9/2023 9:45:00 PM 4.39 39.902 0.188 8.85 1759 12.37
1/9/2023 10:00:00 PM 4.38 39.884 0.189 8.87 1670 12.36
1/9/2023 10:15:00 PM 4.36 39.848 0.189 8.82 1038 12.36
1/9/2023 10:30:00 PM 4.34 39.812 0.189 8.86 1735 12.33
1/9/2023 10:45:00 PM 4.32 39.776 0.189 8.66 1865 12.33
1/9/2023 11:00:00 PM 4.29 39.722 0.189 8.73 1578 12.35
1/9/2023 11:15:00 PM 4.27 39.686 0.189 8.79 1771 12.32
1/9/2023 11:30:00 PM 4.25 39.65 0.189 8.47 1886 12.32
1/9/2023 11:45:00 PM 4.22 39.596 0.189 8.79 1822 12.31
1/10/2023 12:00:00 AM 4.19 39.542 0.189 8.78 1882 12.28
1/10/2023 12:15:00 AM 4.16 39.488 0.19 8.67 1838 12.29
1/10/2023 12:30:00 AM 4.16 39.488 0.189 8.79 1650 12.27
1/10/2023 12:45:00 AM 4.12 39.416 0.19 8.77 1337 12.29
1/10/2023 1:00:00 AM 4.09 39.362 0.19 8.78 1213 12.26
1/10/2023 1:15:00 AM 4.06 39.308 0.19 8.78 1380 12.27
1/10/2023 1:30:00 AM 4.04 39.272 0.19 8.78 1371 12.25
1/10/2023 1:45:00 AM 4.02 39.236 0.19 8.78 532.5 12.31
1/10/2023 2:00:00 AM 4.01 39.218 0.19 8.75 1371 12.33
1/10/2023 2:15:00 AM 3.99 39.182 0.19 8.63 1382 12.31
1/10/2023 2:30:00 AM 3.96 39.128 0.19 8.76 1325 12.27
1/10/2023 2:45:00 AM 3.94 39.092 0.19 8.66 1340 12.27
1/10/2023 3:00:00 AM 3.92 39.056 0.19 8.67 1346 12.29
1/10/2023 3:15:00 AM 3.9 39.02 0.19 8.74 1368 12.29
1/10/2023 3:30:00 AM 3.89 39.002 0.19 8.75 1330 12.29
1/10/2023 3:45:00 AM 3.88 38.984 0.19 8.6 1355 12.29
1/10/2023 4:00:00 AM 3.86 38.948 0.19 8.72 1224 12.3
1/10/2023 4:15:00 AM 3.84 38.912 0.19 8.75 1338 12.3
1/10/2023 4:30:00 AM 3.82 38.876 0.19 8.53 1356 12.24
1/10/2023 4:45:00 AM 3.8 38.84 0.19 8.74 1376 12.24
1/10/2023 5:00:00 AM 3.77 38.786 0.19 8.73 1441 12.26
1/10/2023 5:15:00 AM 3.76 38.768 0.19 8.72 1450 12.21
1/10/2023 5:30:00 AM 3.75 38.75 0.19 8.74 1471 12.21
1/10/2023 5:45:00 AM 3.73 38.714 0.19 8.75 1524 12.24
1/10/2023 6:00:00 AM 3.82 38.876 0.19 8.76 1482 12.17
1/10/2023 6:15:00 AM 3.7 38.66 0.19 8.7 1438 12.31
1/10/2023 6:30:00 AM 3.67 38.606 0.19 8.74 1501 12.29
1/10/2023 6:45:00 AM 3.66 38.588 0.19 8.75 1328 12.3
1/10/2023 7:00:00 AM 3.65 38.57 0.19 8.61 1340 12.27
1/10/2023 7:15:00 AM 3.64 38.552 0.19 8.72 1398 12.23
1/10/2023 7:30:00 AM 3.64 38.552 0.19 8.66 1383 12.29
1/10/2023 7:45:00 AM 3.61 38.498 0.19 8.69 1377 12.29
1/10/2023 8:00:00 AM 3.61 38.498 0.19 8.73 1312 12.28
1/10/2023 8:15:00 AM 3.59 38.462 0.19 8.73 1244 12.31
1/10/2023 8:30:00 AM 3.6 38.48 0.19 8.66 1363 12.31
1/10/2023 8:45:00 AM 3.61 38.498 0.19 8.68 1374 12.21
1/10/2023 9:00:00 AM 3.63 38.534 0.19 8.77 1319 12.34
1/10/2023 9:15:00 AM 3.64 38.552 0.19 8.76 1322 12.36
1/10/2023 9:30:00 AM 3.65 38.57 0.19 8.72 1281 12.35
1/10/2023 9:45:00 AM 3.67 38.606 0.19 8.7 1223 12.27
1/10/2023 10:00:00 AM 3.7 38.66 0.19 8.72 1271 12.3
1/10/2023 10:15:00 AM 3.73 38.714 0.19 8.71 1296 12.06
1/10/2023 10:30:00 AM 3.74 38.732 0.19 8.74 1220 12.4
1/10/2023 10:45:00 AM 3.77 38.786 0.19 8.79 1284 12.41
1/10/2023 11:00:00 AM 3.8 38.84 0.19 8.78 1267 12.41
1/10/2023 11:15:00 AM 3.83 38.894 0.19 8.76 1216 12.41
1/10/2023 11:30:00 AM 3.85 38.93 0.19 8.78 1185 12.34
1/10/2023 11:45:00 AM 3.88 38.984 0.19 8.66 1148 12.43
1/10/2023 12:00:00 PM 3.9 39.02 0.19 8.69 1154 12.53
1/10/2023 12:15:00 PM 3.94 39.092 0.19 8.7 1144 12.57
1/10/2023 12:30:00 PM 3.97 39.146 0.19 8.68 1161 12.6
1/10/2023 12:45:00 PM 4.02 39.236 0.19 8.7 1108 12.63
1/10/2023 1:00:00 PM 4.05 39.29 0.19 8.74 1172 12.59
1/10/2023 1:15:00 PM 4.09 39.362 0.19 8.65 1060 12.59
1/10/2023 1:30:00 PM 4.14 39.452 0.19 8.65 1206 12.52
1/10/2023 1:45:00 PM 4.21 39.578 0.19 8.65 1207 12.64
1/10/2023 2:00:00 PM 4.24 39.632 0.19 8.68 1251 12.65
1/10/2023 2:15:00 PM 4.27 39.686 0.19 8.69 1248 12.64
1/10/2023 2:30:00 PM 4.27 39.686 0.19 8.69 1261 12.63
1/10/2023 2:45:00 PM 4.3 39.74 0.19 8.7 1177 12.84
1/10/2023 3:00:00 PM 4.32 39.776 0.19 8.34 1123 12.87
1/10/2023 3:15:00 PM 4.35 39.83 0.19 8.68 1192 12.86
1/10/2023 3:30:00 PM 4.37 39.866 0.19 8.69 1116 12.85
1/10/2023 3:45:00 PM 4.38 39.884 0.19 8.64 1155 12.84
1/10/2023 4:00:00 PM 4.38 39.884 0.19 8.64 1206 12.86
1/10/2023 4:15:00 PM 4.38 39.884 0.19 8.67 1247 12.87
1/10/2023 4:30:00 PM 4.37 39.866 0.19 8.67 1150 12.91
1/10/2023 4:45:00 PM 4.36 39.848 0.19 8.72 1238 12.9
1/10/2023 5:00:00 PM 4.35 39.83 0.19 8.68 1248 12.88
1/10/2023 5:15:00 PM 4.33 39.794 0.19 8.66 1295 12.83
1/10/2023 5:30:00 PM 4.32 39.776 0.19 8.62 1272 12.74
1/10/2023 5:45:00 PM 4.3 39.74 0.19 8.63 1290 12.81
1/10/2023 6:00:00 PM 4.29 39.722 0.19 8.62 1218 12.82
1/10/2023 6:15:00 PM 4.28 39.704 0.19 8.65 1286 12.81
1/10/2023 6:30:00 PM 4.27 39.686 0.191 8.64 1274 12.79
1/10/2023 6:45:00 PM 4.27 39.686 0.191 8.65 1250 12.78
1/10/2023 7:00:00 PM 4.25 39.65 0.191 8.64 1281 12.64
1/10/2023 7:15:00 PM 4.25 39.65 0.191 8.64 1244 12.66
1/10/2023 7:30:00 PM 4.24 39.632 0.191 8.62 1217 12.69
1/10/2023 7:45:00 PM 4.23 39.614 0.191 8.6 1309 12.68
1/10/2023 8:00:00 PM 4.22 39.596 0.191 8.62 1278 12.71
1/10/2023 8:15:00 PM 4.22 39.596 0.191 8.6 1279 12.69
1/10/2023 8:30:00 PM 4.21 39.578 0.192 8.6 1253 12.68
1/10/2023 8:45:00 PM 4.21 39.578 0.192 8.59 1152 12.66
1/10/2023 9:00:00 PM 4.2 39.56 0.192 8.63 1283 12.64
1/10/2023 9:15:00 PM 4.19 39.542 0.192 8.62 1332 12.66
1/10/2023 9:30:00 PM 4.18 39.524 0.192 8.56 1314 12.64
1/10/2023 9:45:00 PM 4.17 39.506 0.192 8.6 1277 12.64
1/10/2023 10:00:00 PM 4.16 39.488 0.192 8.56 1304 12.64
1/10/2023 10:15:00 PM 4.16 39.488 0.192 8.66 0 12.61
1/10/2023 10:30:00 PM 4.15 39.47 0.192 8.69 0 12.61
1/10/2023 10:45:00 PM 4.15 39.47 0.192 8.67 0 12.58
1/10/2023 11:00:00 PM 4.14 39.452 0.192 8.69 0 12.57
1/10/2023 11:15:00 PM 4.13 39.434 0.192 8.65 -1557 12.56
1/10/2023 11:30:00 PM 4.12 39.416 0.192 8.64 -1556 12.55
1/10/2023 11:45:00 PM 4.09 39.362 0.192 8.65 581.6 12.54
1/11/2023 12:00:00 AM 4.07 39.326 0.192 8.63 0 12.43
1/11/2023 12:15:00 AM 4.05 39.29 0.192 8.65 0 12.49
1/11/2023 12:30:00 AM 4.02 39.236 0.192 8.63 0 12.54
1/11/2023 12:45:00 AM 4 39.2 0.192 8.58 0 12.53
1/11/2023 1:00:00 AM 3.98 39.164 0.192 8.61 0 12.51
1/11/2023 1:15:00 AM 3.95 39.11 0.192 8.55 1262 12.54
1/11/2023 1:30:00 AM 3.93 39.074 0.192 8.54 0 12.52
1/11/2023 1:45:00 AM 3.9 39.02 0.192 8.59 0 12.53
1/11/2023 2:00:00 AM 3.89 39.002 0.192 8.58 1258 12.54
1/11/2023 2:15:00 AM 3.87 38.966 0.192 8.49 1346 12.53
1/11/2023 2:30:00 AM 3.86 38.948 0.192 8.57 0 12.53
1/11/2023 2:45:00 AM 3.84 38.912 0.192 8.6 0 12.53
1/11/2023 3:00:00 AM 3.83 38.894 0.192 8.53 1241 12.53
1/11/2023 3:15:00 AM 3.82 38.876 0.192 8.55 1235 12.52
1/11/2023 3:30:00 AM 3.81 38.858 0.192 8.44 0 12.51
1/11/2023 3:45:00 AM 3.78 38.804 0.192 8.53 1262 12.51
1/11/2023 4:00:00 AM 3.76 38.768 0.192 8.54 1206 12.5
1/11/2023 4:15:00 AM 3.73 38.714 0.192 8.52 1220 12.5
1/11/2023 4:30:00 AM 3.7 38.66 0.192 8.56 1262 12.48
1/11/2023 4:45:00 AM 3.68 38.624 0.192 8.55 1278 12.49
1/11/2023 5:00:00 AM 3.66 38.588 0.192 8.48 1275 12.47
1/11/2023 5:15:00 AM 3.63 38.534 0.192 8.58 1367 12.49
1/11/2023 5:30:00 AM 3.61 38.498 0.192 8.55 0 12.47
1/11/2023 5:45:00 AM 3.58 38.444 0.192 8.49 0 12.48
1/11/2023 6:00:00 AM 3.55 38.39 0.192 8.53 1205 12.48
1/11/2023 6:15:00 AM 3.53 38.354 0.192 8.48 0 12.47
1/11/2023 6:30:00 AM 3.5 38.3 0.192 8.55 0 12.46
1/11/2023 6:45:00 AM 3.47 38.246 0.192 8.55 0 12.46
1/11/2023 7:00:00 AM 3.44 38.192 0.192 8.52 0 12.47
1/11/2023 7:15:00 AM 3.41 38.138 0.192 8.53 0 12.47
1/11/2023 7:30:00 AM 3.39 38.102 0.192 8.51 0 12.45
1/11/2023 7:45:00 AM 3.36 38.048 0.192 8.51 0 12.44
1/11/2023 8:00:00 AM 3.33 37.994 0.192 8.46 0 12.51
1/11/2023 8:15:00 AM 3.32 37.976 0.192 8.48 0 12.52
1/11/2023 8:30:00 AM 3.31 37.958 0.192 8.42 0 12.55
1/11/2023 8:45:00 AM 3.31 37.958 0.192 8.47 0 12.42
1/11/2023 9:00:00 AM 3.31 37.958 0.193 8.55 0 12.38
1/11/2023 9:15:00 AM 3.32 37.976 0.193 8.47 0 12.55
1/11/2023 9:30:00 AM 3.33 37.994 0.193 8.47 0 12.62
1/11/2023 9:45:00 AM 3.35 38.03 0.193 8.46 0 12.64
1/11/2023 10:00:00 AM 3.38 38.084 0.193 8.49 0 12.53
1/11/2023 10:15:00 AM 3.41 38.138 0.193 8.55 0 12.58
1/11/2023 10:30:00 AM 3.44 38.192 0.193 8.46 0 12.57
1/11/2023 10:45:00 AM 3.49 38.282 0.193 8.48 0 12.21
1/11/2023 11:00:00 AM 3.54 38.372 0.193 8.5 0 12.35
1/11/2023 11:15:00 AM 3.58 38.444 0.193 8.49 0 12.4
1/11/2023 11:30:00 AM 3.61 38.498 0.193 8.44 0 12.45
1/11/2023 11:45:00 AM 3.66 38.588 0.193 8.44 0 12.66
1/11/2023 12:00:00 PM 3.72 38.696 0.193 8.53 689.9 12.64
1/11/2023 12:15:00 PM 3.76 38.768 0.193 8.45 0 12.55
1/11/2023 12:30:00 PM 3.81 38.858 0.193 8.5 0 12.68
1/11/2023 12:45:00 PM 3.89 39.002 0.193 8.47 0 12.6
1/11/2023 1:00:00 PM 3.94 39.092 0.193 8.51 0 12.62
1/11/2023 1:15:00 PM 3.98 39.164 0.193 8.45 0 12.46
1/11/2023 1:30:00 PM 4 39.2 0.193 8.51 0 12.51
1/11/2023 1:45:00 PM 4.03 39.254 0.193 8.52 0 12.72
1/11/2023 2:00:00 PM 4.07 39.326 0.193 8.52 0 12.69
1/11/2023 2:15:00 PM 4.1 39.38 0.193 8.53 0 12.86
1/11/2023 2:30:00 PM 4.12 39.416 0.193 8.54 0 12.81
1/11/2023 2:45:00 PM 4.13 39.434 0.193 8.48 0 12.8
1/11/2023 3:00:00 PM 4.15 39.47 0.193 8.54 0 12.82
1/11/2023 3:15:00 PM 4.16 39.488 0.193 8.5 0 12.84
1/11/2023 3:30:00 PM 4.19 39.542 0.193 8.55 0 12.88
1/11/2023 3:45:00 PM 4.19 39.542 0.193 8.53 0 12.87
1/11/2023 4:00:00 PM 4.18 39.524 0.193 8.52 0 12.89
1/11/2023 4:15:00 PM 4.19 39.542 0.193 8.56 0 12.77
1/11/2023 4:30:00 PM 4.19 39.542 0.193 8.55 0 12.89
1/11/2023 4:45:00 PM 4.19 39.542 0.193 8.51 0 12.77
1/11/2023 5:00:00 PM 4.2 39.56 0.193 8.54 0 12.73
1/11/2023 5:15:00 PM 4.2 39.56 0.193 8.5 0 12.68
1/11/2023 5:30:00 PM 4.2 39.56 0.193 8.53 0 12.72
1/11/2023 5:45:00 PM 4.2 39.56 0.193 8.52 0 12.62
1/11/2023 6:00:00 PM 4.2 39.56 0.192 8.54 0 12.6
1/11/2023 6:15:00 PM 4.2 39.56 0.192 8.54 0 12.58
1/11/2023 6:30:00 PM 4.2 39.56 0.192 8.49 0 12.56
1/11/2023 6:45:00 PM 4.19 39.542 0.192 8.5 0 12.49
1/11/2023 7:00:00 PM 4.18 39.524 0.192 8.53 0 12.64
1/11/2023 7:15:00 PM 4.16 39.488 0.192 8.52 0 12.67
1/11/2023 7:30:00 PM 4.15 39.47 0.193 8.53 0 12.66
1/11/2023 7:45:00 PM 4.16 39.488 0.193 8.49 0 12.57
1/11/2023 8:00:00 PM 4.15 39.47 0.193 8.51 0 12.33
1/11/2023 8:15:00 PM 4.14 39.452 0.193 8.51 0 12.19
1/11/2023 8:30:00 PM 4.14 39.452 0.193 8.56 0 12.35
1/11/2023 8:45:00 PM 4.14 39.452 0.193 8.53 0 12.4
1/11/2023 9:00:00 PM 4.12 39.416 0.193 8.45 0 12.39
1/11/2023 9:15:00 PM 4.13 39.434 0.193 8.46 0 12.36
1/11/2023 9:30:00 PM 4.12 39.416 0.193 8.46 0 12.46
1/11/2023 9:45:00 PM 4.12 39.416 0.193 8.52 0 12.36
1/11/2023 10:00:00 PM 4.12 39.416 0.192 8.5 0 12.34
1/11/2023 10:15:00 PM 4.12 39.416 0.193 8.53 0 12.28
1/11/2023 10:30:00 PM 4.13 39.434 0.193 8.45 0 12.24
1/11/2023 10:45:00 PM 4.13 39.434 0.193 8.5 0 12.24
1/11/2023 11:00:00 PM 4.12 39.416 0.193 8.51 0 12.5
1/11/2023 11:15:00 PM 4.12 39.416 0.193 8.52 0 12.47
1/11/2023 11:30:00 PM 4.12 39.416 0.193 8.48 0 12.39
1/11/2023 11:45:00 PM 4.13 39.434 0.193 8.48 0 12.29
1/12/2023 12:00:00 AM 4.12 39.416 0.193 8.48 0 12.27
1/12/2023 12:15:00 AM 4.12 39.416 0.193 8.5 0 12.31
1/12/2023 12:30:00 AM 4.13 39.434 0.193 8.5 0 12.41
1/12/2023 12:45:00 AM 4.13 39.434 0.193 8.45 0 12.35
1/12/2023 1:00:00 AM 4.13 39.434 0.193 8.49 0 12.29
1/12/2023 1:15:00 AM 4.13 39.434 0.193 8.5 0 12.42
1/12/2023 1:30:00 AM 4.13 39.434 0.193 8.48 0 12.4
1/12/2023 1:45:00 AM 4.13 39.434 0.193 8.46 0 12.4
1/12/2023 2:00:00 AM 4.14 39.452 0.193 8.45 0 12.38
1/12/2023 2:15:00 AM 4.13 39.434 0.193 8.41 0 12.3
1/12/2023 2:30:00 AM 4.13 39.434 0.193 8.42 0 12.3
1/12/2023 2:45:00 AM 4.11 39.398 0.193 8.45 0 12.35
1/12/2023 3:00:00 AM 4.1 39.38 0.193 8.5 0 12.38
1/12/2023 3:15:00 AM 4.1 39.38 0.193 8.46 0 12.36
1/12/2023 3:30:00 AM 4.1 39.38 0.193 8.43 0 12.39
1/12/2023 3:45:00 AM 4.1 39.38 0.193 8.47 0 12.29
1/12/2023 4:00:00 AM 4.1 39.38 0.193 8.5 0 12.24
1/12/2023 4:15:00 AM 4.1 39.38 0.193 8.46 0 12.21
1/12/2023 4:30:00 AM 4.09 39.362 0.193 8.5 0 12.16
1/12/2023 4:45:00 AM 4.09 39.362 0.193 8.48 0 12.18
1/12/2023 5:00:00 AM 4.08 39.344 0.193 8.48 0 12.1
1/12/2023 5:15:00 AM 4.08 39.344 0.192 8.47 0 12.17
1/12/2023 5:30:00 AM 4.07 39.326 0.193 8.46 0 12.09
1/12/2023 5:45:00 AM 4.07 39.326 0.193 8.46 0 12.16
1/12/2023 6:00:00 AM 4.06 39.308 0.193 8.48 0 12.22
1/12/2023 6:15:00 AM 4.06 39.308 0.193 8.45 0 12.23
1/12/2023 6:30:00 AM 4.06 39.308 0.193 8.44 0 12.21
1/12/2023 6:45:00 AM 4.05 39.29 0.193 8.44 0 12.14
1/12/2023 7:00:00 AM 4.04 39.272 0.193 8.44 0 12.07
1/12/2023 7:15:00 AM 4.04 39.272 0.193 8.45 0 12.21
1/12/2023 7:30:00 AM 4.03 39.254 0.193 8.43 0 12.18
1/12/2023 7:45:00 AM 4.03 39.254 0.193 8.47 0 12.04
1/12/2023 8:00:00 AM 4.03 39.254 0.193 8.47 0 12.12
1/12/2023 8:15:00 AM 4.03 39.254 0.193 8.45 0 12.18
1/12/2023 8:30:00 AM 4.03 39.254 0.193 8.43 0 12.19
1/12/2023 8:45:00 AM 4.03 39.254 0.194 8.38 0 12.27
1/12/2023 9:00:00 AM 4.03 39.254 0.194 8.48 0 12.28
1/12/2023 9:15:00 AM 4.04 39.272 0.194 8.44 0 12.32
1/12/2023 9:30:00 AM 4.04 39.272 0.194 8.44 0 12.35
1/12/2023 9:45:00 AM 4.05 39.29 0.194 8.47 0 12.35
1/12/2023 10:00:00 AM 4.06 39.308 0.194 8.46 0 12.36
1/12/2023 10:15:00 AM 4.07 39.326 0.194 8.46 0 12.33
1/12/2023 10:30:00 AM 4.08 39.344 0.194 8.45 0 12.33
1/12/2023 10:45:00 AM 4.09 39.362 0.194 8.46 0 12.33
1/12/2023 11:00:00 AM 4.11 39.398 0.194 8.46 0 12.35
1/12/2023 11:15:00 AM 4.12 39.416 0.194 8.42 0 12.37
1/12/2023 11:30:00 AM 4.14 39.452 0.194 8.47 0 12.4
1/12/2023 11:45:00 AM 4.16 39.488 0.194 8.4 0 12.4
1/12/2023 12:00:00 PM 4.18 39.524 0.194 8.42 0 12.11
1/12/2023 12:15:00 PM 4.2 39.56 0.194 8.43 0 12.24
1/12/2023 12:30:00 PM 4.21 39.578 0.194 8.44 0 12.32
1/12/2023 12:45:00 PM 4.23 39.614 0.194 8.44 0 12.38
1/12/2023 1:00:00 PM 4.26 39.668 0.194 8.41 0 12.42
1/12/2023 1:15:00 PM 4.27 39.686 0.195 8.48 0 12.4
1/12/2023 1:30:00 PM 4.3 39.74 0.195 8.48 0 12.42
1/12/2023 1:45:00 PM 4.32 39.776 0.195 8.48 0 12.44
1/12/2023 2:00:00 PM 4.33 39.794 0.195 8.48 0 12.34
1/12/2023 2:15:00 PM 4.35 39.83 0.195 8.47 0 12.39
1/12/2023 2:30:00 PM 4.37 39.866 0.195 8.41 0 12.28
1/12/2023 2:45:00 PM 4.39 39.902 0.195 8.43 0 12.18
1/12/2023 3:00:00 PM 4.41 39.938 0.195 8.49 0 12.27
1/12/2023 3:15:00 PM 4.43 39.974 0.195 8.44 0 11.91
1/12/2023 3:30:00 PM 4.44 39.992 0.195 8.49 0 12.32
1/12/2023 3:45:00 PM 4.46 40.028 0.195 8.47 0 12.38
1/12/2023 4:00:00 PM 4.47 40.046 0.195 8.45 0 12.31
1/12/2023 4:15:00 PM 4.49 40.082 0.196 8.43 0 12.27
1/12/2023 4:30:00 PM 4.49 40.082 0.196 8.43 0 12.16
1/12/2023 4:45:00 PM 4.5 40.1 0.196 8.48 0 12.41
1/12/2023 5:00:00 PM 4.51 40.118 0.196 8.44 0 12.36
1/12/2023 5:15:00 PM 4.52 40.136 0.196 8.45 0 12.34
1/12/2023 5:30:00 PM 4.53 40.154 0.196 8.42 0 12.35
1/12/2023 5:45:00 PM 4.54 40.172 0.196 8.46 0 12.17
1/12/2023 6:00:00 PM 4.55 40.19 0.196 8.46 0 12.2
1/12/2023 6:15:00 PM 4.57 40.226 0.195 8.47 0 12.22
1/12/2023 6:30:00 PM 4.57 40.226 0.195 8.46 0 12.31
1/12/2023 6:45:00 PM 4.58 40.244 0.195 8.45 0 12.32
1/12/2023 7:00:00 PM 4.59 40.262 0.195 8.43 0 12.29
1/12/2023 7:15:00 PM 4.6 40.28 0.195 8.44 0 12.3
1/12/2023 7:30:00 PM 4.6 40.28 0.196 8.47 0 12.29
1/12/2023 7:45:00 PM 4.62 40.316 0.196 8.49 0 12.27
1/12/2023 8:00:00 PM 4.64 40.352 0.196 8.48 0 12.26
1/12/2023 8:15:00 PM 4.65 40.37 0.196 8.44 0 12.25
1/12/2023 8:30:00 PM 4.65 40.37 0.196 8.51 0 12.24
1/12/2023 8:45:00 PM 4.67 40.406 0.196 8.51 0 12.22
1/12/2023 9:00:00 PM 4.69 40.442 0.196 8.45 0 12.19
1/12/2023 9:15:00 PM 4.7 40.46 0.196 8.18 0 12.2
1/12/2023 9:30:00 PM 4.71 40.478 0.196 8.47 0 12.2
1/12/2023 9:45:00 PM 4.72 40.496 0.196 8.5 0 12.14
1/12/2023 10:00:00 PM 4.73 40.514 0.196 8.45 0 12.15
1/12/2023 10:15:00 PM 4.75 40.55 0.196 8.52 0 12.15
1/12/2023 10:30:00 PM 4.76 40.568 0.196 8.52 0 12.16
1/12/2023 10:45:00 PM 4.77 40.586 0.196 8.49 0 12.07
1/12/2023 11:00:00 PM 4.79 40.622 0.196 8.54 0 12.07
1/12/2023 11:15:00 PM 4.8 40.64 0.196 8.54 0 12.07
1/12/2023 11:30:00 PM 4.82 40.676 0.196 8.49 0 12.08
1/12/2023 11:45:00 PM 4.84 40.712 0.197 8.44 0 12.09
1/13/2023 12:00:00 AM 4.86 40.748 0.197 8.47 0 12.07
1/13/2023 12:15:00 AM 4.88 40.784 0.197 8.49 0 12.03
1/13/2023 12:30:00 AM 4.89 40.802 0.197 8.44 0 12.04
1/13/2023 12:45:00 AM 4.92 40.856 0.197 8.48 0 12.03
1/13/2023 1:00:00 AM 4.95 40.91 0.197 8.47 0 12.03
1/13/2023 1:15:00 AM 4.96 40.928 0.197 8.46 0 12
1/13/2023 1:30:00 AM 4.98 40.964 0.198 8.45 0 12
1/13/2023 1:45:00 AM 5.01 41.018 0.198 8.48 0 11.98
1/13/2023 2:00:00 AM 5.04 41.072 0.198 8.45 0 11.9
1/13/2023 2:15:00 AM 5.05 41.09 0.198 8.46 0 11.93
1/13/2023 2:30:00 AM 5.1 41.18 0.198 8.45 0 11.9
1/13/2023 2:45:00 AM 5.11 41.198 0.198 8.49 0 11.9
1/13/2023 3:00:00 AM 5.13 41.234 0.198 8.44 0 11.88
1/13/2023 3:15:00 AM 5.14 41.252 0.197 8.41 0 11.84
1/13/2023 3:30:00 AM 5.19 41.342 0.197 8.45 0 11.81
1/13/2023 3:45:00 AM 5.21 41.378 0.196 8.45 0 11.73
1/13/2023 4:00:00 AM 5.24 41.432 0.196 8.44 0 11.78
1/13/2023 4:15:00 AM 5.24 41.432 0.196 8.47 0 11.56
1/13/2023 4:30:00 AM 5.25 41.45 0.196 8.44 0 11.46
1/13/2023 4:45:00 AM 5.27 41.486 0.195 8.46 0 11.31
1/13/2023 5:00:00 AM 5.29 41.522 0.195 8.46 0 11.41
1/13/2023 5:15:00 AM 5.31 41.558 0.195 8.45 0 11.39
1/13/2023 5:30:00 AM 5.32 41.576 0.195 8.49 0 11.48
1/13/2023 5:45:00 AM 5.34 41.612 0.195 8.46 0 11.62
1/13/2023 6:00:00 AM 5.38 41.684 0.195 8.46 0 11.57
1/13/2023 6:15:00 AM 5.38 41.684 0.195 8.51 0 11.62
1/13/2023 6:30:00 AM 5.41 41.738 0.194 8.55 0 11.6
1/13/2023 6:45:00 AM 5.44 41.792 0.194 8.43 0 11.6
1/13/2023 7:00:00 AM 5.44 41.792 0.194 8.44 0 11.59
1/13/2023 7:15:00 AM 5.46 41.828 0.194 8.5 0 11.59
1/13/2023 7:30:00 AM 5.46 41.828 0.193 8.46 0 11.56
1/13/2023 7:45:00 AM 5.46 41.828 0.193 8.45 0 11.42
1/13/2023 8:00:00 AM 5.45 41.81 0.193 8.44 0 11.14
1/13/2023 8:15:00 AM 5.49 41.882 0.193 8.49 0 11.54
1/13/2023 8:30:00 AM 5.49 41.882 0.194 8.49 0 11.57
1/13/2023 8:45:00 AM 5.48 41.864 0.194 8.47 0 11.56
1/13/2023 9:00:00 AM 5.49 41.882 0.194 8.49 0 11.39
1/13/2023 9:15:00 AM 5.49 41.882 0.194 8.45 0 11.48
1/13/2023 9:30:00 AM 5.48 41.864 0.195 8.51 0 11.57
1/13/2023 9:45:00 AM 5.5 41.9 0.195 8.51 0 11.51
1/13/2023 10:00:00 AM 5.54 41.972 0.195 8.52 0 11.52
1/13/2023 10:15:00 AM 5.55 41.99 0.195 8.49 0 11.67
1/13/2023 10:30:00 AM 5.57 42.026 0.196 8.52 0 11.67
1/13/2023 10:45:00 AM 5.59 42.062 0.196 8.52 0 11.67
1/13/2023 11:00:00 AM 5.62 42.116 0.196 8.54 0 11.69
1/13/2023 11:15:00 AM 5.65 42.17 0.196 8.52 0 11.72
1/13/2023 11:30:00 AM 5.67 42.206 0.197 8.49 0 11.74
1/13/2023 11:45:00 AM 5.68 42.224 0.197 8.48 0 11.73
1/13/2023 12:00:00 PM 5.71 42.278 0.197 8.5 0 11.8
1/13/2023 12:15:00 PM 5.73 42.314 0.197 8.5 0 11.84
1/13/2023 12:30:00 PM 5.75 42.35 0.197 8.52 0 11.84
1/13/2023 12:45:00 PM 5.76 42.368 0.197 8.47 0 11.87
1/13/2023 1:00:00 PM 5.77 42.386 0.198 8.52 0 11.87
1/13/2023 1:15:00 PM 5.78 42.404 0.197 8.54 0 11.89
1/13/2023 1:30:00 PM 5.79 42.422 0.198 8.48 0 11.89
1/13/2023 1:45:00 PM 5.8 42.44 0.198 8.52 0 11.94
1/13/2023 2:00:00 PM 5.8 42.44 0.198 8.52 0 11.89
1/13/2023 2:15:00 PM 5.82 42.476 0.198 8.52 0 11.91
1/13/2023 2:30:00 PM 5.82 42.476 0.198 8.54 0 11.91
1/13/2023 2:45:00 PM 5.83 42.494 0.198 8.52 0 11.91
1/13/2023 3:00:00 PM 5.83 42.494 0.199 8.51 0 11.65
1/13/2023 3:15:00 PM 5.83 42.494 0.199 8.57 0 11.64
1/13/2023 3:30:00 PM 5.83 42.494 0.199 8.52 0 11.59
1/13/2023 3:45:00 PM 5.84 42.512 0.2 8.56 0 11.59
1/13/2023 4:00:00 PM 5.84 42.512 0.2 8.61 0 11.39
1/13/2023 4:15:00 PM 5.83 42.494 0.201 8.61 0 11.55
1/13/2023 4:30:00 PM 5.83 42.494 0.201 8.64 0 11.71
1/13/2023 4:45:00 PM 5.82 42.476 0.202 8.57 0 11.73
1/13/2023 5:00:00 PM 5.82 42.476 0.203 8.53 0 11.83
1/13/2023 5:15:00 PM 5.82 42.476 0.203 8.54 0 11.85
1/13/2023 5:30:00 PM 5.81 42.458 0.204 8.51 0 11.84
1/13/2023 5:45:00 PM 5.8 42.44 0.205 8.56 0 11.81
1/13/2023 6:00:00 PM 5.79 42.422 0.205 8.53 0 11.78
1/13/2023 6:15:00 PM 5.79 42.422 0.206 8.58 0 11.8
1/13/2023 6:30:00 PM 5.79 42.422 0.206 8.56 0 11.72
1/13/2023 6:45:00 PM 5.79 42.422 0.206 8.5 0 11.81
1/13/2023 7:00:00 PM 5.78 42.404 0.207 8.56 0 11.79
1/13/2023 7:15:00 PM 5.77 42.386 0.207 8.56 0 11.77
1/13/2023 7:30:00 PM 5.77 42.386 0.208 8.55 0 11.71
1/13/2023 7:45:00 PM 5.77 42.386 0.208 8.58 0 11.73
1/13/2023 8:00:00 PM 5.76 42.368 0.208 8.57 0 11.69
1/13/2023 8:15:00 PM 5.76 42.368 0.208 8.59 0 11.7
1/13/2023 8:30:00 PM 5.75 42.35 0.209 8.55 0 11.71
1/13/2023 8:45:00 PM 5.75 42.35 0.208 8.59 0 11.7
1/13/2023 9:00:00 PM 5.74 42.332 0.208 8.54 0 11.66
1/13/2023 9:15:00 PM 5.74 42.332 0.208 8 0 11.65
1/13/2023 9:30:00 PM 5.73 42.314 0.207 8.6 0 11.61
1/13/2023 9:45:00 PM 5.72 42.296 0.207 8.6 0 11.62
1/13/2023 10:00:00 PM 5.71 42.278 0.206 8.56 0 11.63
1/13/2023 10:15:00 PM 5.69 42.242 0.206 8.6 0 11.59
1/13/2023 10:30:00 PM 5.66 42.188 0.205 8.64 0 11.6
1/13/2023 10:45:00 PM 5.64 42.152 0.204 8.64 0 11.61
1/13/2023 11:00:00 PM 5.62 42.116 0.203 8.66 0 11.63
1/13/2023 11:15:00 PM 5.6 42.08 0.203 8.64 0 11.64
1/13/2023 11:30:00 PM 5.58 42.044 0.202 8.59 0 11.61
1/13/2023 11:45:00 PM 5.56 42.008 0.201 8.59 0 11.65
1/14/2023 12:00:00 AM 5.54 41.972 0.201 8.61 0 11.64
1/14/2023 12:15:00 AM 5.51 41.918 0.2 8.59 0 11.59
1/14/2023 12:30:00 AM 5.49 41.882 0.199 8.59 0 11.63
1/14/2023 12:45:00 AM 5.46 41.828 0.198 8.63 0 11.64
1/14/2023 1:00:00 AM 5.44 41.792 0.198 8.62 0 11.63
1/14/2023 1:15:00 AM 5.42 41.756 0.197 8.65 0 11.65
1/14/2023 1:30:00 AM 5.39 41.702 0.196 8.65 0 11.64
1/14/2023 1:45:00 AM 5.36 41.648 0.196 8.65 0 11.64
1/14/2023 2:00:00 AM 5.34 41.612 0.195 8.63 0 11.62
1/14/2023 2:15:00 AM 5.31 41.558 0.195 8.59 0 11.64
1/14/2023 2:30:00 AM 5.28 41.504 0.194 8.67 0 11.63
1/14/2023 2:45:00 AM 5.26 41.468 0.193 8.64 0 11.62
1/14/2023 3:00:00 AM 5.24 41.432 0.193 8.59 0 11.5
1/14/2023 3:15:00 AM 5.21 41.378 0.192 8.58 0 11.5
1/14/2023 3:30:00 AM 5.17 41.306 0.192 8.57 0 11.52
1/14/2023 3:45:00 AM 5.15 41.27 0.191 8.77 0 11.57
1/14/2023 4:00:00 AM 5.12 41.216 0.191 8.64 0 11.53
1/14/2023 4:15:00 AM 5.09 41.162 0.19 8.61 0 11.55
1/14/2023 4:30:00 AM 5.06 41.108 0.19 8.56 0 11.52
1/14/2023 4:45:00 AM 5.04 41.072 0.19 8.58 0 11.6
1/14/2023 5:00:00 AM 5.01 41.018 0.189 8.58 0 11.59
1/14/2023 5:15:00 AM 4.97 40.946 0.189 8.52 0 11.61
1/14/2023 5:30:00 AM 4.95 40.91 0.188 8.58 0 11.62
1/14/2023 5:45:00 AM 4.91 40.838 0.188 8.57 0 11.62
1/14/2023 6:00:00 AM 4.88 40.784 0.188 8.6 0 11.64
1/14/2023 6:15:00 AM 4.86 40.748 0.188 8.58 0 11.63
1/14/2023 6:30:00 AM 4.82 40.676 0.187 8.57 0 11.62
1/14/2023 6:45:00 AM 4.8 40.64 0.187 8.63 0 11.6
1/14/2023 7:00:00 AM 4.76 40.568 0.187 8.56 0 11.64
1/14/2023 7:15:00 AM 4.74 40.532 0.187 8.54 0 11.65
1/14/2023 7:30:00 AM 4.72 40.496 0.187 8.6 0 11.67
1/14/2023 7:45:00 AM 4.69 40.442 0.187 8.65 0 11.67
1/14/2023 8:00:00 AM 4.65 40.37 0.187 8.58 0 11.7
1/14/2023 8:15:00 AM 4.62 40.316 0.186 8.62 0 11.71
1/14/2023 8:30:00 AM 4.61 40.298 0.186 8.58 0 11.72
1/14/2023 8:45:00 AM 4.57 40.226 0.186 8.55 0 11.75
1/14/2023 9:00:00 AM 4.55 40.19 0.186 8.56 0 11.74
1/14/2023 9:15:00 AM 4.55 40.19 0.186 8.58 0 11.78
1/14/2023 9:30:00 AM 4.5 40.1 0.186 8.61 0 11.8
1/14/2023 9:45:00 AM 4.49 40.082 0.186 8.61 0 11.82
1/14/2023 10:00:00 AM 4.47 40.046 0.186 8.56 0 11.83
1/14/2023 10:15:00 AM 4.45 40.01 0.185 8.6 0 11.84
1/14/2023 10:30:00 AM 4.43 39.974 0.185 8.59 0 11.9
1/14/2023 10:45:00 AM 4.41 39.938 0.185 8.58 0 11.91
1/14/2023 11:00:00 AM 4.39 39.902 0.185 8.63 0 11.92
1/14/2023 11:15:00 AM 4.38 39.884 0.185 8.64 0 11.94
1/14/2023 11:30:00 AM 4.37 39.866 0.185 8.6 0 11.98
1/14/2023 11:45:00 AM 4.36 39.848 0.185 8.68 0 12.01
1/14/2023 12:00:00 PM 4.33 39.794 0.185 8.7 0 12.02
1/14/2023 12:15:00 PM 4.31 39.758 0.185 8.65 0 12.08
1/14/2023 12:30:00 PM 4.31 39.758 0.185 8.61 0 12.11
1/14/2023 12:45:00 PM 4.31 39.758 0.185 8.68 0 12.15
1/14/2023 1:00:00 PM 4.32 39.776 0.184 8.65 0 12.17
1/14/2023 1:15:00 PM 4.33 39.794 0.184 8.64 0 12.21
1/14/2023 1:30:00 PM 4.33 39.794 0.184 8.65 0 12.24
1/14/2023 1:45:00 PM 4.34 39.812 0.184 8.71 0 12.28
1/14/2023 2:00:00 PM 4.33 39.794 0.184 8.73 0 12.32
1/14/2023 2:15:00 PM 4.31 39.758 0.184 8.77 0 12.35
1/14/2023 2:30:00 PM 4.31 39.758 0.184 8.82 0 12.35
1/14/2023 2:45:00 PM 4.29 39.722 0.184 8.83 0 12.38
1/14/2023 3:00:00 PM 4.26 39.668 0.184 8.94 0 12.4
1/14/2023 3:15:00 PM 4.26 39.668 0.184 8.85 0 12.47
1/14/2023 3:30:00 PM 4.24 39.632 0.184 8.87 0 12.47
1/14/2023 3:45:00 PM 4.22 39.596 0.184 8.87 0 12.49
1/14/2023 4:00:00 PM 4.19 39.542 0.184 8.86 0 12.51
1/14/2023 4:15:00 PM 4.17 39.506 0.184 8.88 0 12.54
1/14/2023 4:30:00 PM 4.14 39.452 0.184 8.69 0 12.42
1/14/2023 4:45:00 PM 4.1 39.38 0.184 8.88 0 12.41
1/14/2023 5:00:00 PM 4.08 39.344 0.184 8.88 0 12.52
1/14/2023 5:15:00 PM 4.04 39.272 0.184 8.83 0 12.59
1/14/2023 5:30:00 PM 4.01 39.218 0.184 9.16 0 12.46
1/14/2023 5:45:00 PM 3.97 39.146 0.184 9.17 0 12.54
1/14/2023 6:00:00 PM 3.95 39.11 0.184 9.15 0 12.54
1/14/2023 6:15:00 PM 3.91 39.038 0.184 9.05 0 12.48
1/14/2023 6:30:00 PM 3.89 39.002 0.184 9 0 12.54
1/14/2023 6:45:00 PM 3.85 38.93 0.184 8.95 0 12.54
1/14/2023 7:00:00 PM 3.81 38.858 0.184 8.96 0 12.54
1/14/2023 7:15:00 PM 3.78 38.804 0.184 9.04 0 12.44
1/14/2023 7:30:00 PM 3.75 38.75 0.184 9.02 0 12.44
1/14/2023 7:45:00 PM 3.71 38.678 0.184 8.96 0 12.4
1/14/2023 8:00:00 PM 3.69 38.642 0.184 8.9 0 12.37
1/14/2023 8:15:00 PM 3.67 38.606 0.184 8.95 0 12.57
1/14/2023 8:30:00 PM 3.63 38.534 0.184 8.97 0 12.58
1/14/2023 8:45:00 PM 3.61 38.498 0.184 8.91 0 12.61
1/14/2023 9:00:00 PM 3.57 38.426 0.184 9.02 0 12.61
1/14/2023 9:15:00 PM 3.53 38.354 0.184 8.86 0 12.62
1/14/2023 9:30:00 PM 3.51 38.318 0.184 8.9 0 12.59
1/14/2023 9:45:00 PM 3.48 38.264 0.184 8.79 0 12.61
1/14/2023 10:00:00 PM 3.43 38.174 0.184 8.16 0 12.65
1/14/2023 10:15:00 PM 3.4 38.12 0.184 8.79 0 12.62
1/14/2023 10:30:00 PM 3.38 38.084 0.185 8.71 0 12.54
1/14/2023 10:45:00 PM 3.33 37.994 0.185 8.66 0 12.44
1/14/2023 11:00:00 PM 3.29 37.922 0.185 8.71 0 12.38
1/14/2023 11:15:00 PM 3.26 37.868 0.185 8.71 0 12.19
1/14/2023 11:30:00 PM 3.23 37.814 0.185 8.76 0 12.09
1/14/2023 11:45:00 PM 3.21 37.778 0.185 9.15 0 12.1
1/15/2023 12:00:00 AM 3.19 37.742 0.185 8.96 0 12.15
1/15/2023 12:15:00 AM 3.14 37.652 0.186 8.82 0 11.96
1/15/2023 12:30:00 AM 3.1 37.58 0.186 8.46 0 12.05
1/15/2023 12:45:00 AM 3.05 37.49 0.186 8.72 0 12.07
1/15/2023 1:00:00 AM 3 37.4 0.186 8.76 0 12.13
1/15/2023 1:15:00 AM 3.11 37.598 0.185 8.63 0 12.15
1/15/2023 1:30:00 AM 2.92 37.256 0.186 8.63 0 12.24
1/15/2023 1:45:00 AM 2.88 37.184 0.186 8.54 0 12.25
1/15/2023 2:00:00 AM 2.84 37.112 0.186 8.64 0 12.2
1/15/2023 2:15:00 AM 2.8 37.04 0.187 8.62 0 12.08
1/15/2023 2:30:00 AM 2.77 36.986 0.187 8.58 0 12.36
1/15/2023 2:45:00 AM 2.84 37.112 0.186 8.61 0 12.42
1/15/2023 3:00:00 AM 2.7 36.86 0.187 8.61 0 12.46
1/15/2023 3:15:00 AM 2.67 36.806 0.187 8.61 0 12.39
1/15/2023 3:30:00 AM 2.63 36.734 0.187 8.62 0 12.88
1/15/2023 3:45:00 AM 2.6 36.68 0.187 8.61 0 12.89
1/15/2023 4:00:00 AM 2.56 36.608 0.187 8.6 0 12.89
1/15/2023 4:15:00 AM 2.51 36.518 0.187 8.53 0 12.91
1/15/2023 4:30:00 AM 2.49 36.482 0.187 8.53 0 12.91
1/15/2023 4:45:00 AM 2.45 36.41 0.187 8.55 0 12.92
1/15/2023 5:00:00 AM 2.43 36.374 0.187 8.54 0 12.92
1/15/2023 5:15:00 AM 2.39 36.302 0.187 8.52 0 12.93
1/15/2023 5:30:00 AM 2.37 36.266 0.187 8.51 0 12.93
1/15/2023 5:45:00 AM 2.32 36.176 0.187 8.51 0 12.95
1/15/2023 6:00:00 AM 2.29 36.122 0.188 8.47 0 12.87
1/15/2023 6:15:00 AM 2.26 36.068 0.188 8.45 0 12.93
1/15/2023 6:30:00 AM 2.24 36.032 0.188 8.43 0 12.96
1/15/2023 6:45:00 AM 2.2 35.96 0.188 8.45 0 12.97
1/15/2023 7:00:00 AM 2.16 35.888 0.188 8.42 0 12.97
1/15/2023 7:15:00 AM 2.13 35.834 0.188 8.41 0 12.95
1/15/2023 7:30:00 AM 2.09 35.762 0.188 8.42 0 12.97
1/15/2023 7:45:00 AM 2.07 35.726 0.188 8.39 686 12.88
1/15/2023 8:00:00 AM 2.04 35.672 0.188 8.37 0 12.94
1/15/2023 8:15:00 AM 2.01 35.618 0.188 8.4 0 13
1/15/2023 8:30:00 AM 1.98 35.564 0.188 8.42 1548 13.03
1/15/2023 8:45:00 AM 1.95 35.51 0.188 8.45 0 13.02
1/15/2023 9:00:00 AM 1.94 35.492 0.188 8.43 0 13.03
1/15/2023 9:15:00 AM 1.93 35.474 0.188 8.42 0 13.03
1/15/2023 9:30:00 AM 1.94 35.492 0.188 8.44 0 13.08
1/15/2023 9:45:00 AM 1.95 35.51 0.189 8.36 0 13.07
1/15/2023 10:00:00 AM 1.96 35.528 0.189 8.39 0 13.1
1/15/2023 10:15:00 AM 1.99 35.582 0.189 8.41 0 13.13
1/15/2023 10:30:00 AM 2.11 35.798 0.188 8.38 0 13.15
1/15/2023 10:45:00 AM 2.03 35.654 0.189 8.42 0 13.25
1/15/2023 11:00:00 AM 2.05 35.69 0.189 8.48 0 13.27
1/15/2023 11:15:00 AM 2.09 35.762 0.189 8.39 0 13.27
1/15/2023 11:30:00 AM 2.12 35.816 0.189 8.39 0 13.31
1/15/2023 11:45:00 AM 2.17 35.906 0.189 8.4 0 13.32
1/15/2023 12:00:00 PM 2.2 35.96 0.189 8.4 0 13.38
1/15/2023 12:15:00 PM 2.26 36.068 0.189 8.41 0 13.41
1/15/2023 12:30:00 PM 2.3 36.14 0.189 8.38 0 13.44
1/15/2023 12:45:00 PM 2.36 36.248 0.189 8.4 0 13.49
1/15/2023 1:00:00 PM 2.41 36.338 0.189 8.43 0 13.52
1/15/2023 1:15:00 PM 2.47 36.446 0.189 8.45 0 13.54
1/15/2023 1:30:00 PM 2.52 36.536 0.189 8.44 0 13.58
1/15/2023 1:45:00 PM 2.56 36.608 0.189 8.44 0 13.59
1/15/2023 2:00:00 PM 2.61 36.698 0.189 8.42 0 13.61
1/15/2023 2:15:00 PM 2.65 36.77 0.189 8.38 0 13.63
1/15/2023 2:30:00 PM 2.67 36.806 0.189 8.36 0 13.65
1/15/2023 2:45:00 PM 2.69 36.842 0.189 8.4 0 13.66
1/15/2023 3:00:00 PM 2.7 36.86 0.189 8.42 0 13.69
1/15/2023 3:15:00 PM 2.69 36.842 0.189 8.41 0 13.69
1/15/2023 3:30:00 PM 2.67 36.806 0.189 8.41 0 13.7
1/15/2023 3:45:00 PM 2.65 36.77 0.189 8.44 0 13.7
1/15/2023 4:00:00 PM 2.63 36.734 0.189 8.4 0 13.71
1/15/2023 4:15:00 PM 2.6 36.68 0.189 8.39 0 13.69
1/15/2023 4:30:00 PM 2.57 36.626 0.189 8.44 0 13.71
1/15/2023 4:45:00 PM 2.54 36.572 0.189 8.39 0 13.7
1/15/2023 5:00:00 PM 2.52 36.536 0.189 8.4 0 13.7
1/15/2023 5:15:00 PM 2.49 36.482 0.189 8.36 0 13.7
1/15/2023 5:30:00 PM 2.46 36.428 0.189 8.41 0 13.69
1/15/2023 5:45:00 PM 2.44 36.392 0.189 8.38 0 13.68
1/15/2023 6:00:00 PM 2.42 36.356 0.189 8.41 0 13.65
1/15/2023 6:15:00 PM 2.4 36.32 0.189 8.41 0 13.64
1/15/2023 6:30:00 PM 2.38 36.284 0.189 8.43 0 13.63
1/15/2023 6:45:00 PM 2.36 36.248 0.189 8.42 0 13.62
1/15/2023 7:00:00 PM 2.34 36.212 0.189 8.42 0 13.61
1/15/2023 7:15:00 PM 2.31 36.158 0.188 8.41 0 13.6
1/15/2023 7:30:00 PM 2.29 36.122 0.188 8.47 0 13.57
1/15/2023 7:45:00 PM 2.27 36.086 0.188 8.44 0 13.56
1/15/2023 8:00:00 PM 2.23 36.014 0.188 8.47 0 13.56
1/15/2023 8:15:00 PM 2.21 35.978 0.188 8.47 0 13.55
1/15/2023 8:30:00 PM 2.19 35.942 0.188 8.47 0 13.53
1/15/2023 8:45:00 PM 2.16 35.888 0.188 8.43 0 13.52
1/15/2023 9:00:00 PM 2.14 35.852 0.188 8.42 0 13.53
1/15/2023 9:15:00 PM 2.11 35.798 0.188 8.47 0 13.51
1/15/2023 9:30:00 PM 2.09 35.762 0.188 8.39 0 13.3
1/15/2023 9:45:00 PM 2.07 35.726 0.187 8.47 0 13.28
1/15/2023 10:00:00 PM 2.04 35.672 0.187 8.47 0 13.13
1/15/2023 10:15:00 PM 2.02 35.636 0.187 8.41 0 13.31
1/15/2023 10:30:00 PM 2 35.6 0.187 8.44 0 13.42
1/15/2023 10:45:00 PM 1.98 35.564 0.187 8.43 0 13.45
1/15/2023 11:00:00 PM 1.95 35.51 0.187 8.49 0 13.46
1/15/2023 11:15:00 PM 1.93 35.474 0.187 8.45 0 13.49
1/15/2023 11:30:00 PM 1.91 35.438 0.187 8.42 0 13.45
1/15/2023 11:45:00 PM 1.88 35.384 0.187 8.42 0 13.48
1/16/2023 12:00:00 AM 1.86 35.348 0.187 8.4 0 13.5
1/16/2023 12:15:00 AM 1.84 35.312 0.187 8.44 0 13.49
1/16/2023 12:30:00 AM 1.82 35.276 0.186 8.42 0 13.37
1/16/2023 12:45:00 AM 1.8 35.24 0.186 8.44 0 13.42
1/16/2023 1:00:00 AM 1.78 35.204 0.186 8.41 0 13.27
1/16/2023 1:15:00 AM 1.76 35.168 0.186 8.44 0 12.78
1/16/2023 1:30:00 AM 1.73 35.114 0.186 8.44 0 13.05
1/16/2023 1:45:00 AM 1.71 35.078 0.186 8.42 0 13.11
1/16/2023 2:00:00 AM 1.72 35.096 0.186 8.41 0 13.33
1/16/2023 2:15:00 AM 1.66 34.988 0.186 8.39 0 13.4
1/16/2023 2:30:00 AM 1.64 34.952 0.187 8.43 0 13.42
1/16/2023 2:45:00 AM 1.62 34.916 0.187 8.43 0 13.44
1/16/2023 3:00:00 AM 1.6 34.88 0.187 8.41 0 13.44
1/16/2023 3:15:00 AM 1.58 34.844 0.187 8.44 0 13.42
1/16/2023 3:30:00 AM 1.55 34.79 0.187 8.42 -1520 13.41
1/16/2023 3:45:00 AM 1.53 34.754 0.187 8.44 -1333 13.4
1/16/2023 4:00:00 AM 1.5 34.7 0.187 8.47 -2127 13.4
1/16/2023 4:15:00 AM 1.47 34.646 0.188 8.42 -1408 13.4
1/16/2023 4:30:00 AM 1.62 34.916 0.187 8.46 -938.9 13.32
1/16/2023 4:45:00 AM 1.41 34.538 0.188 8.5 143.5 13.39
1/16/2023 5:00:00 AM 1.38 34.484 0.188 8.46 0 13.42
1/16/2023 5:15:00 AM 1.34 34.412 0.188 8.49 0 13.45
1/16/2023 5:30:00 AM 1.31 34.358 0.188 8.42 0 13.4
1/16/2023 5:45:00 AM 1.29 34.322 0.188 8.44 923.6 13.33
1/16/2023 6:00:00 AM 1.25 34.25 0.189 8.46 991.8 13.27
1/16/2023 6:15:00 AM 1.23 34.214 0.189 8.47 -1324 13.32
1/16/2023 6:30:00 AM 1.19 34.142 0.189 8.41 784.3 13.46
1/16/2023 6:45:00 AM 1.16 34.088 0.189 8.41 632.9 13.52
1/16/2023 7:00:00 AM 1.13 34.034 0.189 8.38 1179 13.54
1/16/2023 7:15:00 AM 1.11 33.998 0.189 8.41 1282 13.54
1/16/2023 7:30:00 AM 1.07 33.926 0.189 8.43 1605 13.56
1/16/2023 7:45:00 AM 1.04 33.872 0.189 8.4 1636 13.56
1/16/2023 8:00:00 AM 1.17 34.106 0.188 8.42 1635 13.52
1/16/2023 8:15:00 AM 0.99 33.782 0.189 8.37 1162 13.58
1/16/2023 8:30:00 AM 0.96 33.728 0.189 8.41 1599 13.59
1/16/2023 8:45:00 AM 0.95 33.71 0.189 8.43 1645 13.6
1/16/2023 9:00:00 AM 0.94 33.692 0.189 8.41 1666 13.62
1/16/2023 9:15:00 AM 0.95 33.71 0.189 8.4 1733 13.65
1/16/2023 9:30:00 AM 0.96 33.728 0.189 8.39 1624 13.65
1/16/2023 9:45:00 AM 0.99 33.782 0.189 8.43 1626 13.68
1/16/2023 10:00:00 AM 1.02 33.836 0.189 8.43 1572 13.69
1/16/2023 10:15:00 AM 1.06 33.908 0.189